Darstellungsparameter: Aktuell verwendete Einstellungen:
Skalierung der Graphiken ... ?
xyx+y,   Skalierungsfaktor:      Skalierung: Modus: x, Faktor: 1
Darstellungszeitraum ... ?
Vom - - bis: - -   Zeitraum: 30.01.2019 - 29.07.2019
Min/Max/Avg-Anzeige ... ?
Zeige MMA aktuell
Zeige MMA Monat
Zeige MMA alles
Zeige --A aktuell
Zeige --A Monat
Zeige --A alles
Keine MMA-Anzeige
MMA:
Keine MMA-Graphiken
MMA-Basis: 30.01.2019 - 29.07.2019
Quicknavigation für Darstellung... ?
Tage:      1T, 2T, 3T, 5T -1T -2T -3T -5T +1T +2T +3T +5T
Wochen: 1W, 2W, 3W -1W -2W -3W +1W +2W +3W
Monate: 1M, 3M, 6M -1M -3M -6M +1M +3M +6M
Jahre:    1J, 3J, 5J, 10J -1J -3J -5J -10J +1J +3J +5J +10J
Nutze für die Darstellung ... ?
Originaldaten oder Mittelwerte auf ...
Stundenbasis Tagesbasis Wochenbasis
Monatsbasis Jahresbasis      Datenbasis: Original-Daten
Darstellen als:
Statistik (Auto) Statistik J:M      Darstellung:
Zur Graphik,    zurück zur Übersicht aller Sensoren.
 
Tabellarische Datenbersicht: ?
 
Sensor: Nr:Datum:Temp:Feuchte:Taupunkt:
Aussen-T/F 1 30-01-2019 00:00:00 -0.6 C 93 % -1.59 C
2 30-01-2019 00:05:00 -0.6 C 93 % -1.59 C
3 30-01-2019 00:10:00 -0.6 C 93 % -1.59 C
4 30-01-2019 00:15:00 -0.6 C 93 % -1.59 C
5 30-01-2019 00:20:00 -0.7 C 93 % -1.69 C
6 30-01-2019 00:25:00 -0.5 C 93 % -1.49 C
7 30-01-2019 00:30:00 -0.4 C 93 % -1.39 C
8 30-01-2019 00:35:00 -0.4 C 93 % -1.39 C
9 30-01-2019 00:40:00 -0.5 C 93 % -1.49 C
10 30-01-2019 00:45:00 -0.5 C 93 % -1.49 C
11 30-01-2019 00:50:00 -0.6 C 93 % -1.59 C
12 30-01-2019 00:55:00 -0.6 C 93 % -1.59 C
13 30-01-2019 01:00:00 -0.6 C 93 % -1.59 C
14 30-01-2019 01:05:00 -0.6 C 93 % -1.59 C
15 30-01-2019 01:10:00 -0.6 C 93 % -1.59 C
16 30-01-2019 01:15:00 -0.7 C 93 % -1.69 C
17 30-01-2019 01:20:00 -0.7 C 93 % -1.69 C
18 30-01-2019 01:25:00 -0.7 C 93 % -1.69 C
19 30-01-2019 01:30:00 -0.7 C 93 % -1.69 C
20 30-01-2019 01:35:00 -0.7 C 93 % -1.69 C
21 30-01-2019 01:40:00 -0.7 C 93 % -1.69 C
22 30-01-2019 01:45:00 -0.7 C 93 % -1.69 C
23 30-01-2019 01:50:00 -0.7 C 93 % -1.69 C
24 30-01-2019 01:55:00 -0.7 C 93 % -1.69 C
25 30-01-2019 02:00:00 -0.7 C 93 % -1.69 C
Sensor: Nr:Datum:Temp:Feuchte:Taupunkt:
Aussen-T/F 26 30-01-2019 02:05:00 -0.8 C 93 % -1.79 C
27 30-01-2019 02:10:00 -0.7 C 93 % -1.69 C
28 30-01-2019 02:15:00 -0.8 C 93 % -1.79 C
29 30-01-2019 02:20:00 -0.7 C 93 % -1.69 C
30 30-01-2019 02:25:00 -0.7 C 93 % -1.69 C
31 30-01-2019 02:30:00 -0.7 C 93 % -1.69 C
32 30-01-2019 02:35:00 -0.7 C 93 % -1.69 C
33 30-01-2019 02:40:00 -0.6 C 93 % -1.59 C
34 30-01-2019 02:45:00 -0.6 C 93 % -1.59 C
35 30-01-2019 02:50:00 -0.6 C 93 % -1.59 C
36 30-01-2019 02:55:00 -0.6 C 93 % -1.59 C
37 30-01-2019 03:00:00 -0.7 C 93 % -1.69 C
38 30-01-2019 03:05:00 -0.7 C 93 % -1.69 C
39 30-01-2019 03:10:00 -0.7 C 93 % -1.69 C
40 30-01-2019 03:15:00 -0.8 C 92 % -1.93 C
41 30-01-2019 03:20:00 -0.8 C 93 % -1.79 C
42 30-01-2019 03:25:00 -0.8 C 93 % -1.79 C
43 30-01-2019 03:30:00 -0.8 C 92 % -1.93 C
44 30-01-2019 03:35:00 -0.8 C 92 % -1.93 C
45 30-01-2019 03:40:00 -0.8 C 92 % -1.93 C
46 30-01-2019 03:45:00 -0.9 C 92 % -2.03 C
47 30-01-2019 03:50:00 -0.9 C 92 % -2.03 C
48 30-01-2019 03:55:00 -0.9 C 92 % -2.03 C
49 30-01-2019 04:00:00 -0.9 C 92 % -2.03 C
50 30-01-2019 04:05:00 -0.9 C 92 % -2.03 C
Sensor: Nr:Datum:Temp:Feuchte:Taupunkt:
Aussen-T/F 51 30-01-2019 04:10:00 -0.9 C 92 % -2.03 C
52 30-01-2019 04:15:00 -0.9 C 92 % -2.03 C
53 30-01-2019 04:20:00 -0.9 C 93 % -1.89 C
54 30-01-2019 04:25:00 -0.9 C 93 % -1.89 C
55 30-01-2019 04:30:00 -0.9 C 93 % -1.89 C
56 30-01-2019 04:35:00 -0.9 C 93 % -1.89 C
57 30-01-2019 04:40:00 -0.9 C 93 % -1.89 C
58 30-01-2019 04:45:00 -0.8 C 93 % -1.79 C
59 30-01-2019 04:50:00 -0.8 C 93 % -1.79 C
60 30-01-2019 04:55:00 -0.8 C 93 % -1.79 C
61 30-01-2019 05:00:00 -0.7 C 93 % -1.69 C
62 30-01-2019 05:05:00 -0.7 C 92 % -1.83 C
63 30-01-2019 05:10:00 -0.6 C 92 % -1.74 C
64 30-01-2019 05:15:00 -0.6 C 92 % -1.74 C
65 30-01-2019 05:20:00 -0.6 C 92 % -1.74 C
66 30-01-2019 05:25:00 -0.6 C 92 % -1.74 C
67 30-01-2019 05:30:00 -0.5 C 92 % -1.64 C
68 30-01-2019 05:35:00 -0.5 C 92 % -1.64 C
69 30-01-2019 05:40:00 -0.4 C 92 % -1.54 C
70 30-01-2019 05:45:00 -0.4 C 92 % -1.54 C
71 30-01-2019 05:50:00 -0.3 C 92 % -1.44 C
72 30-01-2019 05:55:00 -0.3 C 91 % -1.59 C
73 30-01-2019 06:00:00 -0.3 C 91 % -1.59 C
74 30-01-2019 06:05:00 -0.2 C 91 % -1.49 C
75 30-01-2019 06:10:00 -0.2 C 91 % -1.49 C
Sensor: Nr:Datum:Temp:Feuchte:Taupunkt:
Aussen-T/F 76 30-01-2019 06:15:00 -0.2 C 91 % -1.49 C
77 30-01-2019 06:20:00 -0.2 C 91 % -1.49 C
78 30-01-2019 06:25:00 -0.1 C 91 % -1.39 C
79 30-01-2019 06:30:00 -0.1 C 91 % -1.39 C
80 30-01-2019 06:35:00 -0.1 C 90 % -1.54 C
81 30-01-2019 06:40:00 -0.1 C 90 % -1.54 C
82 30-01-2019 06:45:00 0 C 90 % -1.44 C
83 30-01-2019 06:50:00 0.1 C 90 % -1.34 C
84 30-01-2019 06:55:00 0.1 C 90 % -1.34 C
85 30-01-2019 07:00:00 0.2 C 89 % -1.39 C
86 30-01-2019 07:05:00 0.2 C 89 % -1.39 C
87 30-01-2019 07:10:00 0.3 C 88 % -1.45 C
88 30-01-2019 07:15:00 0.3 C 88 % -1.45 C
89 30-01-2019 07:20:00 0.3 C 88 % -1.45 C
90 30-01-2019 07:25:00 0.3 C 88 % -1.45 C
91 30-01-2019 07:30:00 0.4 C 88 % -1.35 C
92 30-01-2019 07:35:00 0.3 C 88 % -1.45 C
93 30-01-2019 07:40:00 0.3 C 88 % -1.45 C
94 30-01-2019 07:45:00 0.4 C 89 % -1.2 C
95 30-01-2019 07:50:00 0.4 C 89 % -1.2 C
96 30-01-2019 07:55:00 0.3 C 90 % -1.14 C
97 30-01-2019 08:00:00 0.3 C 90 % -1.14 C
98 30-01-2019 08:05:00 0.3 C 90 % -1.14 C
99 30-01-2019 08:10:00 0.3 C 91 % -0.99 C
100 30-01-2019 08:15:00 0.2 C 91 % -1.09 C
Sensor: Nr:Datum:Temp:Feuchte:Taupunkt:
Aussen-T/F 101 30-01-2019 08:20:00 0.2 C 91 % -1.09 C
102 30-01-2019 08:25:00 0.2 C 92 % -0.94 C
103 30-01-2019 08:30:00 0.1 C 92 % -1.04 C
104 30-01-2019 08:35:00 0.1 C 92 % -1.04 C
105 30-01-2019 08:40:00 0.1 C 92 % -1.04 C
106 30-01-2019 08:45:00 0.1 C 93 % -0.89 C
107 30-01-2019 08:50:00 0.1 C 93 % -0.89 C
108 30-01-2019 08:55:00 0 C 93 % -0.99 C
109 30-01-2019 09:00:00 0 C 93 % -0.99 C
110 30-01-2019 09:05:00 0 C 93 % -0.99 C
111 30-01-2019 09:10:00 0 C 94 % -0.85 C
112 30-01-2019 09:15:00 0 C 94 % -0.85 C
113 30-01-2019 09:20:00 0 C 94 % -0.85 C
114 30-01-2019 09:25:00 0 C 94 % -0.85 C
115 30-01-2019 09:30:00 0 C 94 % -0.85 C
116 30-01-2019 09:35:00 0 C 94 % -0.85 C
117 30-01-2019 09:40:00 0 C 94 % -0.85 C
118 30-01-2019 09:45:00 0.1 C 94 % -0.75 C
119 30-01-2019 09:50:00 0.1 C 94 % -0.75 C
120 30-01-2019 09:55:00 0.1 C 94 % -0.75 C
121 30-01-2019 10:00:00 0.1 C 94 % -0.75 C
122 30-01-2019 10:05:00 0.1 C 94 % -0.75 C
123 30-01-2019 10:10:00 0.1 C 94 % -0.75 C
124 30-01-2019 10:15:00 0.2 C 94 % -0.65 C
125 30-01-2019 10:20:00 0.2 C 94 % -0.65 C
Sensor: Nr:Datum:Temp:Feuchte:Taupunkt:
Aussen-T/F 126 30-01-2019 10:25:00 0.3 C 94 % -0.55 C
127 30-01-2019 10:30:00 0.3 C 94 % -0.55 C
128 30-01-2019 10:35:00 0.4 C 94 % -0.45 C
129 30-01-2019 10:40:00 0.4 C 94 % -0.45 C
130 30-01-2019 10:45:00 0.4 C 94 % -0.45 C
131 30-01-2019 10:50:00 0.5 C 94 % -0.35 C
132 30-01-2019 10:55:00 0.6 C 94 % -0.25 C
133 30-01-2019 11:00:00 0.6 C 94 % -0.25 C
134 30-01-2019 11:05:00 0.7 C 94 % -0.15 C
135 30-01-2019 11:10:00 0.7 C 94 % -0.15 C
136 30-01-2019 11:15:00 0.8 C 94 % -0.05 C
137 30-01-2019 11:20:00 0.8 C 94 % -0.05 C
138 30-01-2019 11:25:00 0.8 C 94 % -0.05 C
139 30-01-2019 11:30:00 0.9 C 94 % 0.05 C
140 30-01-2019 11:35:00 0.9 C 94 % 0.05 C
141 30-01-2019 11:40:00 0.9 C 94 % 0.05 C
142 30-01-2019 11:45:00 0.9 C 94 % 0.05 C
143 30-01-2019 11:50:00 0.9 C 94 % 0.05 C
144 30-01-2019 11:55:00 1 C 94 % 0.15 C
145 30-01-2019 12:00:00 1.1 C 94 % 0.24 C
146 30-01-2019 12:05:00 1.1 C 94 % 0.24 C
147 30-01-2019 12:10:00 1.2 C 94 % 0.34 C
148 30-01-2019 12:15:00 1.2 C 94 % 0.34 C
149 30-01-2019 12:20:00 1.3 C 95 % 0.59 C
150 30-01-2019 12:25:00 1.4 C 94 % 0.54 C
Sensor: Nr:Datum:Temp:Feuchte:Taupunkt:
Aussen-T/F 151 30-01-2019 12:30:00 1.4 C 94 % 0.54 C
152 30-01-2019 12:35:00 1.5 C 94 % 0.64 C
153 30-01-2019 12:40:00 1.6 C 94 % 0.74 C
154 30-01-2019 12:45:00 1.7 C 94 % 0.84 C
155 30-01-2019 12:50:00 1.7 C 94 % 0.84 C
156 30-01-2019 12:55:00 1.7 C 94 % 0.84 C
157 30-01-2019 13:00:00 1.7 C 94 % 0.84 C
158 30-01-2019 13:05:00 1.7 C 94 % 0.84 C
159 30-01-2019 13:10:00 1.6 C 94 % 0.74 C
160 30-01-2019 13:15:00 1.6 C 94 % 0.74 C
161 30-01-2019 13:20:00 1.6 C 94 % 0.74 C
162 30-01-2019 13:25:00 1.6 C 94 % 0.74 C
163 30-01-2019 13:30:00 1.7 C 94 % 0.84 C
164 30-01-2019 13:35:00 1.7 C 94 % 0.84 C
165 30-01-2019 13:40:00 1.7 C 94 % 0.84 C
166 30-01-2019 13:45:00 1.7 C 94 % 0.84 C
167 30-01-2019 13:50:00 1.7 C 94 % 0.84 C
168 30-01-2019 13:55:00 1.7 C 94 % 0.84 C
169 30-01-2019 14:00:00 1.7 C 94 % 0.84 C
170 30-01-2019 14:05:00 1.8 C 94 % 0.94 C
171 30-01-2019 14:10:00 1.8 C 94 % 0.94 C
172 30-01-2019 14:15:00 1.8 C 93 % 0.79 C
173 30-01-2019 14:20:00 1.7 C 93 % 0.69 C
174 30-01-2019 14:25:00 1.7 C 93 % 0.69 C
175 30-01-2019 14:30:00 1.7 C 94 % 0.84 C
Sensor: Nr:Datum:Temp:Feuchte:Taupunkt:
Aussen-T/F 176 30-01-2019 14:35:00 1.7 C 94 % 0.84 C
177 30-01-2019 14:40:00 1.7 C 94 % 0.84 C
178 30-01-2019 14:45:00 1.7 C 94 % 0.84 C
179 30-01-2019 14:50:00 1.6 C 94 % 0.74 C
180 30-01-2019 14:55:00 1.6 C 94 % 0.74 C
181 30-01-2019 15:00:00 1.6 C 94 % 0.74 C
182 30-01-2019 15:05:00 1.6 C 94 % 0.74 C
183 30-01-2019 15:10:00 1.6 C 94 % 0.74 C
184 30-01-2019 15:15:00 1.6 C 94 % 0.74 C
185 30-01-2019 15:20:00 1.5 C 94 % 0.64 C
186 30-01-2019 15:25:00 1.4 C 94 % 0.54 C
187 30-01-2019 15:30:00 1.4 C 94 % 0.54 C
188 30-01-2019 15:35:00 1.4 C 94 % 0.54 C
189 30-01-2019 15:40:00 1.5 C 94 % 0.64 C
190 30-01-2019 15:45:00 1.4 C 94 % 0.54 C
191 30-01-2019 15:50:00 1.4 C 94 % 0.54 C
192 30-01-2019 15:55:00 1.3 C 94 % 0.44 C
193 30-01-2019 16:00:00 1.3 C 94 % 0.44 C
194 30-01-2019 16:05:00 1.3 C 94 % 0.44 C
195 30-01-2019 16:10:00 1.2 C 94 % 0.34 C
196 30-01-2019 16:15:00 1.2 C 95 % 0.49 C
197 30-01-2019 16:20:00 1.2 C 95 % 0.49 C
198 30-01-2019 16:25:00 1.1 C 95 % 0.39 C
199 30-01-2019 16:30:00 1.1 C 95 % 0.39 C
200 30-01-2019 16:35:00 1.1 C 95 % 0.39 C
Sensor: Nr:Datum:Temp:Feuchte:Taupunkt:
Aussen-T/F 201 30-01-2019 16:40:00 1.1 C 95 % 0.39 C
202 30-01-2019 16:45:00 1.1 C 95 % 0.39 C
203 30-01-2019 16:50:00 1.1 C 95 % 0.39 C
204 30-01-2019 16:55:00 1.1 C 95 % 0.39 C
205 30-01-2019 17:00:00 1.1 C 95 % 0.39 C
206 30-01-2019 17:05:00 1.1 C 95 % 0.39 C
207 30-01-2019 17:10:00 1.1 C 95 % 0.39 C
208 30-01-2019 17:15:00 1.1 C 95 % 0.39 C
209 30-01-2019 17:20:00 1.1 C 95 % 0.39 C
210 30-01-2019 17:25:00 1.1 C 95 % 0.39 C
211 30-01-2019 17:30:00 1.1 C 95 % 0.39 C
212 30-01-2019 17:35:00 1.1 C 95 % 0.39 C
213 30-01-2019 17:40:00 1.1 C 95 % 0.39 C
214 30-01-2019 17:45:00 1.1 C 95 % 0.39 C
215 30-01-2019 17:50:00 1.1 C 95 % 0.39 C
216 30-01-2019 17:55:00 1.1 C 95 % 0.39 C
217 30-01-2019 18:00:00 1.1 C 95 % 0.39 C
218 30-01-2019 18:05:00 1.1 C 95 % 0.39 C
219 30-01-2019 18:10:00 1.1 C 95 % 0.39 C
220 30-01-2019 18:15:00 1 C 95 % 0.29 C
221 30-01-2019 18:20:00 1.1 C 95 % 0.39 C
222 30-01-2019 18:25:00 1 C 95 % 0.29 C
223 30-01-2019 18:30:00 1.1 C 95 % 0.39 C
224 30-01-2019 18:35:00 1 C 95 % 0.29 C
225 30-01-2019 18:40:00 1.1 C 95 % 0.39 C
Sensor: Nr:Datum:Temp:Feuchte:Taupunkt:
Aussen-T/F 226 30-01-2019 18:45:00 1.1 C 95 % 0.39 C
227 30-01-2019 18:50:00 1.1 C 95 % 0.39 C
228 30-01-2019 18:55:00 1.1 C 95 % 0.39 C
229 30-01-2019 19:00:00 1.1 C 95 % 0.39 C
230 30-01-2019 19:05:00 1.1 C 95 % 0.39 C
231 30-01-2019 19:10:00 1.1 C 95 % 0.39 C
232 30-01-2019 19:15:00 1.1 C 96 % 0.54 C
233 30-01-2019 19:20:00 1.1 C 96 % 0.54 C
234 30-01-2019 19:25:00 1.1 C 96 % 0.54 C
235 30-01-2019 19:30:00 1.1 C 96 % 0.54 C
236 30-01-2019 19:35:00 1.1 C 96 % 0.54 C
237 30-01-2019 19:40:00 1.1 C 96 % 0.54 C
238 30-01-2019 19:45:00 1.1 C 96 % 0.54 C
239 30-01-2019 19:50:00 1 C 96 % 0.44 C
240 30-01-2019 19:55:00 1 C 96 % 0.44 C
241 30-01-2019 20:00:00 1 C 96 % 0.44 C
242 30-01-2019 20:05:00 1 C 96 % 0.44 C
243 30-01-2019 20:10:00 1 C 96 % 0.44 C
244 30-01-2019 20:15:00 1 C 96 % 0.44 C
245 30-01-2019 20:20:00 1.1 C 96 % 0.54 C
246 30-01-2019 20:25:00 1.1 C 96 % 0.54 C
247 30-01-2019 20:30:00 1.1 C 96 % 0.54 C
248 30-01-2019 20:35:00 1.1 C 96 % 0.54 C
249 30-01-2019 20:40:00 1 C 95 % 0.29 C
250 30-01-2019 20:45:00 1 C 95 % 0.29 C
Sensor: Nr:Datum:Temp:Feuchte:Taupunkt:
Aussen-T/F 251 30-01-2019 20:50:00 1 C 95 % 0.29 C
252 30-01-2019 20:55:00 1 C 95 % 0.29 C
253 30-01-2019 21:00:00 1 C 94 % 0.15 C
254 30-01-2019 21:05:00 1 C 94 % 0.15 C
255 30-01-2019 21:10:00 1 C 94 % 0.15 C
256 30-01-2019 21:15:00 1 C 94 % 0.15 C
257 30-01-2019 21:20:00 1 C 94 % 0.15 C
258 30-01-2019 21:25:00 1 C 94 % 0.15 C
259 30-01-2019 21:30:00 1 C 94 % 0.15 C
260 30-01-2019 21:35:00 0.9 C 94 % 0.05 C
261 30-01-2019 21:40:00 0.9 C 94 % 0.05 C
262 30-01-2019 21:45:00 0.9 C 94 % 0.05 C
263 30-01-2019 21:50:00 0.9 C 94 % 0.05 C
264 30-01-2019 21:55:00 0.9 C 94 % 0.05 C
265 30-01-2019 22:00:00 0.8 C 94 % -0.05 C
266 30-01-2019 22:05:00 0.8 C 93 % -0.2 C
267 30-01-2019 22:10:00 0.8 C 93 % -0.2 C
268 30-01-2019 22:15:00 0.8 C 93 % -0.2 C
269 30-01-2019 22:20:00 0.7 C 93 % -0.3 C
270 30-01-2019 22:25:00 0.7 C 93 % -0.3 C
271 30-01-2019 22:30:00 0.7 C 93 % -0.3 C
272 30-01-2019 22:35:00 0.7 C 93 % -0.3 C
273 30-01-2019 22:40:00 0.7 C 93 % -0.3 C
274 30-01-2019 22:45:00 0.7 C 92 % -0.45 C
275 30-01-2019 22:50:00 0.6 C 92 % -0.55 C
Sensor: Nr:Datum:Temp:Feuchte:Taupunkt:
Aussen-T/F 276 30-01-2019 22:55:00 0.6 C 92 % -0.55 C
277 30-01-2019 23:00:00 0.6 C 92 % -0.55 C
278 30-01-2019 23:05:00 0.4 C 92 % -0.74 C
279 30-01-2019 23:10:00 0.4 C 92 % -0.74 C
280 30-01-2019 23:15:00 0.3 C 92 % -0.84 C
281 30-01-2019 23:20:00 0.3 C 92 % -0.84 C
282 30-01-2019 23:25:00 0.3 C 92 % -0.84 C
283 30-01-2019 23:30:00 0.2 C 92 % -0.94 C
284 30-01-2019 23:35:00 0.2 C 93 % -0.79 C
285 30-01-2019 23:40:00 0.1 C 92 % -1.04 C
286 30-01-2019 23:45:00 0.1 C 93 % -0.89 C
287 30-01-2019 23:50:00 0 C 93 % -0.99 C
288 30-01-2019 23:55:00 -0.1 C 93 % -1.09 C
289 31-01-2019 00:00:00 -0.2 C 93 % -1.19 C
290 31-01-2019 00:05:00 -0.2 C 93 % -1.19 C
291 31-01-2019 00:10:00 -0.2 C 93 % -1.19 C
292 31-01-2019 00:15:00 -0.2 C 93 % -1.19 C
293 31-01-2019 00:20:00 -0.3 C 93 % -1.29 C
294 31-01-2019 00:25:00 -0.3 C 93 % -1.29 C
295 31-01-2019 00:30:00 -0.4 C 93 % -1.39 C
296 31-01-2019 00:35:00 -0.4 C 93 % -1.39 C
297 31-01-2019 00:40:00 -0.5 C 93 % -1.49 C
298 31-01-2019 00:45:00 -0.6 C 93 % -1.59 C
299 31-01-2019 00:50:00 -0.7 C 93 % -1.69 C
300 31-01-2019 00:55:00 -0.8 C 93 % -1.79 C
Sensor: Nr:Datum:Temp:Feuchte:Taupunkt:
Aussen-T/F 301 31-01-2019 01:00:00 -1 C 93 % -1.99 C
302 31-01-2019 01:05:00 -1.1 C 93 % -2.09 C
303 31-01-2019 01:10:00 -1.2 C 93 % -2.18 C
304 31-01-2019 01:15:00 -1.3 C 93 % -2.28 C
305 31-01-2019 01:20:00 -1.4 C 93 % -2.38 C
306 31-01-2019 01:25:00 -1.4 C 94 % -2.24 C
307 31-01-2019 01:30:00 -1.4 C 94 % -2.24 C
308 31-01-2019 01:35:00 -1.4 C 94 % -2.24 C
309 31-01-2019 01:40:00 -1.3 C 94 % -2.14 C
310 31-01-2019 01:45:00 -1.2 C 95 % -1.9 C
311 31-01-2019 01:50:00 -1.1 C 95 % -1.8 C
312 31-01-2019 01:55:00 -1.1 C 95 % -1.8 C
313 31-01-2019 02:00:00 -1.1 C 94 % -1.94 C
314 31-01-2019 02:05:00 -1.2 C 94 % -2.04 C
315 31-01-2019 02:10:00 -1.2 C 94 % -2.04 C
316 31-01-2019 02:15:00 -1.2 C 94 % -2.04 C
317 31-01-2019 02:20:00 -1.3 C 94 % -2.14 C
318 31-01-2019 02:25:00 -1.3 C 95 % -2 C
319 31-01-2019 02:30:00 -1.3 C 94 % -2.14 C
320 31-01-2019 02:35:00 -1.3 C 95 % -2 C
321 31-01-2019 02:40:00 -1.4 C 95 % -2.1 C
322 31-01-2019 02:45:00 -1.4 C 95 % -2.1 C
323 31-01-2019 02:50:00 -1.4 C 95 % -2.1 C
324 31-01-2019 02:55:00 -1.4 C 95 % -2.1 C
325 31-01-2019 03:00:00 -1.4 C 95 % -2.1 C
Sensor: Nr:Datum:Temp:Feuchte:Taupunkt:
Aussen-T/F 326 31-01-2019 03:05:00 -1.4 C 95 % -2.1 C
327 31-01-2019 03:10:00 -1.4 C 95 % -2.1 C
328 31-01-2019 03:15:00 -1.4 C 95 % -2.1 C
329 31-01-2019 03:20:00 -1.4 C 95 % -2.1 C
330 31-01-2019 03:25:00 -1.4 C 95 % -2.1 C
331 31-01-2019 03:30:00 -1.3 C 95 % -2 C
332 31-01-2019 03:35:00 -1.3 C 95 % -2 C
333 31-01-2019 03:40:00 -1.2 C 95 % -1.9 C
334 31-01-2019 03:45:00 -1.2 C 95 % -1.9 C
335 31-01-2019 03:50:00 -1.2 C 95 % -1.9 C
336 31-01-2019 03:55:00 -1.1 C 95 % -1.8 C
337 31-01-2019 04:00:00 -0.9 C 96 % -1.46 C
338 31-01-2019 04:05:00 -0.9 C 96 % -1.46 C
339 31-01-2019 04:10:00 -0.8 C 96 % -1.36 C
340 31-01-2019 04:15:00 -0.8 C 96 % -1.36 C
341 31-01-2019 04:20:00 -0.8 C 96 % -1.36 C
342 31-01-2019 04:25:00 -0.8 C 96 % -1.36 C
343 31-01-2019 04:30:00 -0.8 C 95 % -1.5 C
344 31-01-2019 04:35:00 -0.8 C 95 % -1.5 C
345 31-01-2019 04:40:00 -0.8 C 95 % -1.5 C
346 31-01-2019 04:45:00 -0.8 C 95 % -1.5 C
347 31-01-2019 04:50:00 -0.7 C 95 % -1.4 C
348 31-01-2019 04:55:00 -0.7 C 96 % -1.26 C
349 31-01-2019 05:00:00 -0.7 C 96 % -1.26 C
350 31-01-2019 05:05:00 -0.7 C 96 % -1.26 C
Sensor: Nr:Datum:Temp:Feuchte:Taupunkt:
Aussen-T/F 351 31-01-2019 05:10:00 -0.7 C 96 % -1.26 C
352 31-01-2019 05:15:00 -0.7 C 96 % -1.26 C
353 31-01-2019 05:20:00 -0.6 C 96 % -1.16 C
354 31-01-2019 05:25:00 -0.6 C 96 % -1.16 C
355 31-01-2019 05:30:00 -0.6 C 96 % -1.16 C
356 31-01-2019 05:35:00 -0.6 C 96 % -1.16 C
357 31-01-2019 05:40:00 -0.6 C 96 % -1.16 C
358 31-01-2019 05:45:00 -0.6 C 96 % -1.16 C
359 31-01-2019 05:50:00 -0.5 C 96 % -1.06 C
360 31-01-2019 05:55:00 -0.5 C 96 % -1.06 C
361 31-01-2019 06:00:00 -0.5 C 96 % -1.06 C
362 31-01-2019 06:05:00 -0.5 C 96 % -1.06 C
363 31-01-2019 06:10:00 -0.4 C 96 % -0.96 C
364 31-01-2019 06:15:00 -0.4 C 96 % -0.96 C
365 31-01-2019 06:20:00 -0.4 C 96 % -0.96 C
366 31-01-2019 06:25:00 -0.4 C 96 % -0.96 C
367 31-01-2019 06:30:00 -0.4 C 96 % -0.96 C
368 31-01-2019 06:35:00 -0.4 C 96 % -0.96 C
369 31-01-2019 06:40:00 -0.4 C 96 % -0.96 C
370 31-01-2019 06:45:00 -0.4 C 96 % -0.96 C
371 31-01-2019 06:50:00 -0.4 C 96 % -0.96 C
372 31-01-2019 06:55:00 -0.4 C 96 % -0.96 C
373 31-01-2019 07:00:00 -0.4 C 96 % -0.96 C
374 31-01-2019 07:05:00 -0.5 C 96 % -1.06 C
375 31-01-2019 07:10:00 -0.4 C 96 % -0.96 C
Sensor: Nr:Datum:Temp:Feuchte:Taupunkt:
Aussen-T/F 376 31-01-2019 07:15:00 -0.4 C 96 % -0.96 C
377 31-01-2019 07:20:00 -0.4 C 96 % -0.96 C
378 31-01-2019 07:25:00 -0.4 C 96 % -0.96 C
379 31-01-2019 07:30:00 -0.3 C 96 % -0.86 C
380 31-01-2019 07:35:00 -0.3 C 96 % -0.86 C
381 31-01-2019 07:40:00 -0.3 C 96 % -0.86 C
382 31-01-2019 07:45:00 -0.3 C 96 % -0.86 C
383 31-01-2019 07:50:00 -0.3 C 96 % -0.86 C
384 31-01-2019 07:55:00 -0.3 C 96 % -0.86 C
385 31-01-2019 08:00:00 -0.3 C 96 % -0.86 C
386 31-01-2019 08:05:00 -0.3 C 96 % -0.86 C
387 31-01-2019 08:10:00 -0.3 C 96 % -0.86 C
388 31-01-2019 08:15:00 -0.3 C 96 % -0.86 C
389 31-01-2019 08:20:00 -0.3 C 96 % -0.86 C
390 31-01-2019 08:25:00 -0.3 C 96 % -0.86 C
391 31-01-2019 08:30:00 -0.3 C 96 % -0.86 C
392 31-01-2019 08:35:00 -0.3 C 96 % -0.86 C
393 31-01-2019 08:40:00 -0.3 C 96 % -0.86 C
394 31-01-2019 08:45:00 -0.3 C 96 % -0.86 C
395 31-01-2019 08:50:00 -0.3 C 96 % -0.86 C
396 31-01-2019 08:55:00 -0.2 C 96 % -0.76 C
397 31-01-2019 09:00:00 -0.2 C 96 % -0.76 C
398 31-01-2019 09:05:00 -0.1 C 96 % -0.66 C
399 31-01-2019 09:10:00 -0.1 C 96 % -0.66 C
400 31-01-2019 09:15:00 0.1 C 96 % -0.46 C
Sensor: Nr:Datum:Temp:Feuchte:Taupunkt:
Aussen-T/F 401 31-01-2019 09:20:00 0.1 C 96 % -0.46 C
402 31-01-2019 09:25:00 0.2 C 96 % -0.36 C
403 31-01-2019 09:30:00 0.3 C 96 % -0.26 C
404 31-01-2019 09:35:00 0.3 C 96 % -0.26 C
405 31-01-2019 09:40:00 0.3 C 96 % -0.26 C
406 31-01-2019 09:45:00 0.3 C 96 % -0.26 C
407 31-01-2019 09:50:00 0.3 C 96 % -0.26 C
408 31-01-2019 09:55:00 0.4 C 96 % -0.16 C
409 31-01-2019 10:00:00 0.5 C 96 % -0.06 C
410 31-01-2019 10:05:00 0.5 C 96 % -0.06 C
411 31-01-2019 10:10:00 0.6 C 96 % 0.04 C
412 31-01-2019 10:15:00 0.6 C 96 % 0.04 C
413 31-01-2019 10:20:00 0.6 C 95 % -0.11 C
414 31-01-2019 10:25:00 0.6 C 95 % -0.11 C
415 31-01-2019 10:30:00 0.7 C 95 % -0.01 C
416 31-01-2019 10:35:00 0.8 C 95 % 0.09 C
417 31-01-2019 10:40:00 0.8 C 95 % 0.09 C
418 31-01-2019 10:45:00 0.9 C 95 % 0.19 C
419 31-01-2019 10:50:00 1 C 95 % 0.29 C
420 31-01-2019 10:55:00 1.1 C 94 % 0.24 C
421 31-01-2019 11:00:00 1.1 C 94 % 0.24 C
422 31-01-2019 11:05:00 1.2 C 95 % 0.49 C
423 31-01-2019 11:10:00 1.3 C 95 % 0.59 C
424 31-01-2019 11:15:00 1.3 C 94 % 0.44 C
425 31-01-2019 11:20:00 1.4 C 94 % 0.54 C
Sensor: Nr:Datum:Temp:Feuchte:Taupunkt:
Aussen-T/F 426 31-01-2019 11:25:00 1.4 C 94 % 0.54 C
427 31-01-2019 11:30:00 1.4 C 94 % 0.54 C
428 31-01-2019 11:35:00 1.4 C 94 % 0.54 C
429 31-01-2019 11:40:00 1.4 C 94 % 0.54 C
430 31-01-2019 11:45:00 1.5 C 94 % 0.64 C
431 31-01-2019 11:50:00 1.6 C 94 % 0.74 C
432 31-01-2019 11:55:00 1.7 C 94 % 0.84 C
433 31-01-2019 12:00:00 1.8 C 94 % 0.94 C
434 31-01-2019 12:05:00 1.7 C 94 % 0.84 C
435 31-01-2019 12:10:00 1.7 C 94 % 0.84 C
436 31-01-2019 12:15:00 1.8 C 94 % 0.94 C
437 31-01-2019 12:20:00 1.8 C 94 % 0.94 C
438 31-01-2019 12:25:00 1.9 C 94 % 1.04 C
439 31-01-2019 12:30:00 1.9 C 94 % 1.04 C
440 31-01-2019 12:35:00 1.9 C 94 % 1.04 C
441 31-01-2019 12:40:00 1.9 C 94 % 1.04 C
442 31-01-2019 12:45:00 1.9 C 94 % 1.04 C
443 31-01-2019 12:50:00 1.8 C 94 % 0.94 C
444 31-01-2019 12:55:00 1.7 C 93 % 0.69 C
445 31-01-2019 13:00:00 1.7 C 93 % 0.69 C
446 31-01-2019 13:05:00 1.7 C 94 % 0.84 C
447 31-01-2019 13:10:00 1.6 C 94 % 0.74 C
448 31-01-2019 13:15:00 1.6 C 93 % 0.59 C
449 31-01-2019 13:20:00 1.6 C 94 % 0.74 C
450 31-01-2019 13:25:00 1.5 C 94 % 0.64 C
Sensor: Nr:Datum:Temp:Feuchte:Taupunkt:
Aussen-T/F 451 31-01-2019 13:30:00 1.5 C 94 % 0.64 C
452 31-01-2019 13:35:00 1.5 C 94 % 0.64 C
453 31-01-2019 13:40:00 1.5 C 94 % 0.64 C
454 31-01-2019 13:45:00 1.4 C 94 % 0.54 C
455 31-01-2019 13:50:00 1.4 C 94 % 0.54 C
456 31-01-2019 13:55:00 1.4 C 94 % 0.54 C
457 31-01-2019 14:00:00 1.4 C 94 % 0.54 C
458 31-01-2019 14:05:00 1.4 C 94 % 0.54 C
459 31-01-2019 14:10:00 1.5 C 94 % 0.64 C
460 31-01-2019 14:15:00 1.6 C 95 % 0.89 C
461 31-01-2019 14:20:00 1.7 C 95 % 0.99 C
462 31-01-2019 14:25:00 1.9 C 95 % 1.19 C
463 31-01-2019 14:30:00 2 C 95 % 1.29 C
464 31-01-2019 14:35:00 2.1 C 95 % 1.38 C
465 31-01-2019 14:40:00 2.1 C 95 % 1.38 C
466 31-01-2019 14:45:00 2.1 C 95 % 1.38 C
467 31-01-2019 14:50:00 2.1 C 94 % 1.24 C
468 31-01-2019 14:55:00 2.1 C 94 % 1.24 C
469 31-01-2019 15:00:00 2.2 C 94 % 1.34 C
470 31-01-2019 15:05:00 2.3 C 94 % 1.44 C
471 31-01-2019 15:10:00 2.4 C 94 % 1.54 C
472 31-01-2019 15:15:00 2.4 C 94 % 1.54 C
473 31-01-2019 15:20:00 2.4 C 94 % 1.54 C
474 31-01-2019 15:25:00 2.3 C 93 % 1.29 C
475 31-01-2019 15:30:00 2.3 C 93 % 1.29 C
Sensor: Nr:Datum:Temp:Feuchte:Taupunkt:
Aussen-T/F 476 31-01-2019 15:35:00 2.3 C 93 % 1.29 C
477 31-01-2019 15:40:00 2.2 C 93 % 1.19 C
478 31-01-2019 15:45:00 2.1 C 93 % 1.09 C
479 31-01-2019 15:50:00 2.1 C 93 % 1.09 C
480 31-01-2019 15:55:00 2 C 93 % 0.99 C
481 31-01-2019 16:00:00 1.9 C 93 % 0.89 C
482 31-01-2019 16:05:00 1.8 C 93 % 0.79 C
483 31-01-2019 16:10:00 1.7 C 93 % 0.69 C
484 31-01-2019 16:15:00 1.7 C 93 % 0.69 C
485 31-01-2019 16:20:00 1.6 C 93 % 0.59 C
486 31-01-2019 16:25:00 1.6 C 93 % 0.59 C
487 31-01-2019 16:30:00 1.6 C 93 % 0.59 C
488 31-01-2019 16:35:00 1.5 C 94 % 0.64 C
489 31-01-2019 16:40:00 1.4 C 93 % 0.4 C
490 31-01-2019 16:45:00 1.4 C 93 % 0.4 C
491 31-01-2019 16:50:00 1.3 C 94 % 0.44 C
492 31-01-2019 16:55:00 1.3 C 94 % 0.44 C
493 31-01-2019 17:00:00 1.2 C 94 % 0.34 C
494 31-01-2019 17:05:00 1.2 C 94 % 0.34 C
495 31-01-2019 17:10:00 1.1 C 94 % 0.24 C
496 31-01-2019 17:15:00 1.1 C 94 % 0.24 C
497 31-01-2019 17:20:00 1.1 C 94 % 0.24 C
498 31-01-2019 17:25:00 0.9 C 94 % 0.05 C
499 31-01-2019 17:30:00 0.9 C 94 % 0.05 C
500 31-01-2019 17:35:00 0.8 C 94 % -0.05 C
Sensor: Nr:Datum:Temp:Feuchte:Taupunkt:
Aussen-T/F 501 31-01-2019 17:40:00 0.8 C 94 % -0.05 C
502 31-01-2019 17:45:00 0.8 C 94 % -0.05 C
503 31-01-2019 17:50:00 0.7 C 94 % -0.15 C
504 31-01-2019 17:55:00 0.6 C 94 % -0.25 C
505 31-01-2019 18:00:00 0.4 C 94 % -0.45 C
506 31-01-2019 18:05:00 0.4 C 94 % -0.45 C
507 31-01-2019 18:10:00 0.3 C 94 % -0.55 C
508 31-01-2019 18:15:00 0.3 C 94 % -0.55 C
509 31-01-2019 18:20:00 0.2 C 94 % -0.65 C
510 31-01-2019 18:25:00 0.2 C 94 % -0.65 C
511 31-01-2019 18:30:00 0 C 94 % -0.85 C
512 31-01-2019 18:35:00 -0.1 C 94 % -0.95 C
513 31-01-2019 18:40:00 -0.2 C 94 % -1.05 C
514 31-01-2019 18:45:00 -0.2 C 94 % -1.05 C
515 31-01-2019 18:50:00 -0.2 C 94 % -1.05 C
516 31-01-2019 18:55:00 -0.3 C 94 % -1.15 C
517 31-01-2019 19:00:00 -0.3 C 94 % -1.15 C
518 31-01-2019 19:05:00 -0.4 C 94 % -1.25 C
519 31-01-2019 19:10:00 -0.6 C 94 % -1.44 C
520 31-01-2019 19:15:00 -0.8 C 93 % -1.79 C
521 31-01-2019 19:20:00 -1 C 94 % -1.84 C
522 31-01-2019 19:25:00 -1.2 C 93 % -2.18 C
523 31-01-2019 19:30:00 -1.3 C 94 % -2.14 C
524 31-01-2019 19:35:00 -1.4 C 94 % -2.24 C
525 31-01-2019 19:40:00 -1.5 C 94 % -2.34 C
Sensor: Nr:Datum:Temp:Feuchte:Taupunkt:
Aussen-T/F 526 31-01-2019 19:45:00 -1.6 C 94 % -2.44 C
527 31-01-2019 19:50:00 -1.6 C 94 % -2.44 C
528 31-01-2019 19:55:00 -1.7 C 94 % -2.54 C
529 31-01-2019 20:00:00 -1.7 C 94 % -2.54 C
530 31-01-2019 20:05:00 -1.8 C 94 % -2.64 C
531 31-01-2019 20:10:00 -1.8 C 94 % -2.64 C
532 31-01-2019 20:15:00 -1.9 C 94 % -2.73 C
533 31-01-2019 20:20:00 -1.9 C 94 % -2.73 C
534 31-01-2019 20:25:00 -1.9 C 94 % -2.73 C
535 31-01-2019 20:30:00 -2 C 94 % -2.83 C
536 31-01-2019 20:35:00 -2.1 C 94 % -2.93 C
537 31-01-2019 20:40:00 -2.1 C 94 % -2.93 C
538 31-01-2019 20:45:00 -2.1 C 94 % -2.93 C
539 31-01-2019 20:50:00 -2.1 C 95 % -2.79 C
540 31-01-2019 20:55:00 -2.1 C 95 % -2.79 C
541 31-01-2019 21:00:00 -2.1 C 95 % -2.79 C
542 31-01-2019 21:05:00 -2.1 C 95 % -2.79 C
543 31-01-2019 21:10:00 -2.1 C 95 % -2.79 C
544 31-01-2019 21:15:00 -2.1 C 95 % -2.79 C
545 31-01-2019 21:20:00 -2.1 C 95 % -2.79 C
546 31-01-2019 21:25:00 -2.1 C 95 % -2.79 C
547 31-01-2019 21:30:00 -2.1 C 95 % -2.79 C
548 31-01-2019 21:35:00 -2 C 95 % -2.69 C
549 31-01-2019 21:40:00 -1.9 C 95 % -2.59 C
550 31-01-2019 21:45:00 -1.9 C 95 % -2.59 C
Sensor: Nr:Datum:Temp:Feuchte:Taupunkt:
Aussen-T/F 551 31-01-2019 21:50:00 -1.8 C 95 % -2.49 C
552 31-01-2019 21:55:00 -1.8 C 95 % -2.49 C
553 31-01-2019 22:00:00 -1.7 C 95 % -2.39 C
554 31-01-2019 22:05:00 -1.7 C 96 % -2.25 C
555 31-01-2019 22:10:00 -1.6 C 96 % -2.15 C
556 31-01-2019 22:15:00 -1.6 C 96 % -2.15 C
557 31-01-2019 22:20:00 -1.6 C 96 % -2.15 C
558 31-01-2019 22:25:00 -1.6 C 96 % -2.15 C
559 31-01-2019 22:30:00 -1.6 C 96 % -2.15 C
560 31-01-2019 22:35:00 -1.6 C 96 % -2.15 C
561 31-01-2019 22:40:00 -1.6 C 96 % -2.15 C
562 31-01-2019 22:45:00 -1.6 C 96 % -2.15 C
563 31-01-2019 22:50:00 -1.5 C 96 % -2.05 C
564 31-01-2019 22:55:00 -1.5 C 96 % -2.05 C
565 31-01-2019 23:00:00 -1.4 C 96 % -1.95 C
566 31-01-2019 23:05:00 -1.4 C 96 % -1.95 C
567 31-01-2019 23:10:00 -1.3 C 96 % -1.85 C
568 31-01-2019 23:15:00 -1.3 C 96 % -1.85 C
569 31-01-2019 23:20:00 -1.3 C 96 % -1.85 C
570 31-01-2019 23:25:00 -1.3 C 96 % -1.85 C
571 31-01-2019 23:30:00 -1.2 C 96 % -1.75 C
572 31-01-2019 23:35:00 -1.2 C 96 % -1.75 C
573 31-01-2019 23:40:00 -1.1 C 96 % -1.66 C
574 31-01-2019 23:45:00 -1.1 C 96 % -1.66 C
575 31-01-2019 23:50:00 -1.1 C 96 % -1.66 C
Sensor: Nr:Datum:Temp:Feuchte:Taupunkt:
Aussen-T/F 576 31-01-2019 23:55:00 -1 C 96 % -1.56 C
577 01-02-2019 00:00:00 -0.9 C 96 % -1.46 C
578 01-02-2019 00:05:00 -0.9 C 96 % -1.46 C
579 01-02-2019 00:10:00 -0.9 C 96 % -1.46 C
580 01-02-2019 00:15:00 -0.8 C 96 % -1.36 C
581 01-02-2019 00:20:00 -0.8 C 96 % -1.36 C
582 01-02-2019 00:25:00 -0.8 C 96 % -1.36 C
583 01-02-2019 00:30:00 -0.8 C 96 % -1.36 C
584 01-02-2019 00:35:00 -0.7 C 96 % -1.26 C
585 01-02-2019 00:40:00 -0.7 C 96 % -1.26 C
586 01-02-2019 00:45:00 -0.7 C 96 % -1.26 C
587 01-02-2019 00:50:00 -0.7 C 96 % -1.26 C
588 01-02-2019 00:55:00 -0.6 C 96 % -1.16 C
589 01-02-2019 01:00:00 -0.6 C 96 % -1.16 C
590 01-02-2019 01:05:00 -0.6 C 96 % -1.16 C
591 01-02-2019 01:10:00 -0.5 C 96 % -1.06 C
592 01-02-2019 01:15:00 -0.5 C 96 % -1.06 C
593 01-02-2019 01:20:00 -0.4 C 96 % -0.96 C
594 01-02-2019 01:25:00 -0.4 C 96 % -0.96 C
595 01-02-2019 01:30:00 -0.4 C 96 % -0.96 C
596 01-02-2019 01:35:00 -0.4 C 96 % -0.96 C
597 01-02-2019 01:40:00 -0.4 C 96 % -0.96 C
598 01-02-2019 01:45:00 -0.4 C 96 % -0.96 C
599 01-02-2019 01:50:00 -0.4 C 96 % -0.96 C
600 01-02-2019 01:55:00 -0.3 C 96 % -0.86 C
Sensor: Nr:Datum:Temp:Feuchte:Taupunkt:
Aussen-T/F 601 01-02-2019 02:00:00 -0.3 C 96 % -0.86 C
602 01-02-2019 02:05:00 -0.3 C 96 % -0.86 C
603 01-02-2019 02:10:00 -0.2 C 96 % -0.76 C
604 01-02-2019 02:15:00 -0.2 C 96 % -0.76 C
605 01-02-2019 02:20:00 -0.2 C 96 % -0.76 C
606 01-02-2019 02:25:00 -0.2 C 96 % -0.76 C
607 01-02-2019 02:30:00 -0.1 C 96 % -0.66 C
608 01-02-2019 02:35:00 -0.1 C 96 % -0.66 C
609 01-02-2019 02:40:00 -0.1 C 96 % -0.66 C
610 01-02-2019 02:45:00 0 C 96 % -0.56 C
611 01-02-2019 02:50:00 0.1 C 96 % -0.46 C
612 01-02-2019 02:55:00 0.1 C 96 % -0.46 C
613 01-02-2019 03:00:00 0.2 C 96 % -0.36 C
614 01-02-2019 03:05:00 0.3 C 96 % -0.26 C
615 01-02-2019 03:10:00 0.4 C 97 % -0.02 C
616 01-02-2019 03:15:00 0.4 C 97 % -0.02 C
617 01-02-2019 03:20:00 0.5 C 97 % 0.08 C
618 01-02-2019 03:25:00 0.6 C 97 % 0.18 C
619 01-02-2019 03:30:00 0.6 C 96 % 0.04 C
620 01-02-2019 03:35:00 0.7 C 97 % 0.28 C
621 01-02-2019 03:40:00 0.7 C 97 % 0.28 C
622 01-02-2019 03:45:00 0.8 C 97 % 0.38 C
623 01-02-2019 03:50:00 0.8 C 97 % 0.38 C
624 01-02-2019 03:55:00 0.9 C 97 % 0.48 C
625 01-02-2019 04:00:00 0.9 C 97 % 0.48 C
Sensor: Nr:Datum:Temp:Feuchte:Taupunkt:
Aussen-T/F 626 01-02-2019 04:05:00 0.9 C 97 % 0.48 C
627 01-02-2019 04:10:00 0.9 C 97 % 0.48 C
628 01-02-2019 04:15:00 1 C 96 % 0.44 C
629 01-02-2019 04:20:00 1.1 C 96 % 0.54 C
630 01-02-2019 04:25:00 1.1 C 96 % 0.54 C
631 01-02-2019 04:30:00 1.1 C 96 % 0.54 C
632 01-02-2019 04:35:00 1.2 C 96 % 0.63 C
633 01-02-2019 04:40:00 1.2 C 96 % 0.63 C
634 01-02-2019 04:45:00 1.2 C 96 % 0.63 C
635 01-02-2019 04:50:00 1.2 C 96 % 0.63 C
636 01-02-2019 04:55:00 1.2 C 96 % 0.63 C
637 01-02-2019 05:00:00 1.2 C 96 % 0.63 C
638 01-02-2019 05:05:00 1.2 C 95 % 0.49 C
639 01-02-2019 05:10:00 1.1 C 96 % 0.54 C
640 01-02-2019 05:15:00 1.2 C 96 % 0.63 C
641 01-02-2019 05:20:00 1.1 C 96 % 0.54 C
642 01-02-2019 05:25:00 1.2 C 96 % 0.63 C
643 01-02-2019 05:30:00 1.2 C 96 % 0.63 C
644 01-02-2019 05:35:00 1.2 C 96 % 0.63 C
645 01-02-2019 05:40:00 1.2 C 96 % 0.63 C
646 01-02-2019 05:45:00 1.2 C 96 % 0.63 C
647 01-02-2019 05:50:00 1.2 C 96 % 0.63 C
648 01-02-2019 05:55:00 1.2 C 96 % 0.63 C
649 01-02-2019 06:00:00 1.2 C 96 % 0.63 C
650 01-02-2019 06:05:00 1.2 C 96 % 0.63 C
Sensor: Nr:Datum:Temp:Feuchte:Taupunkt:
Aussen-T/F 651 01-02-2019 06:10:00 1.2 C 96 % 0.63 C
652 01-02-2019 06:15:00 1.2 C 96 % 0.63 C
653 01-02-2019 06:20:00 1.1 C 95 % 0.39 C
654 01-02-2019 06:25:00 1.1 C 95 % 0.39 C
655 01-02-2019 06:30:00 1.1 C 96 % 0.54 C
656 01-02-2019 06:35:00 1.1 C 96 % 0.54 C
657 01-02-2019 06:40:00 1.1 C 96 % 0.54 C
658 01-02-2019 06:45:00 1.1 C 96 % 0.54 C
659 01-02-2019 06:50:00 1.1 C 96 % 0.54 C
660 01-02-2019 06:55:00 1.1 C 96 % 0.54 C
661 01-02-2019 07:00:00 1.1 C 96 % 0.54 C
662 01-02-2019 07:05:00 1.1 C 96 % 0.54 C
663 01-02-2019 07:10:00 1.1 C 96 % 0.54 C
664 01-02-2019 07:15:00 1.1 C 96 % 0.54 C
665 01-02-2019 07:20:00 1.1 C 96 % 0.54 C
666 01-02-2019 07:25:00 1.2 C 96 % 0.63 C
667 01-02-2019 07:30:00 1.2 C 96 % 0.63 C
668 01-02-2019 07:35:00 1.2 C 96 % 0.63 C
669 01-02-2019 07:40:00 1.2 C 96 % 0.63 C
670 01-02-2019 07:45:00 1.3 C 96 % 0.73 C
671 01-02-2019 07:50:00 1.4 C 96 % 0.83 C
672 01-02-2019 07:55:00 1.4 C 96 % 0.83 C
673 01-02-2019 08:00:00 1.4 C 96 % 0.83 C
674 01-02-2019 08:05:00 1.3 C 96 % 0.73 C
675 01-02-2019 08:10:00 1.3 C 96 % 0.73 C
Sensor: Nr:Datum:Temp:Feuchte:Taupunkt:
Aussen-T/F 676 01-02-2019 08:15:00 1.3 C 96 % 0.73 C
677 01-02-2019 08:20:00 1.3 C 96 % 0.73 C
678 01-02-2019 08:25:00 1.3 C 96 % 0.73 C
679 01-02-2019 08:30:00 1.3 C 96 % 0.73 C
680 01-02-2019 08:35:00 1.2 C 96 % 0.63 C
681 01-02-2019 08:40:00 1.2 C 96 % 0.63 C
682 01-02-2019 08:45:00 1.2 C 96 % 0.63 C
683 01-02-2019 08:50:00 1.4 C 96 % 0.83 C
684 01-02-2019 08:55:00 1.6 C 97 % 1.18 C
685 01-02-2019 09:00:00 1.8 C 96 % 1.23 C
686 01-02-2019 09:05:00 1.8 C 96 % 1.23 C
687 01-02-2019 09:10:00 1.7 C 96 % 1.13 C
688 01-02-2019 09:15:00 1.7 C 96 % 1.13 C
689 01-02-2019 09:20:00 1.6 C 96 % 1.03 C
690 01-02-2019 09:25:00 1.5 C 96 % 0.93 C
691 01-02-2019 09:30:00 1.4 C 96 % 0.83 C
692 01-02-2019 09:35:00 1.4 C 96 % 0.83 C
693 01-02-2019 09:40:00 1.4 C 96 % 0.83 C
694 01-02-2019 09:45:00 1.3 C 96 % 0.73 C
695 01-02-2019 09:50:00 1.4 C 96 % 0.83 C
696 01-02-2019 09:55:00 1.5 C 96 % 0.93 C
697 01-02-2019 10:00:00 1.6 C 96 % 1.03 C
698 01-02-2019 10:05:00 1.8 C 96 % 1.23 C
699 01-02-2019 10:10:00 1.9 C 96 % 1.33 C
700 01-02-2019 10:15:00 2 C 96 % 1.43 C
Sensor: Nr:Datum:Temp:Feuchte:Taupunkt:
Aussen-T/F 701 01-02-2019 10:20:00 2.1 C 96 % 1.53 C
702 01-02-2019 10:25:00 2.2 C 96 % 1.63 C
703 01-02-2019 10:30:00 2.3 C 96 % 1.73 C
704 01-02-2019 10:35:00 2.4 C 96 % 1.83 C
705 01-02-2019 10:40:00 2.4 C 96 % 1.83 C
706 01-02-2019 10:45:00 2.6 C 96 % 2.03 C
707 01-02-2019 10:50:00 2.6 C 96 % 2.03 C
708 01-02-2019 10:55:00 2.7 C 96 % 2.13 C
709 01-02-2019 11:00:00 2.7 C 96 % 2.13 C
710 01-02-2019 11:05:00 2.8 C 96 % 2.23 C
711 01-02-2019 11:10:00 2.9 C 96 % 2.33 C
712 01-02-2019 11:15:00 3 C 95 % 2.28 C
713 01-02-2019 11:20:00 3.1 C 95 % 2.38 C
714 01-02-2019 11:25:00 3.1 C 95 % 2.38 C
715 01-02-2019 11:30:00 3.2 C 95 % 2.48 C
716 01-02-2019 11:35:00 3.3 C 95 % 2.58 C
717 01-02-2019 11:40:00 3.3 C 95 % 2.58 C
718 01-02-2019 11:45:00 3.4 C 94 % 2.53 C
719 01-02-2019 11:50:00 3.5 C 94 % 2.63 C
720 01-02-2019 11:55:00 3.6 C 94 % 2.73 C
721 01-02-2019 12:00:00 3.6 C 94 % 2.73 C
722 01-02-2019 12:05:00 3.7 C 94 % 2.83 C
723 01-02-2019 12:10:00 3.7 C 94 % 2.83 C
724 01-02-2019 12:15:00 3.7 C 93 % 2.68 C
725 01-02-2019 12:20:00 3.6 C 93 % 2.58 C
Sensor: Nr:Datum:Temp:Feuchte:Taupunkt:
Aussen-T/F 726 01-02-2019 12:25:00 3.4 C 93 % 2.38 C
727 01-02-2019 12:30:00 3.2 C 93 % 2.18 C
728 01-02-2019 12:35:00 3.1 C 93 % 2.08 C
729 01-02-2019 12:40:00 2.8 C 93 % 1.78 C
730 01-02-2019 12:45:00 2.7 C 93 % 1.68 C
731 01-02-2019 12:50:00 2.6 C 93 % 1.59 C
732 01-02-2019 12:55:00 2.6 C 94 % 1.73 C
733 01-02-2019 13:00:00 2.7 C 94 % 1.83 C
734 01-02-2019 13:05:00 2.8 C 95 % 2.08 C
735 01-02-2019 13:10:00 2.8 C 94 % 1.93 C
736 01-02-2019 13:15:00 2.8 C 94 % 1.93 C
737 01-02-2019 13:20:00 2.7 C 94 % 1.83 C
738 01-02-2019 13:25:00 2.6 C 94 % 1.73 C
739 01-02-2019 13:30:00 2.6 C 95 % 1.88 C
740 01-02-2019 13:35:00 2.8 C 95 % 2.08 C
741 01-02-2019 13:40:00 2.8 C 95 % 2.08 C
742 01-02-2019 13:45:00 2.8 C 94 % 1.93 C
743 01-02-2019 13:50:00 2.7 C 94 % 1.83 C
744 01-02-2019 13:55:00 2.7 C 94 % 1.83 C
745 01-02-2019 14:00:00 2.8 C 95 % 2.08 C
746 01-02-2019 14:05:00 2.8 C 95 % 2.08 C
747 01-02-2019 14:10:00 3.1 C 95 % 2.38 C
748 01-02-2019 14:15:00 3.3 C 96 % 2.72 C
749 01-02-2019 14:20:00 3.6 C 96 % 3.02 C
750 01-02-2019 14:25:00 3.8 C 96 % 3.22 C
Sensor: Nr:Datum:Temp:Feuchte:Taupunkt:
Aussen-T/F 751 01-02-2019 14:30:00 3.9 C 95 % 3.17 C
752 01-02-2019 14:35:00 3.8 C 94 % 2.93 C
753 01-02-2019 14:40:00 3.7 C 94 % 2.83 C
754 01-02-2019 14:45:00 3.7 C 94 % 2.83 C
755 01-02-2019 14:50:00 3.7 C 94 % 2.83 C
756 01-02-2019 14:55:00 3.7 C 94 % 2.83 C
757 01-02-2019 15:00:00 3.7 C 94 % 2.83 C
758 01-02-2019 15:05:00 3.5 C 93 % 2.48 C
759 01-02-2019 15:10:00 3.4 C 93 % 2.38 C
760 01-02-2019 15:15:00 3.3 C 94 % 2.43 C
761 01-02-2019 15:20:00 3.3 C 94 % 2.43 C
762 01-02-2019 15:25:00 3.2 C 94 % 2.33 C
763 01-02-2019 15:30:00 3.1 C 94 % 2.23 C
764 01-02-2019 15:35:00 3 C 94 % 2.13 C
765 01-02-2019 15:40:00 3 C 94 % 2.13 C
766 01-02-2019 15:45:00 3.1 C 94 % 2.23 C
767 01-02-2019 15:50:00 3.1 C 94 % 2.23 C
768 01-02-2019 15:55:00 3.1 C 95 % 2.38 C
769 01-02-2019 16:00:00 3.1 C 95 % 2.38 C
770 01-02-2019 16:05:00 3.1 C 95 % 2.38 C
771 01-02-2019 16:10:00 3.1 C 95 % 2.38 C
772 01-02-2019 16:15:00 3.1 C 95 % 2.38 C
773 01-02-2019 16:20:00 3 C 95 % 2.28 C
774 01-02-2019 16:25:00 2.9 C 95 % 2.18 C
775 01-02-2019 16:30:00 2.8 C 95 % 2.08 C
Sensor: Nr:Datum:Temp:Feuchte:Taupunkt:
Aussen-T/F 776 01-02-2019 16:35:00 2.7 C 94 % 1.83 C
777 01-02-2019 16:40:00 2.7 C 95 % 1.98 C
778 01-02-2019 16:45:00 2.7 C 95 % 1.98 C
779 01-02-2019 16:50:00 2.6 C 95 % 1.88 C
780 01-02-2019 16:55:00 2.6 C 95 % 1.88 C
781 01-02-2019 17:00:00 2.5 C 95 % 1.78 C
782 01-02-2019 17:05:00 2.6 C 95 % 1.88 C
783 01-02-2019 17:10:00 2.6 C 95 % 1.88 C
784 01-02-2019 17:15:00 2.6 C 95 % 1.88 C
785 01-02-2019 17:20:00 2.6 C 95 % 1.88 C
786 01-02-2019 17:25:00 2.5 C 95 % 1.78 C
787 01-02-2019 17:30:00 2.5 C 95 % 1.78 C
788 01-02-2019 17:35:00 2.5 C 96 % 1.93 C
789 01-02-2019 17:40:00 2.5 C 96 % 1.93 C
790 01-02-2019 17:45:00 2.6 C 96 % 2.03 C
791 01-02-2019 17:50:00 2.5 C 96 % 1.93 C
792 01-02-2019 17:55:00 2.5 C 96 % 1.93 C
793 01-02-2019 18:00:00 2.5 C 96 % 1.93 C
794 01-02-2019 18:05:00 2.5 C 96 % 1.93 C
795 01-02-2019 18:10:00 2.6 C 96 % 2.03 C
796 01-02-2019 18:15:00 2.6 C 96 % 2.03 C
797 01-02-2019 18:20:00 2.5 C 96 % 1.93 C
798 01-02-2019 18:25:00 2.5 C 96 % 1.93 C
799 01-02-2019 18:30:00 2.4 C 96 % 1.83 C
800 01-02-2019 18:35:00 2.4 C 96 % 1.83 C
Sensor: Nr:Datum:Temp:Feuchte:Taupunkt:
Aussen-T/F 801 01-02-2019 18:40:00 2.4 C 96 % 1.83 C
802 01-02-2019 18:45:00 2.4 C 96 % 1.83 C
803 01-02-2019 18:50:00 2.4 C 96 % 1.83 C
804 01-02-2019 18:55:00 2.4 C 96 % 1.83 C
805 01-02-2019 19:00:00 2.4 C 96 % 1.83 C
806 01-02-2019 19:05:00 2.4 C 96 % 1.83 C
807 01-02-2019 19:10:00 2.3 C 96 % 1.73 C
808 01-02-2019 19:15:00 2.3 C 96 % 1.73 C
809 01-02-2019 19:20:00 2.3 C 96 % 1.73 C
810 01-02-2019 19:25:00 2.3 C 96 % 1.73 C
811 01-02-2019 19:30:00 2.2 C 96 % 1.63 C
812 01-02-2019 19:35:00 2.2 C 96 % 1.63 C
813 01-02-2019 19:40:00 2.2 C 96 % 1.63 C
814 01-02-2019 19:45:00 2.1 C 96 % 1.53 C
815 01-02-2019 19:50:00 2.1 C 96 % 1.53 C
816 01-02-2019 19:55:00 2.1 C 96 % 1.53 C
817 01-02-2019 20:00:00 2.1 C 96 % 1.53 C
818 01-02-2019 20:05:00 2.1 C 96 % 1.53 C
819 01-02-2019 20:10:00 2 C 96 % 1.43 C
820 01-02-2019 20:15:00 2 C 96 % 1.43 C
821 01-02-2019 20:20:00 1.9 C 96 % 1.33 C
822 01-02-2019 20:25:00 2 C 96 % 1.43 C
823 01-02-2019 20:30:00 2 C 96 % 1.43 C
824 01-02-2019 20:35:00 2.1 C 96 % 1.53 C
825 01-02-2019 20:40:00 2.1 C 96 % 1.53 C
Sensor: Nr:Datum:Temp:Feuchte:Taupunkt:
Aussen-T/F 826 01-02-2019 20:45:00 2 C 96 % 1.43 C
827 01-02-2019 20:50:00 2 C 96 % 1.43 C
828 01-02-2019 20:55:00 1.9 C 96 % 1.33 C
829 01-02-2019 21:00:00 1.9 C 96 % 1.33 C
830 01-02-2019 21:05:00 1.9 C 96 % 1.33 C
831 01-02-2019 21:10:00 1.9 C 96 % 1.33 C
832 01-02-2019 21:15:00 1.9 C 96 % 1.33 C
833 01-02-2019 21:20:00 1.9 C 96 % 1.33 C
834 01-02-2019 21:25:00 1.8 C 96 % 1.23 C
835 01-02-2019 21:30:00 1.8 C 96 % 1.23 C
836 01-02-2019 21:35:00 1.8 C 96 % 1.23 C
837 01-02-2019 21:40:00 1.7 C 96 % 1.13 C
838 01-02-2019 21:45:00 1.7 C 96 % 1.13 C
839 01-02-2019 21:50:00 1.7 C 96 % 1.13 C
840 01-02-2019 21:55:00 1.7 C 96 % 1.13 C
841 01-02-2019 22:00:00 1.7 C 96 % 1.13 C
842 01-02-2019 22:05:00 1.7 C 96 % 1.13 C
843 01-02-2019 22:10:00 1.7 C 96 % 1.13 C
844 01-02-2019 22:15:00 1.8 C 96 % 1.23 C
845 01-02-2019 22:20:00 1.7 C 96 % 1.13 C
846 01-02-2019 22:25:00 1.7 C 96 % 1.13 C
847 01-02-2019 22:30:00 1.7 C 96 % 1.13 C
848 01-02-2019 22:35:00 1.7 C 96 % 1.13 C
849 01-02-2019 22:40:00 1.6 C 96 % 1.03 C
850 01-02-2019 22:45:00 1.6 C 96 % 1.03 C
Sensor: Nr:Datum:Temp:Feuchte:Taupunkt:
Aussen-T/F 851 01-02-2019 22:50:00 1.6 C 96 % 1.03 C
852 01-02-2019 22:55:00 1.6 C 96 % 1.03 C
853 01-02-2019 23:00:00 1.5 C 96 % 0.93 C
854 01-02-2019 23:05:00 1.5 C 96 % 0.93 C
855 01-02-2019 23:10:00 1.5 C 96 % 0.93 C
856 01-02-2019 23:15:00 1.5 C 97 % 1.08 C
857 01-02-2019 23:20:00 1.6 C 97 % 1.18 C
858 01-02-2019 23:25:00 1.6 C 97 % 1.18 C
859 01-02-2019 23:30:00 1.6 C 97 % 1.18 C
860 01-02-2019 23:35:00 1.6 C 97 % 1.18 C
861 01-02-2019 23:40:00 1.6 C 97 % 1.18 C
862 01-02-2019 23:45:00 1.7 C 97 % 1.28 C
863 01-02-2019 23:50:00 1.7 C 97 % 1.28 C
864 01-02-2019 23:55:00 1.7 C 97 % 1.28 C
865 02-02-2019 00:00:00 1.7 C 97 % 1.28 C
866 02-02-2019 00:05:00 1.7 C 97 % 1.28 C
867 02-02-2019 00:10:00 1.7 C 97 % 1.28 C
868 02-02-2019 00:15:00 1.7 C 97 % 1.28 C
869 02-02-2019 00:20:00 1.7 C 97 % 1.28 C
870 02-02-2019 00:25:00 1.7 C 97 % 1.28 C
871 02-02-2019 00:30:00 1.7 C 97 % 1.28 C
872 02-02-2019 00:35:00 1.8 C 97 % 1.38 C
873 02-02-2019 00:40:00 1.8 C 97 % 1.38 C
874 02-02-2019 00:45:00 1.8 C 97 % 1.38 C
875 02-02-2019 00:50:00 1.8 C 97 % 1.38 C
Sensor: Nr:Datum:Temp:Feuchte:Taupunkt:
Aussen-T/F 876 02-02-2019 00:55:00 1.8 C 97 % 1.38 C
877 02-02-2019 01:00:00 1.8 C 97 % 1.38 C
878 02-02-2019 01:05:00 1.8 C 97 % 1.38 C
879 02-02-2019 01:10:00 1.8 C 97 % 1.38 C
880 02-02-2019 01:15:00 1.8 C 97 % 1.38 C
881 02-02-2019 01:20:00 1.8 C 97 % 1.38 C
882 02-02-2019 01:25:00 1.8 C 97 % 1.38 C
883 02-02-2019 01:30:00 1.8 C 97 % 1.38 C
884 02-02-2019 01:35:00 1.8 C 97 % 1.38 C
885 02-02-2019 01:40:00 1.8 C 97 % 1.38 C
886 02-02-2019 01:45:00 1.9 C 97 % 1.48 C
887 02-02-2019 01:50:00 1.9 C 97 % 1.48 C
888 02-02-2019 01:55:00 1.9 C 97 % 1.48 C
889 02-02-2019 02:00:00 1.9 C 97 % 1.48 C
890 02-02-2019 02:05:00 1.9 C 97 % 1.48 C
891 02-02-2019 02:10:00 1.9 C 97 % 1.48 C
892 02-02-2019 02:15:00 1.8 C 97 % 1.38 C
893 02-02-2019 02:20:00 1.8 C 97 % 1.38 C
894 02-02-2019 02:25:00 1.8 C 97 % 1.38 C
895 02-02-2019 02:30:00 1.8 C 97 % 1.38 C
896 02-02-2019 02:35:00 1.8 C 97 % 1.38 C
897 02-02-2019 02:40:00 1.8 C 97 % 1.38 C
898 02-02-2019 02:45:00 1.8 C 97 % 1.38 C
899 02-02-2019 02:50:00 1.8 C 97 % 1.38 C
900 02-02-2019 02:55:00 1.8 C 97 % 1.38 C
Sensor: Nr:Datum:Temp:Feuchte:Taupunkt:
Aussen-T/F 901 02-02-2019 03:00:00 1.8 C 97 % 1.38 C
902 02-02-2019 03:05:00 1.8 C 97 % 1.38 C
903 02-02-2019 03:10:00 1.7 C 97 % 1.28 C
904 02-02-2019 03:15:00 1.7 C 97 % 1.28 C
905 02-02-2019 03:20:00 1.7 C 97 % 1.28 C
906 02-02-2019 03:25:00 1.7 C 97 % 1.28 C
907 02-02-2019 03:30:00 1.7 C 97 % 1.28 C
908 02-02-2019 03:35:00 1.7 C 97 % 1.28 C
909 02-02-2019 03:40:00 1.7 C 97 % 1.28 C
910 02-02-2019 03:45:00 1.8 C 97 % 1.38 C
911 02-02-2019 03:50:00 1.9 C 97 % 1.48 C
912 02-02-2019 03:55:00 1.9 C 97 % 1.48 C
913 02-02-2019 04:00:00 1.9 C 97 % 1.48 C
914 02-02-2019 04:05:00 1.9 C 97 % 1.48 C
915 02-02-2019 04:10:00 1.8 C 97 % 1.38 C
916 02-02-2019 04:15:00 1.8 C 97 % 1.38 C
917 02-02-2019 04:20:00 1.8 C 97 % 1.38 C
918 02-02-2019 04:25:00 1.8 C 97 % 1.38 C
919 02-02-2019 04:30:00 1.8 C 97 % 1.38 C
920 02-02-2019 04:35:00 1.8 C 97 % 1.38 C
921 02-02-2019 04:40:00 1.8 C 97 % 1.38 C
922 02-02-2019 04:45:00 1.8 C 97 % 1.38 C
923 02-02-2019 04:50:00 1.8 C 97 % 1.38 C
924 02-02-2019 04:55:00 1.8 C 97 % 1.38 C
925 02-02-2019 05:00:00 1.7 C 97 % 1.28 C
Sensor: Nr:Datum:Temp:Feuchte:Taupunkt:
Aussen-T/F 926 02-02-2019 05:05:00 1.7 C 97 % 1.28 C
927 02-02-2019 05:10:00 1.7 C 97 % 1.28 C
928 02-02-2019 05:15:00 1.7 C 97 % 1.28 C
929 02-02-2019 05:20:00 1.7 C 97 % 1.28 C
930 02-02-2019 05:25:00 1.7 C 97 % 1.28 C
931 02-02-2019 05:30:00 1.7 C 97 % 1.28 C
932 02-02-2019 05:35:00 1.7 C 97 % 1.28 C
933 02-02-2019 05:40:00 1.7 C 97 % 1.28 C
934 02-02-2019 05:45:00 1.7 C 97 % 1.28 C
935 02-02-2019 05:50:00 1.7 C 97 % 1.28 C
936 02-02-2019 05:55:00 1.8 C 97 % 1.38 C
937 02-02-2019 06:00:00 1.8 C 97 % 1.38 C
938 02-02-2019 06:05:00 1.8 C 97 % 1.38 C
939 02-02-2019 06:10:00 1.8 C 97 % 1.38 C
940 02-02-2019 06:15:00 1.7 C 97 % 1.28 C
941 02-02-2019 06:20:00 1.7 C 97 % 1.28 C
942 02-02-2019 06:25:00 1.7 C 97 % 1.28 C
943 02-02-2019 06:30:00 1.7 C 97 % 1.28 C
944 02-02-2019 06:35:00 1.7 C 97 % 1.28 C
945 02-02-2019 06:40:00 1.7 C 97 % 1.28 C
946 02-02-2019 06:45:00 1.7 C 97 % 1.28 C
947 02-02-2019 06:50:00 1.7 C 97 % 1.28 C
948 02-02-2019 06:55:00 1.7 C 97 % 1.28 C
949 02-02-2019 07:00:00 1.7 C 97 % 1.28 C
950 02-02-2019 07:05:00 1.7 C 97 % 1.28 C
Sensor: Nr:Datum:Temp:Feuchte:Taupunkt:
Aussen-T/F 951 02-02-2019 07:10:00 1.7 C 97 % 1.28 C
952 02-02-2019 07:15:00 1.7 C 97 % 1.28 C
953 02-02-2019 07:20:00 1.7 C 97 % 1.28 C
954 02-02-2019 07:25:00 1.8 C 97 % 1.38 C
955 02-02-2019 07:30:00 1.7 C 97 % 1.28 C
956 02-02-2019 07:35:00 1.8 C 97 % 1.38 C
957 02-02-2019 07:40:00 1.7 C 97 % 1.28 C
958 02-02-2019 07:45:00 1.7 C 97 % 1.28 C
959 02-02-2019 07:50:00 1.8 C 97 % 1.38 C
960 02-02-2019 07:55:00 1.8 C 97 % 1.38 C
961 02-02-2019 08:00:00 1.8 C 97 % 1.38 C
962 02-02-2019 08:05:00 1.8 C 97 % 1.38 C
963 02-02-2019 08:10:00 1.8 C 97 % 1.38 C
964 02-02-2019 08:15:00 1.8 C 97 % 1.38 C
965 02-02-2019 08:20:00 1.8 C 97 % 1.38 C
966 02-02-2019 08:25:00 1.8 C 97 % 1.38 C
967 02-02-2019 08:30:00 1.8 C 97 % 1.38 C
968 02-02-2019 08:35:00 1.8 C 97 % 1.38 C
969 02-02-2019 08:40:00 1.8 C 97 % 1.38 C
970 02-02-2019 08:45:00 1.8 C 97 % 1.38 C
971 02-02-2019 08:50:00 1.8 C 97 % 1.38 C
972 02-02-2019 08:55:00 1.8 C 97 % 1.38 C
973 02-02-2019 09:00:00 1.8 C 97 % 1.38 C
974 02-02-2019 09:05:00 1.9 C 97 % 1.48 C
975 02-02-2019 09:10:00 1.9 C 97 % 1.48 C
Sensor: Nr:Datum:Temp:Feuchte:Taupunkt:
Aussen-T/F 976 02-02-2019 09:15:00 1.9 C 97 % 1.48 C
977 02-02-2019 09:20:00 2 C 97 % 1.58 C
978 02-02-2019 09:25:00 2.1 C 97 % 1.67 C
979 02-02-2019 09:30:00 2.1 C 97 % 1.67 C
980 02-02-2019 09:35:00 2.2 C 97 % 1.77 C
981 02-02-2019 09:40:00 2.2 C 97 % 1.77 C
982 02-02-2019 09:45:00 2.3 C 97 % 1.87 C
983 02-02-2019 09:50:00 2.3 C 97 % 1.87 C
984 02-02-2019 09:55:00 2.4 C 97 % 1.97 C
985 02-02-2019 10:00:00 2.5 C 98 % 2.22 C
986 02-02-2019 10:05:00 2.6 C 98 % 2.32 C
987 02-02-2019 10:10:00 2.6 C 97 % 2.17 C
988 02-02-2019 10:15:00 2.7 C 97 % 2.27 C
989 02-02-2019 10:20:00 2.7 C 98 % 2.42 C
990 02-02-2019 10:25:00 2.7 C 98 % 2.42 C
991 02-02-2019 10:30:00 2.8 C 98 % 2.52 C
992 02-02-2019 10:35:00 2.8 C 98 % 2.52 C
993 02-02-2019 10:40:00 2.8 C 97 % 2.37 C
994 02-02-2019 10:45:00 2.8 C 97 % 2.37 C
995 02-02-2019 10:50:00 2.8 C 97 % 2.37 C
996 02-02-2019 10:55:00 2.8 C 97 % 2.37 C
997 02-02-2019 11:00:00 2.9 C 97 % 2.47 C
998 02-02-2019 11:05:00 2.9 C 97 % 2.47 C
999 02-02-2019 11:10:00 3 C 97 % 2.57 C
1000 02-02-2019 11:15:00 3 C 97 % 2.57 C
Sensor: Nr:Datum:Temp:Feuchte:Taupunkt:
Aussen-T/F 1001 02-02-2019 11:20:00 3.1 C 97 % 2.67 C
1002 02-02-2019 11:25:00 3.1 C 97 % 2.67 C
1003 02-02-2019 11:30:00 3.1 C 97 % 2.67 C
1004 02-02-2019 11:35:00 3.1 C 97 % 2.67 C
1005 02-02-2019 11:40:00 3.1 C 97 % 2.67 C
1006 02-02-2019 11:45:00 3.1 C 97 % 2.67 C
1007 02-02-2019 11:50:00 3.1 C 97 % 2.67 C
1008 02-02-2019 11:55:00 3.1 C 97 % 2.67 C
1009 02-02-2019 12:00:00 3.1 C 97 % 2.67 C
1010 02-02-2019 12:05:00 3.2 C 97 % 2.77 C
1011 02-02-2019 12:10:00 3.2 C 97 % 2.77 C
1012 02-02-2019 12:15:00 3.2 C 97 % 2.77 C
1013 02-02-2019 12:20:00 3.3 C 97 % 2.87 C
1014 02-02-2019 12:25:00 3.3 C 97 % 2.87 C
1015 02-02-2019 12:30:00 3.3 C 97 % 2.87 C
1016 02-02-2019 12:35:00 3.4 C 97 % 2.97 C
1017 02-02-2019 12:40:00 3.4 C 97 % 2.97 C
1018 02-02-2019 12:45:00 3.4 C 97 % 2.97 C
1019 02-02-2019 12:50:00 3.5 C 97 % 3.07 C
1020 02-02-2019 12:55:00 3.5 C 97 % 3.07 C
1021 02-02-2019 13:00:00 3.5 C 97 % 3.07 C
1022 02-02-2019 13:05:00 3.4 C 97 % 2.97 C
1023 02-02-2019 13:10:00 3.5 C 97 % 3.07 C
1024 02-02-2019 13:15:00 3.6 C 97 % 3.17 C
1025 02-02-2019 13:20:00 3.7 C 97 % 3.27 C
Sensor: Nr:Datum:Temp:Feuchte:Taupunkt:
Aussen-T/F 1026 02-02-2019 13:25:00 3.7 C 97 % 3.27 C
1027 02-02-2019 13:30:00 3.8 C 97 % 3.37 C
1028 02-02-2019 13:35:00 3.7 C 97 % 3.27 C
1029 02-02-2019 13:40:00 3.8 C 97 % 3.37 C
1030 02-02-2019 13:45:00 3.8 C 97 % 3.37 C
1031 02-02-2019 13:50:00 3.8 C 97 % 3.37 C
1032 02-02-2019 13:55:00 3.8 C 97 % 3.37 C
1033 02-02-2019 14:00:00 3.8 C 97 % 3.37 C
1034 02-02-2019 14:05:00 3.8 C 97 % 3.37 C
1035 02-02-2019 14:10:00 3.8 C 97 % 3.37 C
1036 02-02-2019 14:15:00 3.8 C 97 % 3.37 C
1037 02-02-2019 14:20:00 3.8 C 97 % 3.37 C
1038 02-02-2019 14:25:00 3.8 C 97 % 3.37 C
1039 02-02-2019 14:30:00 3.7 C 97 % 3.27 C
1040 02-02-2019 14:35:00 3.7 C 97 % 3.27 C
1041 02-02-2019 14:40:00 3.7 C 97 % 3.27 C
1042 02-02-2019 14:45:00 3.6 C 97 % 3.17 C
1043 02-02-2019 14:50:00 3.6 C 97 % 3.17 C
1044 02-02-2019 14:55:00 3.6 C 97 % 3.17 C
1045 02-02-2019 15:00:00 3.6 C 97 % 3.17 C
1046 02-02-2019 15:05:00 3.7 C 97 % 3.27 C
1047 02-02-2019 15:10:00 3.8 C 97 % 3.37 C
1048 02-02-2019 15:15:00 3.8 C 97 % 3.37 C
1049 02-02-2019 15:20:00 3.9 C 97 % 3.47 C
1050 02-02-2019 15:25:00 4 C 97 % 3.57 C
Sensor: Nr:Datum:Temp:Feuchte:Taupunkt:
Aussen-T/F 1051 02-02-2019 15:30:00 4 C 97 % 3.57 C
1052 02-02-2019 15:35:00 4.1 C 97 % 3.67 C
1053 02-02-2019 15:40:00 4.1 C 97 % 3.67 C
1054 02-02-2019 15:45:00 4 C 97 % 3.57 C
1055 02-02-2019 15:50:00 4 C 97 % 3.57 C
1056 02-02-2019 15:55:00 3.9 C 97 % 3.47 C
1057 02-02-2019 16:00:00 3.9 C 97 % 3.47 C
1058 02-02-2019 16:05:00 3.8 C 97 % 3.37 C
1059 02-02-2019 16:10:00 3.8 C 97 % 3.37 C
1060 02-02-2019 16:15:00 3.7 C 97 % 3.27 C
1061 02-02-2019 16:20:00 3.7 C 97 % 3.27 C
1062 02-02-2019 16:25:00 3.7 C 97 % 3.27 C
1063 02-02-2019 16:30:00 3.7 C 97 % 3.27 C
1064 02-02-2019 16:35:00 3.7 C 97 % 3.27 C
1065 02-02-2019 16:40:00 3.6 C 97 % 3.17 C
1066 02-02-2019 16:45:00 3.6 C 97 % 3.17 C
1067 02-02-2019 16:50:00 3.5 C 97 % 3.07 C
1068 02-02-2019 16:55:00 3.4 C 97 % 2.97 C
1069 02-02-2019 17:00:00 3.3 C 97 % 2.87 C
1070 02-02-2019 17:05:00 3.3 C 97 % 2.87 C
1071 02-02-2019 17:10:00 3.2 C 97 % 2.77 C
1072 02-02-2019 17:15:00 3.2 C 97 % 2.77 C
1073 02-02-2019 17:20:00 3.2 C 97 % 2.77 C
1074 02-02-2019 17:25:00 3.2 C 97 % 2.77 C
1075 02-02-2019 17:30:00 3.2 C 97 % 2.77 C
Sensor: Nr:Datum:Temp:Feuchte:Taupunkt:
Aussen-T/F 1076 02-02-2019 17:35:00 3.1 C 97 % 2.67 C
1077 02-02-2019 17:40:00 3.2 C 97 % 2.77 C
1078 02-02-2019 17:45:00 3.3 C 97 % 2.87 C
1079 02-02-2019 17:50:00 3.4 C 97 % 2.97 C
1080 02-02-2019 17:55:00 3.4 C 97 % 2.97 C
1081 02-02-2019 18:00:00 3.4 C 97 % 2.97 C
1082 02-02-2019 18:05:00 3.4 C 97 % 2.97 C
1083 02-02-2019 18:10:00 3.3 C 97 % 2.87 C
1084 02-02-2019 18:15:00 3.3 C 97 % 2.87 C
1085 02-02-2019 18:20:00 3.2 C 97 % 2.77 C
1086 02-02-2019 18:25:00 3.2 C 97 % 2.77 C
1087 02-02-2019 18:30:00 3.2 C 97 % 2.77 C
1088 02-02-2019 18:35:00 3.1 C 97 % 2.67 C
1089 02-02-2019 18:40:00 3.1 C 97 % 2.67 C
1090 02-02-2019 18:45:00 3 C 97 % 2.57 C
1091 02-02-2019 18:50:00 2.9 C 97 % 2.47 C
1092 02-02-2019 18:55:00 2.8 C 97 % 2.37 C
1093 02-02-2019 19:00:00 2.8 C 96 % 2.23 C
1094 02-02-2019 19:05:00 2.8 C 97 % 2.37 C
1095 02-02-2019 19:10:00 2.7 C 96 % 2.13 C
1096 02-02-2019 19:15:00 2.7 C 96 % 2.13 C
1097 02-02-2019 19:20:00 2.7 C 97 % 2.27 C
1098 02-02-2019 19:25:00 2.6 C 97 % 2.17 C
1099 02-02-2019 19:30:00 2.6 C 97 % 2.17 C
1100 02-02-2019 19:35:00 2.6 C 96 % 2.03 C
Sensor: Nr:Datum:Temp:Feuchte:Taupunkt:
Aussen-T/F 1101 02-02-2019 19:40:00 2.6 C 97 % 2.17 C
1102 02-02-2019 19:45:00 2.5 C 97 % 2.07 C
1103 02-02-2019 19:50:00 2.5 C 97 % 2.07 C
1104 02-02-2019 19:55:00 2.4 C 97 % 1.97 C
1105 02-02-2019 20:00:00 2.4 C 97 % 1.97 C
1106 02-02-2019 20:05:00 2.4 C 97 % 1.97 C
1107 02-02-2019 20:10:00 2.4 C 96 % 1.83 C
1108 02-02-2019 20:15:00 2.3 C 96 % 1.73 C
1109 02-02-2019 20:20:00 2.3 C 96 % 1.73 C
1110 02-02-2019 20:25:00 2.3 C 96 % 1.73 C
1111 02-02-2019 20:30:00 2.3 C 96 % 1.73 C
1112 02-02-2019 20:35:00 2.3 C 96 % 1.73 C
1113 02-02-2019 20:40:00 2.3 C 96 % 1.73 C
1114 02-02-2019 20:45:00 2.3 C 96 % 1.73 C
1115 02-02-2019 20:50:00 2.2 C 96 % 1.63 C
1116 02-02-2019 20:55:00 2.2 C 96 % 1.63 C
1117 02-02-2019 21:00:00 2.2 C 96 % 1.63 C
1118 02-02-2019 21:05:00 2.2 C 96 % 1.63 C
1119 02-02-2019 21:10:00 2.2 C 96 % 1.63 C
1120 02-02-2019 21:15:00 2.1 C 96 % 1.53 C
1121 02-02-2019 21:20:00 2.1 C 96 % 1.53 C
1122 02-02-2019 21:25:00 2.1 C 96 % 1.53 C
1123 02-02-2019 21:30:00 2.1 C 96 % 1.53 C
1124 02-02-2019 21:35:00 2.1 C 96 % 1.53 C
1125 02-02-2019 21:40:00 2.1 C 96 % 1.53 C
Sensor: Nr:Datum:Temp:Feuchte:Taupunkt:
Aussen-T/F 1126 02-02-2019 21:45:00 2 C 96 % 1.43 C
1127 02-02-2019 21:50:00 2 C 96 % 1.43 C
1128 02-02-2019 21:55:00 2 C 96 % 1.43 C
1129 02-02-2019 22:00:00 1.9 C 96 % 1.33 C
1130 02-02-2019 22:05:00 1.9 C 96 % 1.33 C
1131 02-02-2019 22:10:00 1.9 C 96 % 1.33 C
1132 02-02-2019 22:15:00 1.9 C 96 % 1.33 C
1133 02-02-2019 22:20:00 1.9 C 96 % 1.33 C
1134 02-02-2019 22:25:00 1.9 C 96 % 1.33 C
1135 02-02-2019 22:30:00 1.9 C 96 % 1.33 C
1136 02-02-2019 22:35:00 1.9 C 96 % 1.33 C
1137 02-02-2019 22:40:00 1.9 C 96 % 1.33 C
1138 02-02-2019 22:45:00 1.8 C 96 % 1.23 C
1139 02-02-2019 22:50:00 1.8 C 96 % 1.23 C
1140 02-02-2019 22:55:00 1.8 C 96 % 1.23 C
1141 02-02-2019 23:00:00 1.8 C 96 % 1.23 C
1142 02-02-2019 23:05:00 1.8 C 96 % 1.23 C
1143 02-02-2019 23:10:00 1.8 C 96 % 1.23 C
1144 02-02-2019 23:15:00 1.8 C 96 % 1.23 C
1145 02-02-2019 23:20:00 1.8 C 96 % 1.23 C
1146 02-02-2019 23:25:00 1.8 C 96 % 1.23 C
1147 02-02-2019 23:30:00 1.8 C 97 % 1.38 C
1148 02-02-2019 23:35:00 1.8 C 97 % 1.38 C
1149 02-02-2019 23:40:00 1.8 C 97 % 1.38 C
1150 02-02-2019 23:45:00 1.8 C 97 % 1.38 C
Sensor: Nr:Datum:Temp:Feuchte:Taupunkt:
Aussen-T/F 1151 02-02-2019 23:50:00 1.8 C 96 % 1.23 C
1152 02-02-2019 23:55:00 1.8 C 96 % 1.23 C
1153 03-02-2019 00:00:00 1.8 C 97 % 1.38 C
1154 03-02-2019 00:05:00 1.8 C 96 % 1.23 C
1155 03-02-2019 00:10:00 1.8 C 97 % 1.38 C
1156 03-02-2019 00:15:00 1.8 C 97 % 1.38 C
1157 03-02-2019 00:20:00 1.9 C 97 % 1.48 C
1158 03-02-2019 00:25:00 1.9 C 97 % 1.48 C
1159 03-02-2019 00:30:00 1.9 C 97 % 1.48 C
1160 03-02-2019 00:35:00 1.9 C 96 % 1.33 C
1161 03-02-2019 00:40:00 1.9 C 96 % 1.33 C
1162 03-02-2019 00:45:00 1.9 C 96 % 1.33 C
1163 03-02-2019 00:50:00 1.9 C 96 % 1.33 C
1164 03-02-2019 00:55:00 2 C 96 % 1.43 C
1165 03-02-2019 01:00:00 2 C 96 % 1.43 C
1166 03-02-2019 01:05:00 2 C 96 % 1.43 C
1167 03-02-2019 01:10:00 2 C 96 % 1.43 C
1168 03-02-2019 01:15:00 2 C 96 % 1.43 C
1169 03-02-2019 01:20:00 2.1 C 96 % 1.53 C
1170 03-02-2019 01:25:00 2.1 C 96 % 1.53 C
1171 03-02-2019 01:30:00 2.1 C 96 % 1.53 C
1172 03-02-2019 01:35:00 2.1 C 96 % 1.53 C
1173 03-02-2019 01:40:00 2.1 C 96 % 1.53 C
1174 03-02-2019 01:45:00 2.1 C 96 % 1.53 C
1175 03-02-2019 01:50:00 2.1 C 96 % 1.53 C
Sensor: Nr:Datum:Temp:Feuchte:Taupunkt:
Aussen-T/F 1176 03-02-2019 01:55:00 2.1 C 96 % 1.53 C
1177 03-02-2019 02:00:00 2.1 C 96 % 1.53 C
1178 03-02-2019 02:05:00 2.1 C 95 % 1.38 C
1179 03-02-2019 02:10:00 2.1 C 95 % 1.38 C
1180 03-02-2019 02:15:00 2.1 C 95 % 1.38 C
1181 03-02-2019 02:20:00 2.1 C 95 % 1.38 C
1182 03-02-2019 02:25:00 2.2 C 95 % 1.48 C
1183 03-02-2019 02:30:00 2.2 C 94 % 1.34 C
1184 03-02-2019 02:35:00 2.2 C 94 % 1.34 C
1185 03-02-2019 02:40:00 2.2 C 94 % 1.34 C
1186 03-02-2019 02:45:00 2.2 C 93 % 1.19 C
1187 03-02-2019 02:50:00 2.2 C 93 % 1.19 C
1188 03-02-2019 02:55:00 2.2 C 93 % 1.19 C
1189 03-02-2019 03:00:00 2.2 C 93 % 1.19 C
1190 03-02-2019 03:05:00 2.2 C 93 % 1.19 C
1191 03-02-2019 03:10:00 2.2 C 93 % 1.19 C
1192 03-02-2019 03:15:00 2.2 C 93 % 1.19 C
1193 03-02-2019 03:20:00 2.2 C 93 % 1.19 C
1194 03-02-2019 03:25:00 2.2 C 93 % 1.19 C
1195 03-02-2019 03:30:00 2.2 C 93 % 1.19 C
1196 03-02-2019 03:35:00 2.2 C 93 % 1.19 C
1197 03-02-2019 03:40:00 2.2 C 93 % 1.19 C
1198 03-02-2019 03:45:00 2.2 C 93 % 1.19 C
1199 03-02-2019 03:50:00 2.1 C 93 % 1.09 C
1200 03-02-2019 03:55:00 2.1 C 93 % 1.09 C
Sensor: Nr:Datum:Temp:Feuchte:Taupunkt:
Aussen-T/F 1201 03-02-2019 04:00:00 2.1 C 93 % 1.09 C
1202 03-02-2019 04:05:00 2.1 C 93 % 1.09 C
1203 03-02-2019 04:10:00 2.1 C 93 % 1.09 C
1204 03-02-2019 04:15:00 2.1 C 93 % 1.09 C
1205 03-02-2019 04:20:00 2.1 C 93 % 1.09 C
1206 03-02-2019 04:25:00 2.1 C 93 % 1.09 C
1207 03-02-2019 04:30:00 2.1 C 94 % 1.24 C
1208 03-02-2019 04:35:00 2.1 C 94 % 1.24 C
1209 03-02-2019 04:40:00 2.1 C 94 % 1.24 C
1210 03-02-2019 04:45:00 2.1 C 94 % 1.24 C
1211 03-02-2019 04:50:00 2.1 C 94 % 1.24 C
1212 03-02-2019 04:55:00 2.1 C 94 % 1.24 C
1213 03-02-2019 05:00:00 2.1 C 94 % 1.24 C
1214 03-02-2019 05:05:00 2.1 C 93 % 1.09 C
1215 03-02-2019 05:10:00 2.2 C 93 % 1.19 C
1216 03-02-2019 05:15:00 2.2 C 93 % 1.19 C
1217 03-02-2019 05:20:00 2.2 C 93 % 1.19 C
1218 03-02-2019 05:25:00 2.2 C 93 % 1.19 C
1219 03-02-2019 05:30:00 2.2 C 93 % 1.19 C
1220 03-02-2019 05:35:00 2.2 C 93 % 1.19 C
1221 03-02-2019 05:40:00 2.2 C 93 % 1.19 C
1222 03-02-2019 05:45:00 2.2 C 93 % 1.19 C
1223 03-02-2019 05:50:00 2.2 C 93 % 1.19 C
1224 03-02-2019 05:55:00 2.2 C 93 % 1.19 C
1225 03-02-2019 06:00:00 2.2 C 93 % 1.19 C
Sensor: Nr:Datum:Temp:Feuchte:Taupunkt:
Aussen-T/F 1226 03-02-2019 06:05:00 2.2 C 93 % 1.19 C
1227 03-02-2019 06:10:00 2.2 C 93 % 1.19 C
1228 03-02-2019 06:15:00 2.3 C 92 % 1.14 C
1229 03-02-2019 06:20:00 2.3 C 92 % 1.14 C
1230 03-02-2019 06:25:00 2.3 C 93 % 1.29 C
1231 03-02-2019 06:30:00 2.2 C 92 % 1.04 C
1232 03-02-2019 06:35:00 2.2 C 92 % 1.04 C
1233 03-02-2019 06:40:00 2.2 C 92 % 1.04 C
1234 03-02-2019 06:45:00 2.1 C 92 % 0.94 C
1235 03-02-2019 06:50:00 2.1 C 93 % 1.09 C
1236 03-02-2019 06:55:00 2 C 93 % 0.99 C
1237 03-02-2019 07:00:00 1.9 C 93 % 0.89 C
1238 03-02-2019 07:05:00 1.9 C 93 % 0.89 C
1239 03-02-2019 07:10:00 1.9 C 93 % 0.89 C
1240 03-02-2019 07:15:00 1.9 C 93 % 0.89 C
1241 03-02-2019 07:20:00 1.9 C 93 % 0.89 C
1242 03-02-2019 07:25:00 1.9 C 93 % 0.89 C
1243 03-02-2019 07:30:00 1.9 C 93 % 0.89 C
1244 03-02-2019 07:35:00 1.9 C 93 % 0.89 C
1245 03-02-2019 07:40:00 1.9 C 93 % 0.89 C
1246 03-02-2019 07:45:00 1.9 C 93 % 0.89 C
1247 03-02-2019 07:50:00 1.9 C 93 % 0.89 C
1248 03-02-2019 07:55:00 1.9 C 93 % 0.89 C
1249 03-02-2019 08:00:00 1.9 C 93 % 0.89 C
1250 03-02-2019 08:05:00 1.9 C 93 % 0.89 C
Sensor: Nr:Datum:Temp:Feuchte:Taupunkt:
Aussen-T/F 1251 03-02-2019 08:10:00 1.8 C 93 % 0.79 C
1252 03-02-2019 08:15:00 1.8 C 93 % 0.79 C
1253 03-02-2019 08:20:00 1.8 C 93 % 0.79 C
1254 03-02-2019 08:25:00 1.9 C 93 % 0.89 C
1255 03-02-2019 08:30:00 1.9 C 93 % 0.89 C
1256 03-02-2019 08:35:00 1.9 C 93 % 0.89 C
1257 03-02-2019 08:40:00 1.9 C 93 % 0.89 C
1258 03-02-2019 08:45:00 1.9 C 93 % 0.89 C
1259 03-02-2019 08:50:00 1.9 C 93 % 0.89 C
1260 03-02-2019 08:55:00 1.9 C 93 % 0.89 C
1261 03-02-2019 09:00:00 1.9 C 93 % 0.89 C
1262 03-02-2019 09:05:00 1.9 C 93 % 0.89 C
1263 03-02-2019 09:10:00 2 C 93 % 0.99 C
1264 03-02-2019 09:15:00 2 C 94 % 1.14 C
1265 03-02-2019 09:20:00 2 C 94 % 1.14 C
1266 03-02-2019 09:25:00 2 C 94 % 1.14 C
1267 03-02-2019 09:30:00 2 C 93 % 0.99 C
1268 03-02-2019 09:35:00 2 C 93 % 0.99 C
1269 03-02-2019 09:40:00 2 C 93 % 0.99 C
1270 03-02-2019 09:45:00 2 C 93 % 0.99 C
1271 03-02-2019 09:50:00 2.1 C 93 % 1.09 C
1272 03-02-2019 09:55:00 2.2 C 92 % 1.04 C
1273 03-02-2019 10:00:00 2.2 C 92 % 1.04 C
1274 03-02-2019 10:05:00 2.3 C 92 % 1.14 C
1275 03-02-2019 10:10:00 2.3 C 92 % 1.14 C
Sensor: Nr:Datum:Temp:Feuchte:Taupunkt:
Aussen-T/F 1276 03-02-2019 10:15:00 2.4 C 92 % 1.24 C
1277 03-02-2019 10:20:00 2.4 C 92 % 1.24 C
1278 03-02-2019 10:25:00 2.4 C 92 % 1.24 C
1279 03-02-2019 10:30:00 2.5 C 91 % 1.18 C
1280 03-02-2019 10:35:00 2.5 C 91 % 1.18 C
1281 03-02-2019 10:40:00 2.6 C 91 % 1.28 C
1282 03-02-2019 10:45:00 2.6 C 91 % 1.28 C
1283 03-02-2019 10:50:00 2.7 C 90 % 1.23 C
1284 03-02-2019 10:55:00 2.7 C 90 % 1.23 C
1285 03-02-2019 11:00:00 2.7 C 90 % 1.23 C
1286 03-02-2019 11:05:00 2.8 C 90 % 1.33 C
1287 03-02-2019 11:10:00 2.9 C 90 % 1.43 C
1288 03-02-2019 11:15:00 2.9 C 89 % 1.27 C
1289 03-02-2019 11:20:00 3.1 C 89 % 1.47 C
1290 03-02-2019 11:25:00 3.2 C 89 % 1.57 C
1291 03-02-2019 11:30:00 3.2 C 88 % 1.41 C
1292 03-02-2019 11:35:00 3.3 C 88 % 1.51 C
1293 03-02-2019 11:40:00 3.3 C 88 % 1.51 C
1294 03-02-2019 11:45:00 3.3 C 88 % 1.51 C
1295 03-02-2019 11:50:00 3.3 C 88 % 1.51 C
1296 03-02-2019 11:55:00 3.3 C 88 % 1.51 C
1297 03-02-2019 12:00:00 3.3 C 88 % 1.51 C
1298 03-02-2019 12:05:00 3.3 C 87 % 1.35 C
1299 03-02-2019 12:10:00 3.3 C 87 % 1.35 C
1300 03-02-2019 12:15:00 3.4 C 86 % 1.29 C
Sensor: Nr:Datum:Temp:Feuchte:Taupunkt:
Aussen-T/F 1301 03-02-2019 12:20:00 3.4 C 86 % 1.29 C
1302 03-02-2019 12:25:00 3.6 C 85 % 1.32 C
1303 03-02-2019 12:30:00 3.7 C 85 % 1.42 C
1304 03-02-2019 12:35:00 3.7 C 85 % 1.42 C
1305 03-02-2019 12:40:00 3.8 C 84 % 1.35 C
1306 03-02-2019 12:45:00 3.8 C 85 % 1.52 C
1307 03-02-2019 12:50:00 3.9 C 85 % 1.61 C
1308 03-02-2019 12:55:00 3.8 C 85 % 1.52 C
1309 03-02-2019 13:00:00 3.8 C 84 % 1.35 C
1310 03-02-2019 13:05:00 3.8 C 85 % 1.52 C
1311 03-02-2019 13:10:00 3.8 C 85 % 1.52 C
1312 03-02-2019 13:15:00 3.8 C 84 % 1.35 C
1313 03-02-2019 13:20:00 3.9 C 85 % 1.61 C
1314 03-02-2019 13:25:00 3.9 C 83 % 1.28 C
1315 03-02-2019 13:30:00 3.9 C 83 % 1.28 C
1316 03-02-2019 13:35:00 4 C 83 % 1.38 C
1317 03-02-2019 13:40:00 4.1 C 83 % 1.48 C
1318 03-02-2019 13:45:00 4.2 C 82 % 1.41 C
1319 03-02-2019 13:50:00 4.2 C 81 % 1.24 C
1320 03-02-2019 13:55:00 4.2 C 82 % 1.41 C
1321 03-02-2019 14:00:00 4.2 C 82 % 1.41 C
1322 03-02-2019 14:05:00 4.2 C 83 % 1.58 C
1323 03-02-2019 14:10:00 4.1 C 83 % 1.48 C
1324 03-02-2019 14:15:00 4.1 C 84 % 1.65 C
1325 03-02-2019 14:20:00 3.9 C 84 % 1.45 C
Sensor: Nr:Datum:Temp:Feuchte:Taupunkt:
Aussen-T/F 1326 03-02-2019 14:25:00 3.9 C 84 % 1.45 C
1327 03-02-2019 14:30:00 3.9 C 84 % 1.45 C
1328 03-02-2019 14:35:00 4 C 84 % 1.55 C
1329 03-02-2019 14:40:00 4.1 C 83 % 1.48 C
1330 03-02-2019 14:45:00 4.2 C 83 % 1.58 C
1331 03-02-2019 14:50:00 4.2 C 82 % 1.41 C
1332 03-02-2019 14:55:00 4.4 C 81 % 1.43 C
1333 03-02-2019 15:00:00 4.4 C 79 % 1.09 C
1334 03-02-2019 15:05:00 4.4 C 78 % 0.91 C
1335 03-02-2019 15:10:00 4.4 C 78 % 0.91 C
1336 03-02-2019 15:15:00 4.5 C 78 % 1.01 C
1337 03-02-2019 15:20:00 4.5 C 77 % 0.83 C
1338 03-02-2019 15:25:00 4.6 C 76 % 0.74 C
1339 03-02-2019 15:30:00 4.6 C 78 % 1.1 C
1340 03-02-2019 15:35:00 4.5 C 77 % 0.83 C
1341 03-02-2019 15:40:00 4.6 C 76 % 0.74 C
1342 03-02-2019 15:45:00 4.6 C 75 % 0.56 C
1343 03-02-2019 15:50:00 4.5 C 75 % 0.46 C
1344 03-02-2019 15:55:00 4.5 C 75 % 0.46 C
1345 03-02-2019 16:00:00 4.4 C 75 % 0.37 C
1346 03-02-2019 16:05:00 4.4 C 75 % 0.37 C
1347 03-02-2019 16:10:00 4.4 C 76 % 0.55 C
1348 03-02-2019 16:15:00 4.4 C 76 % 0.55 C
1349 03-02-2019 16:20:00 4.4 C 76 % 0.55 C
1350 03-02-2019 16:25:00 4.4 C 76 % 0.55 C
Sensor: Nr:Datum:Temp:Feuchte:Taupunkt:
Aussen-T/F 1351 03-02-2019 16:30:00 4.4 C 76 % 0.55 C
1352 03-02-2019 16:35:00 4.5 C 76 % 0.65 C
1353 03-02-2019 16:40:00 4.5 C 77 % 0.83 C
1354 03-02-2019 16:45:00 4.5 C 76 % 0.65 C
1355 03-02-2019 16:50:00 4.5 C 77 % 0.83 C
1356 03-02-2019 16:55:00 4.4 C 77 % 0.73 C
1357 03-02-2019 17:00:00 4.4 C 77 % 0.73 C
1358 03-02-2019 17:05:00 4.4 C 77 % 0.73 C
1359 03-02-2019 17:10:00 4.3 C 77 % 0.63 C
1360 03-02-2019 17:15:00 4.3 C 77 % 0.63 C
1361 03-02-2019 17:20:00 4.3 C 77 % 0.63 C
1362 03-02-2019 17:25:00 4.3 C 77 % 0.63 C
1363 03-02-2019 17:30:00 4.3 C 78 % 0.81 C
1364 03-02-2019 17:35:00 4.3 C 79 % 0.99 C
1365 03-02-2019 17:40:00 4.2 C 79 % 0.89 C
1366 03-02-2019 17:45:00 4.2 C 79 % 0.89 C
1367 03-02-2019 17:50:00 4.1 C 79 % 0.79 C
1368 03-02-2019 17:55:00 4.1 C 80 % 0.97 C
1369 03-02-2019 18:00:00 4.1 C 80 % 0.97 C
1370 03-02-2019 18:05:00 4 C 81 % 1.04 C
1371 03-02-2019 18:10:00 3.9 C 81 % 0.95 C
1372 03-02-2019 18:15:00 3.9 C 82 % 1.12 C
1373 03-02-2019 18:20:00 3.9 C 82 % 1.12 C
1374 03-02-2019 18:25:00 3.9 C 83 % 1.28 C
1375 03-02-2019 18:30:00 3.8 C 83 % 1.19 C
Sensor: Nr:Datum:Temp:Feuchte:Taupunkt:
Aussen-T/F 1376 03-02-2019 18:35:00 3.8 C 83 % 1.19 C
1377 03-02-2019 18:40:00 3.8 C 83 % 1.19 C
1378 03-02-2019 18:45:00 3.8 C 83 % 1.19 C
1379 03-02-2019 18:50:00 3.8 C 83 % 1.19 C
1380 03-02-2019 18:55:00 3.8 C 83 % 1.19 C
1381 03-02-2019 19:00:00 3.8 C 84 % 1.35 C
1382 03-02-2019 19:05:00 3.7 C 84 % 1.25 C
1383 03-02-2019 19:10:00 3.7 C 84 % 1.25 C
1384 03-02-2019 19:15:00 3.7 C 84 % 1.25 C
1385 03-02-2019 19:20:00 3.6 C 84 % 1.16 C
1386 03-02-2019 19:25:00 3.6 C 85 % 1.32 C
1387 03-02-2019 19:30:00 3.6 C 85 % 1.32 C
1388 03-02-2019 19:35:00 3.6 C 85 % 1.32 C
1389 03-02-2019 19:40:00 3.5 C 85 % 1.22 C
1390 03-02-2019 19:45:00 3.4 C 86 % 1.29 C
1391 03-02-2019 19:50:00 3.4 C 86 % 1.29 C
1392 03-02-2019 19:55:00 3.4 C 86 % 1.29 C
1393 03-02-2019 20:00:00 3.3 C 86 % 1.19 C
1394 03-02-2019 20:05:00 3.3 C 87 % 1.35 C
1395 03-02-2019 20:10:00 3.3 C 87 % 1.35 C
1396 03-02-2019 20:15:00 3.3 C 87 % 1.35 C
1397 03-02-2019 20:20:00 3.3 C 87 % 1.35 C
1398 03-02-2019 20:25:00 3.2 C 88 % 1.41 C
1399 03-02-2019 20:30:00 3.2 C 88 % 1.41 C
1400 03-02-2019 20:35:00 3.2 C 88 % 1.41 C
Sensor: Nr:Datum:Temp:Feuchte:Taupunkt:
Aussen-T/F 1401 03-02-2019 20:40:00 3.1 C 87 % 1.15 C
1402 03-02-2019 20:45:00 3.1 C 87 % 1.15 C
1403 03-02-2019 20:50:00 3.1 C 87 % 1.15 C
1404 03-02-2019 20:55:00 2.9 C 87 % 0.96 C
1405 03-02-2019 21:00:00 2.7 C 87 % 0.76 C
1406 03-02-2019 21:05:00 2.4 C 87 % 0.46 C
1407 03-02-2019 21:10:00 2.3 C 88 % 0.52 C
1408 03-02-2019 21:15:00 2.1 C 88 % 0.33 C
1409 03-02-2019 21:20:00 2 C 89 % 0.38 C
1410 03-02-2019 21:25:00 1.9 C 89 % 0.28 C
1411 03-02-2019 21:30:00 1.8 C 89 % 0.19 C
1412 03-02-2019 21:35:00 1.7 C 90 % 0.24 C
1413 03-02-2019 21:40:00 1.6 C 90 % 0.14 C
1414 03-02-2019 21:45:00 1.6 C 90 % 0.14 C
1415 03-02-2019 21:50:00 1.5 C 91 % 0.19 C
1416 03-02-2019 21:55:00 1.5 C 91 % 0.19 C
1417 03-02-2019 22:00:00 1.4 C 91 % 0.1 C
1418 03-02-2019 22:05:00 1.4 C 91 % 0.1 C
1419 03-02-2019 22:10:00 1.3 C 91 % 0 C
1420 03-02-2019 22:15:00 1.2 C 91 % -0.1 C
1421 03-02-2019 22:20:00 1.1 C 91 % -0.2 C
1422 03-02-2019 22:25:00 1.1 C 91 % -0.2 C
1423 03-02-2019 22:30:00 0.9 C 91 % -0.4 C
1424 03-02-2019 22:35:00 0.8 C 91 % -0.5 C
1425 03-02-2019 22:40:00 0.8 C 91 % -0.5 C
Sensor: Nr:Datum:Temp:Feuchte:Taupunkt:
Aussen-T/F 1426 03-02-2019 22:45:00 0.7 C 92 % -0.45 C
1427 03-02-2019 22:50:00 0.6 C 92 % -0.55 C
1428 03-02-2019 22:55:00 0.6 C 92 % -0.55 C
1429 03-02-2019 23:00:00 0.6 C 92 % -0.55 C
1430 03-02-2019 23:05:00 0.5 C 93 % -0.5 C
1431 03-02-2019 23:10:00 0.5 C 93 % -0.5 C
1432 03-02-2019 23:15:00 0.4 C 93 % -0.6 C
1433 03-02-2019 23:20:00 0.4 C 92 % -0.74 C
1434 03-02-2019 23:25:00 0.3 C 93 % -0.7 C
1435 03-02-2019 23:30:00 0.3 C 93 % -0.7 C
1436 03-02-2019 23:35:00 0.2 C 93 % -0.79 C
1437 03-02-2019 23:40:00 0.1 C 93 % -0.89 C
1438 03-02-2019 23:45:00 0 C 93 % -0.99 C
1439 03-02-2019 23:50:00 -0.1 C 93 % -1.09 C
1440 03-02-2019 23:55:00 -0.1 C 93 % -1.09 C
1441 04-02-2019 00:00:00 -0.1 C 93 % -1.09 C
1442 04-02-2019 00:05:00 -0.2 C 93 % -1.19 C
1443 04-02-2019 00:10:00 -0.2 C 93 % -1.19 C
1444 04-02-2019 00:15:00 -0.2 C 93 % -1.19 C
1445 04-02-2019 00:20:00 -0.3 C 94 % -1.15 C
1446 04-02-2019 00:25:00 -0.3 C 94 % -1.15 C
1447 04-02-2019 00:30:00 -0.3 C 94 % -1.15 C
1448 04-02-2019 00:35:00 -0.4 C 94 % -1.25 C
1449 04-02-2019 00:40:00 -0.4 C 94 % -1.25 C
1450 04-02-2019 00:45:00 -0.4 C 94 % -1.25 C
Sensor: Nr:Datum:Temp:Feuchte:Taupunkt:
Aussen-T/F 1451 04-02-2019 00:50:00 -0.5 C 94 % -1.34 C
1452 04-02-2019 00:55:00 -0.5 C 94 % -1.34 C
1453 04-02-2019 01:00:00 -0.5 C 94 % -1.34 C
1454 04-02-2019 01:05:00 -0.4 C 95 % -1.1 C
1455 04-02-2019 01:10:00 -0.3 C 95 % -1 C
1456 04-02-2019 01:15:00 -0.2 C 95 % -0.9 C
1457 04-02-2019 01:20:00 0 C 95 % -0.7 C
1458 04-02-2019 01:25:00 0.1 C 95 % -0.6 C
1459 04-02-2019 01:30:00 0.1 C 95 % -0.6 C
1460 04-02-2019 01:35:00 0.1 C 95 % -0.6 C
1461 04-02-2019 01:40:00 0.1 C 95 % -0.6 C
1462 04-02-2019 01:45:00 0.1 C 95 % -0.6 C
1463 04-02-2019 01:50:00 0.1 C 95 % -0.6 C
1464 04-02-2019 01:55:00 0.1 C 95 % -0.6 C
1465 04-02-2019 02:00:00 0.1 C 95 % -0.6 C
1466 04-02-2019 02:05:00 0.1 C 95 % -0.6 C
1467 04-02-2019 02:10:00 0.1 C 95 % -0.6 C
1468 04-02-2019 02:15:00 0.1 C 94 % -0.75 C
1469 04-02-2019 02:20:00 0.1 C 94 % -0.75 C
1470 04-02-2019 02:25:00 0.1 C 95 % -0.6 C
1471 04-02-2019 02:30:00 0.1 C 94 % -0.75 C
1472 04-02-2019 02:35:00 0 C 94 % -0.85 C
1473 04-02-2019 02:40:00 -0.1 C 94 % -0.95 C
1474 04-02-2019 02:45:00 -0.2 C 94 % -1.05 C
1475 04-02-2019 02:50:00 -0.2 C 94 % -1.05 C
Sensor: Nr:Datum:Temp:Feuchte:Taupunkt:
Aussen-T/F 1476 04-02-2019 02:55:00 -0.2 C 94 % -1.05 C
1477 04-02-2019 03:00:00 -0.3 C 94 % -1.15 C
1478 04-02-2019 03:05:00 -0.2 C 94 % -1.05 C
1479 04-02-2019 03:10:00 -0.2 C 94 % -1.05 C
1480 04-02-2019 03:15:00 -0.2 C 94 % -1.05 C
1481 04-02-2019 03:20:00 -0.2 C 94 % -1.05 C
1482 04-02-2019 03:25:00 -0.2 C 94 % -1.05 C
1483 04-02-2019 03:30:00 -0.2 C 94 % -1.05 C
1484 04-02-2019 03:35:00 -0.2 C 94 % -1.05 C
1485 04-02-2019 03:40:00 -0.2 C 94 % -1.05 C
1486 04-02-2019 03:45:00 -0.1 C 94 % -0.95 C
1487 04-02-2019 03:50:00 -0.2 C 94 % -1.05 C
1488 04-02-2019 03:55:00 -0.2 C 94 % -1.05 C
1489 04-02-2019 04:00:00 -0.3 C 94 % -1.15 C
1490 04-02-2019 04:05:00 -0.3 C 94 % -1.15 C
1491 04-02-2019 04:10:00 -0.3 C 94 % -1.15 C
1492 04-02-2019 04:15:00 -0.4 C 94 % -1.25 C
1493 04-02-2019 04:20:00 -0.5 C 94 % -1.34 C
1494 04-02-2019 04:25:00 -0.6 C 94 % -1.44 C
1495 04-02-2019 04:30:00 -0.6 C 94 % -1.44 C
1496 04-02-2019 04:35:00 -0.6 C 94 % -1.44 C
1497 04-02-2019 04:40:00 -0.6 C 94 % -1.44 C
1498 04-02-2019 04:45:00 -0.5 C 94 % -1.34 C
1499 04-02-2019 04:50:00 -0.5 C 94 % -1.34 C
1500 04-02-2019 04:55:00 -0.5 C 95 % -1.2 C
Sensor: Nr:Datum:Temp:Feuchte:Taupunkt:
Aussen-T/F 1501 04-02-2019 05:00:00 -0.4 C 94 % -1.25 C
1502 04-02-2019 05:05:00 -0.4 C 95 % -1.1 C
1503 04-02-2019 05:10:00 -0.3 C 95 % -1 C
1504 04-02-2019 05:15:00 -0.2 C 95 % -0.9 C
1505 04-02-2019 05:20:00 -0.2 C 95 % -0.9 C
1506 04-02-2019 05:25:00 -0.1 C 95 % -0.8 C
1507 04-02-2019 05:30:00 0.1 C 95 % -0.6 C
1508 04-02-2019 05:35:00 0.1 C 95 % -0.6 C
1509 04-02-2019 05:40:00 0.2 C 95 % -0.5 C
1510 04-02-2019 05:45:00 0.2 C 95 % -0.5 C
1511 04-02-2019 05:50:00 0.3 C 95 % -0.4 C
1512 04-02-2019 05:55:00 0.3 C 95 % -0.4 C
1513 04-02-2019 06:00:00 0.3 C 95 % -0.4 C
1514 04-02-2019 06:05:00 0.3 C 95 % -0.4 C
1515 04-02-2019 06:10:00 0.3 C 95 % -0.4 C
1516 04-02-2019 06:15:00 0.3 C 95 % -0.4 C
1517 04-02-2019 06:20:00 0.4 C 95 % -0.31 C
1518 04-02-2019 06:25:00 0.4 C 95 % -0.31 C
1519 04-02-2019 06:30:00 0.4 C 95 % -0.31 C
1520 04-02-2019 06:35:00 0.4 C 95 % -0.31 C
1521 04-02-2019 06:40:00 0.4 C 95 % -0.31 C
1522 04-02-2019 06:45:00 0.4 C 95 % -0.31 C
1523 04-02-2019 06:50:00 0.4 C 95 % -0.31 C
1524 04-02-2019 06:55:00 0.4 C 95 % -0.31 C
1525 04-02-2019 07:00:00 0.4 C 95 % -0.31 C
Sensor: Nr:Datum:Temp:Feuchte:Taupunkt:
Aussen-T/F 1526 04-02-2019 07:05:00 0.4 C 95 % -0.31 C
1527 04-02-2019 07:10:00 0.5 C 95 % -0.21 C
1528 04-02-2019 07:15:00 0.5 C 95 % -0.21 C
1529 04-02-2019 07:20:00 0.5 C 95 % -0.21 C
1530 04-02-2019 07:25:00 0.6 C 95 % -0.11 C
1531 04-02-2019 07:30:00 0.5 C 95 % -0.21 C
1532 04-02-2019 07:35:00 0.5 C 95 % -0.21 C
1533 04-02-2019 07:40:00 0.5 C 95 % -0.21 C
1534 04-02-2019 07:45:00 0.6 C 95 % -0.11 C
1535 04-02-2019 07:50:00 0.6 C 94 % -0.25 C
1536 04-02-2019 07:55:00 0.6 C 95 % -0.11 C
1537 04-02-2019 08:00:00 0.6 C 95 % -0.11 C
1538 04-02-2019 08:05:00 0.6 C 95 % -0.11 C
1539 04-02-2019 08:10:00 0.6 C 95 % -0.11 C
1540 04-02-2019 08:15:00 0.6 C 95 % -0.11 C
1541 04-02-2019 08:20:00 0.7 C 95 % -0.01 C
1542 04-02-2019 08:25:00 0.7 C 94 % -0.15 C
1543 04-02-2019 08:30:00 0.7 C 94 % -0.15 C
1544 04-02-2019 08:35:00 0.7 C 94 % -0.15 C
1545 04-02-2019 08:40:00 0.8 C 94 % -0.05 C
1546 04-02-2019 08:45:00 0.8 C 94 % -0.05 C
1547 04-02-2019 08:50:00 0.8 C 94 % -0.05 C
1548 04-02-2019 08:55:00 0.8 C 94 % -0.05 C
1549 04-02-2019 09:00:00 0.8 C 94 % -0.05 C
1550 04-02-2019 09:05:00 0.8 C 94 % -0.05 C
Sensor: Nr:Datum:Temp:Feuchte:Taupunkt:
Aussen-T/F 1551 04-02-2019 09:10:00 0.7 C 94 % -0.15 C
1552 04-02-2019 09:15:00 0.7 C 94 % -0.15 C
1553 04-02-2019 09:20:00 0.6 C 93 % -0.4 C
1554 04-02-2019 09:25:00 0.6 C 94 % -0.25 C
1555 04-02-2019 09:30:00 0.5 C 94 % -0.35 C
1556 04-02-2019 09:35:00 0.5 C 94 % -0.35 C
1557 04-02-2019 09:40:00 0.5 C 94 % -0.35 C
1558 04-02-2019 09:45:00 0.6 C 94 % -0.25 C
1559 04-02-2019 09:50:00 0.5 C 94 % -0.35 C
1560 04-02-2019 09:55:00 0.5 C 94 % -0.35 C
1561 04-02-2019 10:00:00 0.6 C 94 % -0.25 C
1562 04-02-2019 10:05:00 0.6 C 94 % -0.25 C
1563 04-02-2019 10:10:00 0.6 C 94 % -0.25 C
1564 04-02-2019 10:15:00 0.7 C 94 % -0.15 C
1565 04-02-2019 10:20:00 0.8 C 94 % -0.05 C
1566 04-02-2019 10:25:00 0.8 C 95 % 0.09 C
1567 04-02-2019 10:30:00 0.9 C 94 % 0.05 C
1568 04-02-2019 10:35:00 1 C 94 % 0.15 C
1569 04-02-2019 10:40:00 1.1 C 94 % 0.24 C
1570 04-02-2019 10:45:00 1.2 C 94 % 0.34 C
1571 04-02-2019 10:50:00 1.2 C 94 % 0.34 C
1572 04-02-2019 10:55:00 1.3 C 94 % 0.44 C
1573 04-02-2019 11:00:00 1.4 C 94 % 0.54 C
1574 04-02-2019 11:05:00 1.6 C 93 % 0.59 C
1575 04-02-2019 11:10:00 1.7 C 93 % 0.69 C
Sensor: Nr:Datum:Temp:Feuchte:Taupunkt:
Aussen-T/F 1576 04-02-2019 11:15:00 1.8 C 93 % 0.79 C
1577 04-02-2019 11:20:00 1.9 C 92 % 0.74 C
1578 04-02-2019 11:25:00 2 C 91 % 0.69 C
1579 04-02-2019 11:30:00 2.1 C 91 % 0.79 C
1580 04-02-2019 11:35:00 2.2 C 90 % 0.73 C
1581 04-02-2019 11:40:00 2.3 C 90 % 0.83 C
1582 04-02-2019 11:45:00 2.4 C 90 % 0.93 C
1583 04-02-2019 11:50:00 2.5 C 89 % 0.88 C
1584 04-02-2019 11:55:00 2.6 C 89 % 0.97 C
1585 04-02-2019 12:00:00 2.7 C 89 % 1.07 C
1586 04-02-2019 12:05:00 2.9 C 89 % 1.27 C
1587 04-02-2019 12:10:00 3.1 C 88 % 1.31 C
1588 04-02-2019 12:15:00 3.2 C 88 % 1.41 C
1589 04-02-2019 12:20:00 3.3 C 85 % 1.03 C
1590 04-02-2019 12:25:00 3.6 C 82 % 0.82 C
1591 04-02-2019 12:30:00 3.9 C 80 % 0.77 C
1592 04-02-2019 12:35:00 4.2 C 78 % 0.71 C
1593 04-02-2019 12:40:00 4.3 C 77 % 0.63 C
1594 04-02-2019 12:45:00 4.5 C 77 % 0.83 C
1595 04-02-2019 12:50:00 4.6 C 75 % 0.56 C
1596 04-02-2019 12:55:00 4.7 C 74 % 0.47 C
1597 04-02-2019 13:00:00 4.8 C 74 % 0.57 C
1598 04-02-2019 13:05:00 4.8 C 73 % 0.38 C
1599 04-02-2019 13:10:00 4.8 C 74 % 0.57 C
1600 04-02-2019 13:15:00 4.8 C 73 % 0.38 C
Sensor: Nr:Datum:Temp:Feuchte:Taupunkt:
Aussen-T/F 1601 04-02-2019 13:20:00 4.8 C 72 % 0.19 C
1602 04-02-2019 13:25:00 4.8 C 72 % 0.19 C
1603 04-02-2019 13:30:00 4.8 C 72 % 0.19 C
1604 04-02-2019 13:35:00 4.7 C 72 % 0.09 C
1605 04-02-2019 13:40:00 4.7 C 73 % 0.28 C
1606 04-02-2019 13:45:00 4.7 C 72 % 0.09 C
1607 04-02-2019 13:50:00 4.8 C 72 % 0.19 C
1608 04-02-2019 13:55:00 4.9 C 72 % 0.29 C
1609 04-02-2019 14:00:00 4.9 C 71 % 0.09 C
1610 04-02-2019 14:05:00 5 C 72 % 0.38 C
1611 04-02-2019 14:10:00 5.2 C 71 % 0.38 C
1612 04-02-2019 14:15:00 5.2 C 69 % -0.01 C
1613 04-02-2019 14:20:00 5.3 C 69 % 0.09 C
1614 04-02-2019 14:25:00 5.4 C 70 % 0.38 C
1615 04-02-2019 14:30:00 5.4 C 67 % -0.22 C
1616 04-02-2019 14:35:00 5.4 C 67 % -0.22 C
1617 04-02-2019 14:40:00 5.4 C 67 % -0.22 C
1618 04-02-2019 14:45:00 5.5 C 66 % -0.33 C
1619 04-02-2019 14:50:00 5.5 C 67 % -0.13 C
1620 04-02-2019 14:55:00 5.5 C 66 % -0.33 C
1621 04-02-2019 15:00:00 5.4 C 66 % -0.43 C
1622 04-02-2019 15:05:00 5.4 C 66 % -0.43 C
1623 04-02-2019 15:10:00 5.4 C 67 % -0.22 C
1624 04-02-2019 15:15:00 5.3 C 68 % -0.12 C
1625 04-02-2019 15:20:00 5.3 C 66 % -0.52 C
Sensor: Nr:Datum:Temp:Feuchte:Taupunkt:
Aussen-T/F 1626 04-02-2019 15:25:00 5.3 C 66 % -0.52 C
1627 04-02-2019 15:30:00 5.3 C 65 % -0.73 C
1628 04-02-2019 15:35:00 5.3 C 67 % -0.32 C
1629 04-02-2019 15:40:00 5.3 C 68 % -0.12 C
1630 04-02-2019 15:45:00 5.3 C 68 % -0.12 C
1631 04-02-2019 15:50:00 5.3 C 68 % -0.12 C
1632 04-02-2019 15:55:00 5.3 C 66 % -0.52 C
1633 04-02-2019 16:00:00 5.3 C 67 % -0.32 C
1634 04-02-2019 16:05:00 5.3 C 69 % 0.09 C
1635 04-02-2019 16:10:00 5.3 C 70 % 0.28 C
1636 04-02-2019 16:15:00 5.3 C 68 % -0.12 C
1637 04-02-2019 16:20:00 5.3 C 67 % -0.32 C
1638 04-02-2019 16:25:00 5.2 C 70 % 0.19 C
1639 04-02-2019 16:30:00 5.2 C 73 % 0.77 C
1640 04-02-2019 16:35:00 5 C 73 % 0.57 C
1641 04-02-2019 16:40:00 4.8 C 74 % 0.57 C
1642 04-02-2019 16:45:00 4.7 C 76 % 0.84 C
1643 04-02-2019 16:50:00 4.4 C 77 % 0.73 C
1644 04-02-2019 16:55:00 4.2 C 78 % 0.71 C
1645 04-02-2019 17:00:00 3.9 C 79 % 0.6 C
1646 04-02-2019 17:05:00 3.6 C 81 % 0.65 C
1647 04-02-2019 17:10:00 3.3 C 81 % 0.36 C
1648 04-02-2019 17:15:00 3.1 C 82 % 0.33 C
1649 04-02-2019 17:20:00 2.9 C 83 % 0.31 C
1650 04-02-2019 17:25:00 2.7 C 84 % 0.27 C
Sensor: Nr:Datum:Temp:Feuchte:Taupunkt:
Aussen-T/F 1651 04-02-2019 17:30:00 2.6 C 84 % 0.18 C
1652 04-02-2019 17:35:00 2.4 C 85 % 0.14 C
1653 04-02-2019 17:40:00 2.3 C 85 % 0.04 C
1654 04-02-2019 17:45:00 2.2 C 85 % -0.05 C
1655 04-02-2019 17:50:00 2.1 C 86 % 0.01 C
1656 04-02-2019 17:55:00 1.9 C 86 % -0.19 C
1657 04-02-2019 18:00:00 1.8 C 86 % -0.29 C
1658 04-02-2019 18:05:00 1.7 C 87 % -0.23 C
1659 04-02-2019 18:10:00 1.6 C 87 % -0.32 C
1660 04-02-2019 18:15:00 1.6 C 87 % -0.32 C
1661 04-02-2019 18:20:00 1.5 C 87 % -0.42 C
1662 04-02-2019 18:25:00 1.4 C 87 % -0.52 C
1663 04-02-2019 18:30:00 1.3 C 87 % -0.62 C
1664 04-02-2019 18:35:00 1.3 C 88 % -0.46 C
1665 04-02-2019 18:40:00 1.2 C 88 % -0.56 C
1666 04-02-2019 18:45:00 1.2 C 88 % -0.56 C
1667 04-02-2019 18:50:00 1.1 C 89 % -0.51 C
1668 04-02-2019 18:55:00 1.1 C 89 % -0.51 C
1669 04-02-2019 19:00:00 1.1 C 89 % -0.51 C
1670 04-02-2019 19:05:00 1.1 C 89 % -0.51 C
1671 04-02-2019 19:10:00 1.2 C 89 % -0.41 C
1672 04-02-2019 19:15:00 1.2 C 89 % -0.41 C
1673 04-02-2019 19:20:00 1.3 C 90 % -0.15 C
1674 04-02-2019 19:25:00 1.3 C 90 % -0.15 C
1675 04-02-2019 19:30:00 1.4 C 90 % -0.06 C
Sensor: Nr:Datum:Temp:Feuchte:Taupunkt:
Aussen-T/F 1676 04-02-2019 19:35:00 1.5 C 90 % 0.04 C
1677 04-02-2019 19:40:00 1.6 C 90 % 0.14 C
1678 04-02-2019 19:45:00 1.7 C 89 % 0.09 C
1679 04-02-2019 19:50:00 1.7 C 90 % 0.24 C
1680 04-02-2019 19:55:00 1.8 C 90 % 0.34 C
1681 04-02-2019 20:00:00 1.8 C 89 % 0.19 C
1682 04-02-2019 20:05:00 1.9 C 89 % 0.28 C
1683 04-02-2019 20:10:00 1.9 C 89 % 0.28 C
1684 04-02-2019 20:15:00 1.9 C 89 % 0.28 C
1685 04-02-2019 20:20:00 1.9 C 88 % 0.13 C
1686 04-02-2019 20:25:00 2 C 88 % 0.23 C
1687 04-02-2019 20:30:00 2 C 88 % 0.23 C
1688 04-02-2019 20:35:00 2 C 88 % 0.23 C
1689 04-02-2019 20:40:00 2 C 88 % 0.23 C
1690 04-02-2019 20:45:00 2.2 C 86 % 0.11 C
1691 04-02-2019 20:50:00 2.2 C 85 % -0.05 C
1692 04-02-2019 20:55:00 2.3 C 84 % -0.12 C
1693 04-02-2019 21:00:00 2.3 C 83 % -0.28 C
1694 04-02-2019 21:05:00 2.4 C 83 % -0.18 C
1695 04-02-2019 21:10:00 2.5 C 83 % -0.09 C
1696 04-02-2019 21:15:00 2.6 C 83 % 0.01 C
1697 04-02-2019 21:20:00 2.7 C 82 % -0.06 C
1698 04-02-2019 21:25:00 2.7 C 83 % 0.11 C
1699 04-02-2019 21:30:00 2.7 C 83 % 0.11 C
1700 04-02-2019 21:35:00 2.7 C 83 % 0.11 C
Sensor: Nr:Datum:Temp:Feuchte:Taupunkt:
Aussen-T/F 1701 04-02-2019 21:40:00 2.7 C 83 % 0.11 C
1702 04-02-2019 21:45:00 2.7 C 82 % -0.06 C
1703 04-02-2019 21:50:00 2.7 C 82 % -0.06 C
1704 04-02-2019 21:55:00 2.8 C 81 % -0.13 C
1705 04-02-2019 22:00:00 2.8 C 82 % 0.04 C
1706 04-02-2019 22:05:00 2.9 C 83 % 0.31 C
1707 04-02-2019 22:10:00 2.9 C 82 % 0.14 C
1708 04-02-2019 22:15:00 2.9 C 83 % 0.31 C
1709 04-02-2019 22:20:00 2.9 C 82 % 0.14 C
1710 04-02-2019 22:25:00 2.9 C 83 % 0.31 C
1711 04-02-2019 22:30:00 2.8 C 83 % 0.21 C
1712 04-02-2019 22:35:00 2.8 C 82 % 0.04 C
1713 04-02-2019 22:40:00 2.8 C 83 % 0.21 C
1714 04-02-2019 22:45:00 2.8 C 83 % 0.21 C
1715 04-02-2019 22:50:00 2.9 C 84 % 0.47 C
1716 04-02-2019 22:55:00 2.8 C 85 % 0.54 C
1717 04-02-2019 23:00:00 2.8 C 85 % 0.54 C
1718 04-02-2019 23:05:00 2.8 C 85 % 0.54 C
1719 04-02-2019 23:10:00 2.7 C 86 % 0.6 C
1720 04-02-2019 23:15:00 2.7 C 85 % 0.44 C
1721 04-02-2019 23:20:00 2.7 C 85 % 0.44 C
1722 04-02-2019 23:25:00 2.7 C 86 % 0.6 C
1723 04-02-2019 23:30:00 2.7 C 86 % 0.6 C
1724 04-02-2019 23:35:00 2.7 C 85 % 0.44 C
1725 04-02-2019 23:40:00 2.7 C 85 % 0.44 C
Sensor: Nr:Datum:Temp:Feuchte:Taupunkt:
Aussen-T/F 1726 04-02-2019 23:45:00 2.7 C 85 % 0.44 C
1727 04-02-2019 23:50:00 2.7 C 83 % 0.11 C
1728 04-02-2019 23:55:00 2.7 C 83 % 0.11 C
1729 05-02-2019 00:00:00 2.8 C 83 % 0.21 C
1730 05-02-2019 00:05:00 2.8 C 83 % 0.21 C
1731 05-02-2019 00:10:00 2.9 C 83 % 0.31 C
1732 05-02-2019 00:15:00 2.9 C 83 % 0.31 C
1733 05-02-2019 00:20:00 2.9 C 83 % 0.31 C
1734 05-02-2019 00:25:00 3 C 83 % 0.4 C
1735 05-02-2019 00:30:00 3 C 83 % 0.4 C
1736 05-02-2019 00:35:00 3 C 84 % 0.57 C
1737 05-02-2019 00:40:00 3.1 C 82 % 0.33 C
1738 05-02-2019 00:45:00 3.1 C 82 % 0.33 C
1739 05-02-2019 00:50:00 3.2 C 82 % 0.43 C
1740 05-02-2019 00:55:00 3.2 C 81 % 0.26 C
1741 05-02-2019 01:00:00 3.2 C 83 % 0.6 C
1742 05-02-2019 01:05:00 3.2 C 81 % 0.26 C
1743 05-02-2019 01:10:00 3.3 C 81 % 0.36 C
1744 05-02-2019 01:15:00 3.3 C 80 % 0.19 C
1745 05-02-2019 01:20:00 3.3 C 81 % 0.36 C
1746 05-02-2019 01:25:00 3.3 C 80 % 0.19 C
1747 05-02-2019 01:30:00 3.4 C 81 % 0.46 C
1748 05-02-2019 01:35:00 3.3 C 79 % 0.02 C
1749 05-02-2019 01:40:00 3.4 C 80 % 0.29 C
1750 05-02-2019 01:45:00 3.4 C 81 % 0.46 C
Sensor: Nr:Datum:Temp:Feuchte:Taupunkt:
Aussen-T/F 1751 05-02-2019 01:50:00 3.4 C 82 % 0.63 C
1752 05-02-2019 01:55:00 3.3 C 81 % 0.36 C
1753 05-02-2019 02:00:00 3.3 C 82 % 0.53 C
1754 05-02-2019 02:05:00 3.3 C 80 % 0.19 C
1755 05-02-2019 02:10:00 3.3 C 80 % 0.19 C
1756 05-02-2019 02:15:00 3.3 C 81 % 0.36 C
1757 05-02-2019 02:20:00 3.3 C 80 % 0.19 C
1758 05-02-2019 02:25:00 3.4 C 80 % 0.29 C
1759 05-02-2019 02:30:00 3.4 C 79 % 0.11 C
1760 05-02-2019 02:35:00 3.4 C 78 % -0.06 C
1761 05-02-2019 02:40:00 3.5 C 78 % 0.04 C
1762 05-02-2019 02:45:00 3.6 C 78 % 0.13 C
1763 05-02-2019 02:50:00 3.6 C 78 % 0.13 C
1764 05-02-2019 02:55:00 3.6 C 77 % -0.05 C
1765 05-02-2019 03:00:00 3.6 C 77 % -0.05 C
1766 05-02-2019 03:05:00 3.6 C 77 % -0.05 C
1767 05-02-2019 03:10:00 3.7 C 77 % 0.05 C
1768 05-02-2019 03:15:00 3.7 C 77 % 0.05 C
1769 05-02-2019 03:20:00 3.6 C 76 % -0.22 C
1770 05-02-2019 03:25:00 3.6 C 77 % -0.05 C
1771 05-02-2019 03:30:00 3.6 C 78 % 0.13 C
1772 05-02-2019 03:35:00 3.6 C 78 % 0.13 C
1773 05-02-2019 03:40:00 3.6 C 80 % 0.48 C
1774 05-02-2019 03:45:00 3.6 C 79 % 0.31 C
1775 05-02-2019 03:50:00 3.5 C 80 % 0.38 C
Sensor: Nr:Datum:Temp:Feuchte:Taupunkt:
Aussen-T/F 1776 05-02-2019 03:55:00 3.5 C 78 % 0.04 C
1777 05-02-2019 04:00:00 3.5 C 81 % 0.55 C
1778 05-02-2019 04:05:00 3.5 C 80 % 0.38 C
1779 05-02-2019 04:10:00 3.4 C 79 % 0.11 C
1780 05-02-2019 04:15:00 3.4 C 79 % 0.11 C
1781 05-02-2019 04:20:00 3.4 C 80 % 0.29 C
1782 05-02-2019 04:25:00 3.4 C 80 % 0.29 C
1783 05-02-2019 04:30:00 3.4 C 79 % 0.11 C
1784 05-02-2019 04:35:00 3.4 C 78 % -0.06 C
1785 05-02-2019 04:40:00 3.4 C 78 % -0.06 C
1786 05-02-2019 04:45:00 3.4 C 78 % -0.06 C
1787 05-02-2019 04:50:00 3.5 C 77 % -0.14 C
1788 05-02-2019 04:55:00 3.6 C 78 % 0.13 C
1789 05-02-2019 05:00:00 3.6 C 77 % -0.05 C
1790 05-02-2019 05:05:00 3.6 C 77 % -0.05 C
1791 05-02-2019 05:10:00 3.6 C 77 % -0.05 C
1792 05-02-2019 05:15:00 3.6 C 77 % -0.05 C
1793 05-02-2019 05:20:00 3.6 C 76 % -0.22 C
1794 05-02-2019 05:25:00 3.7 C 77 % 0.05 C
1795 05-02-2019 05:30:00 3.6 C 77 % -0.05 C
1796 05-02-2019 05:35:00 3.7 C 76 % -0.13 C
1797 05-02-2019 05:40:00 3.7 C 76 % -0.13 C
1798 05-02-2019 05:45:00 3.7 C 76 % -0.13 C
1799 05-02-2019 05:50:00 3.7 C 75 % -0.31 C
1800 05-02-2019 05:55:00 3.7 C 78 % 0.23 C
Sensor: Nr:Datum:Temp:Feuchte:Taupunkt:
Aussen-T/F 1801 05-02-2019 06:00:00 3.7 C 78 % 0.23 C
1802 05-02-2019 06:05:00 3.7 C 80 % 0.58 C
1803 05-02-2019 06:10:00 3.6 C 80 % 0.48 C
1804 05-02-2019 06:15:00 3.6 C 80 % 0.48 C
1805 05-02-2019 06:20:00 3.4 C 80 % 0.29 C
1806 05-02-2019 06:25:00 3.4 C 81 % 0.46 C
1807 05-02-2019 06:30:00 3.3 C 82 % 0.53 C
1808 05-02-2019 06:35:00 3.3 C 83 % 0.7 C
1809 05-02-2019 06:40:00 3.2 C 83 % 0.6 C
1810 05-02-2019 06:45:00 3.2 C 83 % 0.6 C
1811 05-02-2019 06:50:00 3.2 C 84 % 0.76 C
1812 05-02-2019 06:55:00 3.1 C 84 % 0.67 C
1813 05-02-2019 07:00:00 3.1 C 84 % 0.67 C
1814 05-02-2019 07:05:00 3.1 C 84 % 0.67 C
1815 05-02-2019 07:10:00 3 C 84 % 0.57 C
1816 05-02-2019 07:15:00 3 C 85 % 0.73 C
1817 05-02-2019 07:20:00 3 C 85 % 0.73 C
1818 05-02-2019 07:25:00 3 C 84 % 0.57 C
1819 05-02-2019 07:30:00 3 C 85 % 0.73 C
1820 05-02-2019 07:35:00 3 C 85 % 0.73 C
1821 05-02-2019 07:40:00 2.9 C 85 % 0.63 C
1822 05-02-2019 07:45:00 2.9 C 86 % 0.8 C
1823 05-02-2019 07:50:00 2.9 C 86 % 0.8 C
1824 05-02-2019 07:55:00 2.9 C 85 % 0.63 C
1825 05-02-2019 08:00:00 2.9 C 86 % 0.8 C
Sensor: Nr:Datum:Temp:Feuchte:Taupunkt:
Aussen-T/F 1826 05-02-2019 08:05:00 2.9 C 86 % 0.8 C
1827 05-02-2019 08:10:00 2.9 C 86 % 0.8 C
1828 05-02-2019 08:15:00 2.9 C 86 % 0.8 C
1829 05-02-2019 08:20:00 2.9 C 85 % 0.63 C
1830 05-02-2019 08:25:00 2.9 C 86 % 0.8 C
1831 05-02-2019 08:30:00 2.9 C 86 % 0.8 C
1832 05-02-2019 08:35:00 3 C 85 % 0.73 C
1833 05-02-2019 08:40:00 3 C 84 % 0.57 C
1834 05-02-2019 08:45:00 3.1 C 83 % 0.5 C
1835 05-02-2019 08:50:00 3.2 C 84 % 0.76 C
1836 05-02-2019 08:55:00 3.2 C 83 % 0.6 C
1837 05-02-2019 09:00:00 3.3 C 83 % 0.7 C
1838 05-02-2019 09:05:00 3.3 C 82 % 0.53 C
1839 05-02-2019 09:10:00 3.4 C 82 % 0.63 C
1840 05-02-2019 09:15:00 3.5 C 81 % 0.55 C
1841 05-02-2019 09:20:00 3.6 C 80 % 0.48 C
1842 05-02-2019 09:25:00 3.6 C 80 % 0.48 C
1843 05-02-2019 09:30:00 3.6 C 80 % 0.48 C
1844 05-02-2019 09:35:00 3.7 C 80 % 0.58 C
1845 05-02-2019 09:40:00 3.7 C 80 % 0.58 C
1846 05-02-2019 09:45:00 3.7 C 79 % 0.4 C
1847 05-02-2019 09:50:00 3.8 C 79 % 0.5 C
1848 05-02-2019 09:55:00 3.8 C 79 % 0.5 C
1849 05-02-2019 10:00:00 3.8 C 79 % 0.5 C
1850 05-02-2019 10:05:00 3.9 C 79 % 0.6 C
Sensor: Nr:Datum:Temp:Feuchte:Taupunkt:
Aussen-T/F 1851 05-02-2019 10:10:00 3.9 C 79 % 0.6 C
1852 05-02-2019 10:15:00 4 C 79 % 0.7 C
1853 05-02-2019 10:20:00 4.1 C 78 % 0.62 C
1854 05-02-2019 10:25:00 4.2 C 78 % 0.71 C
1855 05-02-2019 10:30:00 4.2 C 78 % 0.71 C
1856 05-02-2019 10:35:00 4.3 C 77 % 0.63 C
1857 05-02-2019 10:40:00 4.3 C 78 % 0.81 C
1858 05-02-2019 10:45:00 4.4 C 78 % 0.91 C
1859 05-02-2019 10:50:00 4.4 C 77 % 0.73 C
1860 05-02-2019 10:55:00 4.6 C 77 % 0.92 C
1861 05-02-2019 11:00:00 4.7 C 78 % 1.2 C
1862 05-02-2019 11:05:00 4.7 C 77 % 1.02 C
1863 05-02-2019 11:10:00 4.8 C 76 % 0.94 C
1864 05-02-2019 11:15:00 4.8 C 76 % 0.94 C
1865 05-02-2019 11:20:00 4.9 C 76 % 1.03 C
1866 05-02-2019 11:25:00 5 C 76 % 1.13 C
1867 05-02-2019 11:30:00 5.1 C 75 % 1.04 C
1868 05-02-2019 11:35:00 5.1 C 75 % 1.04 C
1869 05-02-2019 11:40:00 5.2 C 75 % 1.14 C
1870 05-02-2019 11:45:00 5.2 C 75 % 1.14 C
1871 05-02-2019 11:50:00 5.3 C 75 % 1.24 C
1872 05-02-2019 11:55:00 5.3 C 75 % 1.24 C
1873 05-02-2019 12:00:00 5.4 C 76 % 1.52 C
1874 05-02-2019 12:05:00 5.6 C 76 % 1.71 C
1875 05-02-2019 12:10:00 5.6 C 75 % 1.53 C
Sensor: Nr:Datum:Temp:Feuchte:Taupunkt:
Aussen-T/F 1876 05-02-2019 12:15:00 5.8 C 75 % 1.72 C
1877 05-02-2019 12:20:00 5.8 C 75 % 1.72 C
1878 05-02-2019 12:25:00 5.9 C 74 % 1.63 C
1879 05-02-2019 12:30:00 6 C 75 % 1.91 C
1880 05-02-2019 12:35:00 6 C 74 % 1.73 C
1881 05-02-2019 12:40:00 6 C 74 % 1.73 C
1882 05-02-2019 12:45:00 6.1 C 74 % 1.82 C
1883 05-02-2019 12:50:00 6 C 74 % 1.73 C
1884 05-02-2019 12:55:00 6.1 C 74 % 1.82 C
1885 05-02-2019 13:00:00 6.1 C 74 % 1.82 C
1886 05-02-2019 13:05:00 6.1 C 74 % 1.82 C
1887 05-02-2019 13:10:00 6.2 C 73 % 1.73 C
1888 05-02-2019 13:15:00 6.2 C 74 % 1.92 C
1889 05-02-2019 13:20:00 6.3 C 74 % 2.02 C
1890 05-02-2019 13:25:00 6.3 C 74 % 2.02 C
1891 05-02-2019 13:30:00 6.4 C 73 % 1.92 C
1892 05-02-2019 13:35:00 6.4 C 73 % 1.92 C
1893 05-02-2019 13:40:00 6.4 C 73 % 1.92 C
1894 05-02-2019 13:45:00 6.4 C 73 % 1.92 C
1895 05-02-2019 13:50:00 6.4 C 73 % 1.92 C
1896 05-02-2019 13:55:00 6.5 C 73 % 2.02 C
1897 05-02-2019 14:00:00 6.5 C 72 % 1.83 C
1898 05-02-2019 14:05:00 6.6 C 73 % 2.12 C
1899 05-02-2019 14:10:00 6.6 C 73 % 2.12 C
1900 05-02-2019 14:15:00 6.7 C 73 % 2.21 C
Sensor: Nr:Datum:Temp:Feuchte:Taupunkt:
Aussen-T/F 1901 05-02-2019 14:20:00 6.7 C 73 % 2.21 C
1902 05-02-2019 14:25:00 6.7 C 73 % 2.21 C
1903 05-02-2019 14:30:00 6.7 C 73 % 2.21 C
1904 05-02-2019 14:35:00 6.8 C 73 % 2.31 C
1905 05-02-2019 14:40:00 6.8 C 73 % 2.31 C
1906 05-02-2019 14:45:00 6.9 C 73 % 2.4 C
1907 05-02-2019 14:50:00 6.9 C 73 % 2.4 C
1908 05-02-2019 14:55:00 6.9 C 72 % 2.21 C
1909 05-02-2019 15:00:00 7 C 74 % 2.69 C
1910 05-02-2019 15:05:00 7 C 73 % 2.5 C
1911 05-02-2019 15:10:00 7.1 C 73 % 2.6 C
1912 05-02-2019 15:15:00 7.1 C 73 % 2.6 C
1913 05-02-2019 15:20:00 7 C 74 % 2.69 C
1914 05-02-2019 15:25:00 7.1 C 74 % 2.79 C
1915 05-02-2019 15:30:00 7.1 C 73 % 2.6 C
1916 05-02-2019 15:35:00 7 C 73 % 2.5 C
1917 05-02-2019 15:40:00 7 C 73 % 2.5 C
1918 05-02-2019 15:45:00 7 C 74 % 2.69 C
1919 05-02-2019 15:50:00 7 C 75 % 2.88 C
1920 05-02-2019 15:55:00 7 C 74 % 2.69 C
1921 05-02-2019 16:00:00 7 C 74 % 2.69 C
1922 05-02-2019 16:05:00 6.9 C 74 % 2.6 C
1923 05-02-2019 16:10:00 6.9 C 74 % 2.6 C
1924 05-02-2019 16:15:00 6.9 C 75 % 2.78 C
1925 05-02-2019 16:20:00 6.9 C 75 % 2.78 C
Sensor: Nr:Datum:Temp:Feuchte:Taupunkt:
Aussen-T/F 1926 05-02-2019 16:25:00 6.8 C 76 % 2.87 C
1927 05-02-2019 16:30:00 6.8 C 76 % 2.87 C
1928 05-02-2019 16:35:00 6.8 C 77 % 3.06 C
1929 05-02-2019 16:40:00 6.8 C 78 % 3.24 C
1930 05-02-2019 16:45:00 6.8 C 79 % 3.42 C
1931 05-02-2019 16:50:00 6.7 C 80 % 3.5 C
1932 05-02-2019 16:55:00 6.7 C 80 % 3.5 C
1933 05-02-2019 17:00:00 6.6 C 81 % 3.58 C
1934 05-02-2019 17:05:00 6.6 C 81 % 3.58 C
1935 05-02-2019 17:10:00 6.6 C 81 % 3.58 C
1936 05-02-2019 17:15:00 6.4 C 82 % 3.56 C
1937 05-02-2019 17:20:00 6.3 C 82 % 3.46 C
1938 05-02-2019 17:25:00 6.3 C 83 % 3.63 C
1939 05-02-2019 17:30:00 6.1 C 83 % 3.44 C
1940 05-02-2019 17:35:00 6 C 84 % 3.51 C
1941 05-02-2019 17:40:00 5.9 C 84 % 3.41 C
1942 05-02-2019 17:45:00 5.8 C 84 % 3.31 C
1943 05-02-2019 17:50:00 5.7 C 85 % 3.38 C
1944 05-02-2019 17:55:00 5.6 C 85 % 3.28 C
1945 05-02-2019 18:00:00 5.5 C 85 % 3.18 C
1946 05-02-2019 18:05:00 5.4 C 86 % 3.25 C
1947 05-02-2019 18:10:00 5.3 C 86 % 3.15 C
1948 05-02-2019 18:15:00 5.3 C 86 % 3.15 C
1949 05-02-2019 18:20:00 5.2 C 86 % 3.05 C
1950 05-02-2019 18:25:00 5.2 C 86 % 3.05 C
Sensor: Nr:Datum:Temp:Feuchte:Taupunkt:
Aussen-T/F 1951 05-02-2019 18:30:00 5.1 C 86 % 2.96 C
1952 05-02-2019 18:35:00 5.1 C 86 % 2.96 C
1953 05-02-2019 18:40:00 5 C 87 % 3.02 C
1954 05-02-2019 18:45:00 5 C 87 % 3.02 C
1955 05-02-2019 18:50:00 4.9 C 87 % 2.92 C
1956 05-02-2019 18:55:00 4.9 C 87 % 2.92 C
1957 05-02-2019 19:00:00 4.8 C 87 % 2.82 C
1958 05-02-2019 19:05:00 4.8 C 87 % 2.82 C
1959 05-02-2019 19:10:00 4.8 C 87 % 2.82 C
1960 05-02-2019 19:15:00 4.8 C 87 % 2.82 C
1961 05-02-2019 19:20:00 4.8 C 87 % 2.82 C
1962 05-02-2019 19:25:00 4.8 C 88 % 2.99 C
1963 05-02-2019 19:30:00 4.7 C 88 % 2.89 C
1964 05-02-2019 19:35:00 4.7 C 87 % 2.73 C
1965 05-02-2019 19:40:00 4.7 C 88 % 2.89 C
1966 05-02-2019 19:45:00 4.7 C 88 % 2.89 C
1967 05-02-2019 19:50:00 4.7 C 88 % 2.89 C
1968 05-02-2019 19:55:00 4.7 C 88 % 2.89 C
1969 05-02-2019 20:00:00 4.7 C 88 % 2.89 C
1970 05-02-2019 20:05:00 4.6 C 88 % 2.79 C
1971 05-02-2019 20:10:00 4.6 C 88 % 2.79 C
1972 05-02-2019 20:15:00 4.5 C 88 % 2.69 C
1973 05-02-2019 20:20:00 4.4 C 88 % 2.59 C
1974 05-02-2019 20:25:00 4.4 C 88 % 2.59 C
1975 05-02-2019 20:30:00 4.3 C 88 % 2.49 C
Sensor: Nr:Datum:Temp:Feuchte:Taupunkt:
Aussen-T/F 1976 05-02-2019 20:35:00 4.2 C 88 % 2.39 C
1977 05-02-2019 20:40:00 4.2 C 88 % 2.39 C
1978 05-02-2019 20:45:00 4.1 C 89 % 2.45 C
1979 05-02-2019 20:50:00 4.1 C 89 % 2.45 C
1980 05-02-2019 20:55:00 4.1 C 89 % 2.45 C
1981 05-02-2019 21:00:00 4.1 C 89 % 2.45 C
1982 05-02-2019 21:05:00 4.1 C 89 % 2.45 C
1983 05-02-2019 21:10:00 4.2 C 90 % 2.71 C
1984 05-02-2019 21:15:00 4.2 C 90 % 2.71 C
1985 05-02-2019 21:20:00 4.2 C 90 % 2.71 C
1986 05-02-2019 21:25:00 4.2 C 90 % 2.71 C
1987 05-02-2019 21:30:00 4.2 C 90 % 2.71 C
1988 05-02-2019 21:35:00 4.2 C 90 % 2.71 C
1989 05-02-2019 21:40:00 4.2 C 89 % 2.55 C
1990 05-02-2019 21:45:00 4.1 C 89 % 2.45 C
1991 05-02-2019 21:50:00 3.9 C 88 % 2.1 C
1992 05-02-2019 21:55:00 3.7 C 88 % 1.9 C
1993 05-02-2019 22:00:00 3.4 C 88 % 1.61 C
1994 05-02-2019 22:05:00 3.3 C 89 % 1.67 C
1995 05-02-2019 22:10:00 3.1 C 89 % 1.47 C
1996 05-02-2019 22:15:00 2.9 C 89 % 1.27 C
1997 05-02-2019 22:20:00 2.8 C 89 % 1.17 C
1998 05-02-2019 22:25:00 2.7 C 89 % 1.07 C
1999 05-02-2019 22:30:00 2.6 C 90 % 1.13 C
2000 05-02-2019 22:35:00 2.4 C 90 % 0.93 C
Sensor: Nr:Datum:Temp:Feuchte:Taupunkt:
Aussen-T/F 2001 05-02-2019 22:40:00 2.4 C 90 % 0.93 C
2002 05-02-2019 22:45:00 2.3 C 91 % 0.99 C
2003 05-02-2019 22:50:00 2.2 C 91 % 0.89 C
2004 05-02-2019 22:55:00 2.2 C 91 % 0.89 C
2005 05-02-2019 23:00:00 2.1 C 91 % 0.79 C
2006 05-02-2019 23:05:00 2.1 C 91 % 0.79 C
2007 05-02-2019 23:10:00 2 C 92 % 0.84 C
2008 05-02-2019 23:15:00 1.9 C 91 % 0.59 C
2009 05-02-2019 23:20:00 1.9 C 92 % 0.74 C
2010 05-02-2019 23:25:00 1.8 C 92 % 0.64 C
2011 05-02-2019 23:30:00 1.8 C 92 % 0.64 C
2012 05-02-2019 23:35:00 1.7 C 92 % 0.54 C
2013 05-02-2019 23:40:00 1.6 C 92 % 0.44 C
2014 05-02-2019 23:45:00 1.4 C 92 % 0.25 C
2015 05-02-2019 23:50:00 1.3 C 91 % 0 C
2016 05-02-2019 23:55:00 1.1 C 92 % -0.05 C
2017 06-02-2019 00:00:00 1 C 92 % -0.15 C
2018 06-02-2019 00:05:00 0.8 C 92 % -0.35 C
2019 06-02-2019 00:10:00 0.7 C 92 % -0.45 C
2020 06-02-2019 00:15:00 0.6 C 92 % -0.55 C
2021 06-02-2019 00:20:00 0.5 C 92 % -0.65 C
2022 06-02-2019 00:25:00 0.4 C 93 % -0.6 C
2023 06-02-2019 00:30:00 0.3 C 93 % -0.7 C
2024 06-02-2019 00:35:00 0.3 C 93 % -0.7 C
2025 06-02-2019 00:40:00 0.2 C 93 % -0.79 C
Sensor: Nr:Datum:Temp:Feuchte:Taupunkt:
Aussen-T/F 2026 06-02-2019 00:45:00 0.2 C 93 % -0.79 C
2027 06-02-2019 00:50:00 0.1 C 93 % -0.89 C
2028 06-02-2019 00:55:00 0.1 C 93 % -0.89 C
2029 06-02-2019 01:00:00 0 C 94 % -0.85 C
2030 06-02-2019 01:05:00 0 C 94 % -0.85 C
2031 06-02-2019 01:10:00 -0.1 C 94 % -0.95 C
2032 06-02-2019 01:15:00 -0.1 C 94 % -0.95 C
2033 06-02-2019 01:20:00 -0.2 C 94 % -1.05 C
2034 06-02-2019 01:25:00 -0.3 C 94 % -1.15 C
2035 06-02-2019 01:30:00 -0.3 C 94 % -1.15 C
2036 06-02-2019 01:35:00 -0.3 C 94 % -1.15 C
2037 06-02-2019 01:40:00 -0.3 C 94 % -1.15 C
2038 06-02-2019 01:45:00 -0.3 C 94 % -1.15 C
2039 06-02-2019 01:50:00 -0.4 C 94 % -1.25 C
2040 06-02-2019 01:55:00 -0.4 C 94 % -1.25 C
2041 06-02-2019 02:00:00 -0.5 C 94 % -1.34 C
2042 06-02-2019 02:05:00 -0.6 C 94 % -1.44 C
2043 06-02-2019 02:10:00 -0.6 C 94 % -1.44 C
2044 06-02-2019 02:15:00 -0.6 C 94 % -1.44 C
2045 06-02-2019 02:20:00 -0.6 C 95 % -1.3 C
2046 06-02-2019 02:25:00 -0.6 C 95 % -1.3 C
2047 06-02-2019 02:30:00 -0.7 C 95 % -1.4 C
2048 06-02-2019 02:35:00 -0.7 C 95 % -1.4 C
2049 06-02-2019 02:40:00 -0.7 C 94 % -1.54 C
2050 06-02-2019 02:45:00 -0.8 C 94 % -1.64 C
Sensor: Nr:Datum:Temp:Feuchte:Taupunkt:
Aussen-T/F 2051 06-02-2019 02:50:00 -0.8 C 94 % -1.64 C
2052 06-02-2019 02:55:00 -0.9 C 95 % -1.6 C
2053 06-02-2019 03:00:00 -0.9 C 95 % -1.6 C
2054 06-02-2019 03:05:00 -1 C 95 % -1.7 C
2055 06-02-2019 03:10:00 -1.1 C 95 % -1.8 C
2056 06-02-2019 03:15:00 -1.1 C 94 % -1.94 C
2057 06-02-2019 03:20:00 -1.2 C 94 % -2.04 C
2058 06-02-2019 03:25:00 -1.2 C 95 % -1.9 C
2059 06-02-2019 03:30:00 -1.2 C 95 % -1.9 C
2060 06-02-2019 03:35:00 -1.3 C 95 % -2 C
2061 06-02-2019 03:40:00 -1.2 C 95 % -1.9 C
2062 06-02-2019 03:45:00 -1.2 C 95 % -1.9 C
2063 06-02-2019 03:50:00 -1.3 C 95 % -2 C
2064 06-02-2019 03:55:00 -1.3 C 95 % -2 C
2065 06-02-2019 04:00:00 -1.3 C 95 % -2 C
2066 06-02-2019 04:05:00 -1.4 C 95 % -2.1 C
2067 06-02-2019 04:10:00 -1.4 C 95 % -2.1 C
2068 06-02-2019 04:15:00 -1.4 C 95 % -2.1 C
2069 06-02-2019 04:20:00 -1.3 C 95 % -2 C
2070 06-02-2019 04:25:00 -1.3 C 95 % -2 C
2071 06-02-2019 04:30:00 -1.4 C 95 % -2.1 C
2072 06-02-2019 04:35:00 -1.4 C 95 % -2.1 C
2073 06-02-2019 04:40:00 -1.5 C 95 % -2.19 C
2074 06-02-2019 04:45:00 -1.5 C 95 % -2.19 C
2075 06-02-2019 04:50:00 -1.6 C 95 % -2.29 C
Sensor: Nr:Datum:Temp:Feuchte:Taupunkt:
Aussen-T/F 2076 06-02-2019 04:55:00 -1.6 C 95 % -2.29 C
2077 06-02-2019 05:00:00 -1.6 C 95 % -2.29 C
2078 06-02-2019 05:05:00 -1.6 C 95 % -2.29 C
2079 06-02-2019 05:10:00 -1.4 C 95 % -2.1 C
2080 06-02-2019 05:15:00 -1.4 C 95 % -2.1 C
2081 06-02-2019 05:20:00 -1.4 C 95 % -2.1 C
2082 06-02-2019 05:25:00 -1.6 C 95 % -2.29 C
2083 06-02-2019 05:30:00 -1.6 C 95 % -2.29 C
2084 06-02-2019 05:35:00 -1.7 C 95 % -2.39 C
2085 06-02-2019 05:40:00 -1.7 C 95 % -2.39 C
2086 06-02-2019 05:45:00 -1.7 C 95 % -2.39 C
2087 06-02-2019 05:50:00 -1.7 C 95 % -2.39 C
2088 06-02-2019 05:55:00 -1.7 C 95 % -2.39 C
2089 06-02-2019 06:00:00 -1.7 C 95 % -2.39 C
2090 06-02-2019 06:05:00 -1.7 C 95 % -2.39 C
2091 06-02-2019 06:10:00 -1.7 C 95 % -2.39 C
2092 06-02-2019 06:15:00 -1.7 C 95 % -2.39 C
2093 06-02-2019 06:20:00 -1.8 C 95 % -2.49 C
2094 06-02-2019 06:25:00 -1.8 C 95 % -2.49 C
2095 06-02-2019 06:30:00 -1.8 C 95 % -2.49 C
2096 06-02-2019 06:35:00 -1.8 C 95 % -2.49 C
2097 06-02-2019 06:40:00 -1.8 C 95 % -2.49 C
2098 06-02-2019 06:45:00 -1.8 C 95 % -2.49 C
2099 06-02-2019 06:50:00 -1.8 C 95 % -2.49 C
2100 06-02-2019 06:55:00 -1.8 C 95 % -2.49 C
Sensor: Nr:Datum:Temp:Feuchte:Taupunkt:
Aussen-T/F 2101 06-02-2019 07:00:00 -1.8 C 95 % -2.49 C
2102 06-02-2019 07:05:00 -1.9 C 95 % -2.59 C
2103 06-02-2019 07:10:00 -1.9 C 95 % -2.59 C
2104 06-02-2019 07:15:00 -1.9 C 95 % -2.59 C
2105 06-02-2019 07:20:00 -2 C 95 % -2.69 C
2106 06-02-2019 07:25:00 -2.1 C 95 % -2.79 C
2107 06-02-2019 07:30:00 -2.1 C 95 % -2.79 C
2108 06-02-2019 07:35:00 -1.9 C 95 % -2.59 C
2109 06-02-2019 07:40:00 -1.9 C 95 % -2.59 C
2110 06-02-2019 07:45:00 -2 C 95 % -2.69 C
2111 06-02-2019 07:50:00 -2.1 C 95 % -2.79 C
2112 06-02-2019 07:55:00 -2.1 C 95 % -2.79 C
2113 06-02-2019 08:00:00 -2.2 C 95 % -2.89 C
2114 06-02-2019 08:05:00 -2.2 C 95 % -2.89 C
2115 06-02-2019 08:10:00 -2.3 C 95 % -2.99 C
2116 06-02-2019 08:15:00 -2.3 C 95 % -2.99 C
2117 06-02-2019 08:20:00 -2.3 C 95 % -2.99 C
2118 06-02-2019 08:25:00 -2.2 C 96 % -2.75 C
2119 06-02-2019 08:30:00 -2.2 C 96 % -2.75 C
2120 06-02-2019 08:35:00 -2.2 C 96 % -2.75 C
2121 06-02-2019 08:40:00 -2.2 C 96 % -2.75 C
2122 06-02-2019 08:45:00 -2.2 C 96 % -2.75 C
2123 06-02-2019 08:50:00 -2.2 C 96 % -2.75 C
2124 06-02-2019 08:55:00 -2.1 C 96 % -2.65 C
2125 06-02-2019 09:00:00 -2 C 96 % -2.55 C
Sensor: Nr:Datum:Temp:Feuchte:Taupunkt:
Aussen-T/F 2126 06-02-2019 09:05:00 -1.9 C 96 % -2.45 C
2127 06-02-2019 09:10:00 -1.8 C 96 % -2.35 C
2128 06-02-2019 09:15:00 -1.7 C 96 % -2.25 C
2129 06-02-2019 09:20:00 -1.6 C 96 % -2.15 C
2130 06-02-2019 09:25:00 -1.4 C 96 % -1.95 C
2131 06-02-2019 09:30:00 -1.3 C 96 % -1.85 C
2132 06-02-2019 09:35:00 -1.2 C 96 % -1.75 C
2133 06-02-2019 09:40:00 -1.1 C 96 % -1.66 C
2134 06-02-2019 09:45:00 -0.9 C 96 % -1.46 C
2135 06-02-2019 09:50:00 -0.8 C 96 % -1.36 C
2136 06-02-2019 09:55:00 -0.7 C 96 % -1.26 C
2137 06-02-2019 10:00:00 -0.6 C 96 % -1.16 C
2138 06-02-2019 10:05:00 -0.4 C 96 % -0.96 C
2139 06-02-2019 10:10:00 -0.4 C 97 % -0.82 C
2140 06-02-2019 10:15:00 -0.3 C 96 % -0.86 C
2141 06-02-2019 10:20:00 -0.1 C 96 % -0.66 C
2142 06-02-2019 10:25:00 0.1 C 97 % -0.32 C
2143 06-02-2019 10:30:00 0.2 C 96 % -0.36 C
2144 06-02-2019 10:35:00 0.3 C 96 % -0.26 C
2145 06-02-2019 10:40:00 0.4 C 96 % -0.16 C
2146 06-02-2019 10:45:00 0.6 C 96 % 0.04 C
2147 06-02-2019 10:50:00 0.7 C 96 % 0.14 C
2148 06-02-2019 10:55:00 0.8 C 96 % 0.24 C
2149 06-02-2019 11:00:00 0.9 C 96 % 0.34 C
2150 06-02-2019 11:05:00 1.1 C 96 % 0.54 C
Sensor: Nr:Datum:Temp:Feuchte:Taupunkt:
Aussen-T/F 2151 06-02-2019 11:10:00 1.3 C 96 % 0.73 C
2152 06-02-2019 11:15:00 1.4 C 95 % 0.69 C
2153 06-02-2019 11:20:00 1.5 C 95 % 0.79 C
2154 06-02-2019 11:25:00 1.6 C 95 % 0.89 C
2155 06-02-2019 11:30:00 1.8 C 94 % 0.94 C
2156 06-02-2019 11:35:00 1.9 C 94 % 1.04 C
2157 06-02-2019 11:40:00 2 C 94 % 1.14 C
2158 06-02-2019 11:45:00 2.1 C 93 % 1.09 C
2159 06-02-2019 11:50:00 2.2 C 93 % 1.19 C
2160 06-02-2019 11:55:00 2.3 C 92 % 1.14 C
2161 06-02-2019 12:00:00 2.4 C 92 % 1.24 C
2162 06-02-2019 12:05:00 2.5 C 91 % 1.18 C
2163 06-02-2019 12:10:00 2.6 C 91 % 1.28 C
2164 06-02-2019 12:15:00 2.7 C 91 % 1.38 C
2165 06-02-2019 12:20:00 2.8 C 92 % 1.63 C
2166 06-02-2019 12:25:00 2.9 C 91 % 1.58 C
2167 06-02-2019 12:30:00 3.1 C 91 % 1.78 C
2168 06-02-2019 12:35:00 3.2 C 91 % 1.88 C
2169 06-02-2019 12:40:00 3.3 C 91 % 1.98 C
2170 06-02-2019 12:45:00 3.4 C 91 % 2.07 C
2171 06-02-2019 12:50:00 3.4 C 91 % 2.07 C
2172 06-02-2019 12:55:00 3.5 C 90 % 2.02 C
2173 06-02-2019 13:00:00 3.6 C 90 % 2.12 C
2174 06-02-2019 13:05:00 3.7 C 90 % 2.22 C
2175 06-02-2019 13:10:00 3.7 C 90 % 2.22 C
Sensor: Nr:Datum:Temp:Feuchte:Taupunkt:
Aussen-T/F 2176 06-02-2019 13:15:00 3.8 C 90 % 2.31 C
2177 06-02-2019 13:20:00 3.9 C 89 % 2.26 C
2178 06-02-2019 13:25:00 4.1 C 88 % 2.3 C
2179 06-02-2019 13:30:00 4.2 C 87 % 2.23 C
2180 06-02-2019 13:35:00 4.3 C 87 % 2.33 C
2181 06-02-2019 13:40:00 4.4 C 86 % 2.27 C
2182 06-02-2019 13:45:00 4.6 C 84 % 2.14 C
2183 06-02-2019 13:50:00 4.7 C 84 % 2.23 C
2184 06-02-2019 13:55:00 4.8 C 82 % 1.99 C
2185 06-02-2019 14:00:00 4.8 C 81 % 1.82 C
2186 06-02-2019 14:05:00 4.9 C 78 % 1.39 C
2187 06-02-2019 14:10:00 5.1 C 76 % 1.23 C
2188 06-02-2019 14:15:00 5.3 C 74 % 1.05 C
2189 06-02-2019 14:20:00 5.6 C 74 % 1.34 C
2190 06-02-2019 14:25:00 5.8 C 67 % 0.16 C
2191 06-02-2019 14:30:00 6 C 68 % 0.55 C
2192 06-02-2019 14:35:00 6.1 C 68 % 0.65 C
2193 06-02-2019 14:40:00 6.1 C 68 % 0.65 C
2194 06-02-2019 14:45:00 6.1 C 67 % 0.44 C
2195 06-02-2019 14:50:00 6.1 C 66 % 0.24 C
2196 06-02-2019 14:55:00 6.2 C 66 % 0.33 C
2197 06-02-2019 15:00:00 6.2 C 67 % 0.54 C
2198 06-02-2019 15:05:00 6.3 C 69 % 1.04 C
2199 06-02-2019 15:10:00 6.2 C 69 % 0.95 C
2200 06-02-2019 15:15:00 6.2 C 70 % 1.15 C
Sensor: Nr:Datum:Temp:Feuchte:Taupunkt:
Aussen-T/F 2201 06-02-2019 15:20:00 6.2 C 72 % 1.54 C
2202 06-02-2019 15:25:00 6.1 C 72 % 1.44 C
2203 06-02-2019 15:30:00 5.9 C 72 % 1.25 C
2204 06-02-2019 15:35:00 5.8 C 73 % 1.34 C
2205 06-02-2019 15:40:00 5.8 C 75 % 1.72 C
2206 06-02-2019 15:45:00 5.7 C 75 % 1.62 C
2207 06-02-2019 15:50:00 5.7 C 76 % 1.81 C
2208 06-02-2019 15:55:00 5.6 C 77 % 1.89 C
2209 06-02-2019 16:00:00 5.4 C 77 % 1.7 C
2210 06-02-2019 16:05:00 5.4 C 77 % 1.7 C
2211 06-02-2019 16:10:00 5.3 C 78 % 1.78 C
2212 06-02-2019 16:15:00 5.3 C 78 % 1.78 C
2213 06-02-2019 16:20:00 5.3 C 78 % 1.78 C
2214 06-02-2019 16:25:00 5.2 C 79 % 1.86 C
2215 06-02-2019 16:30:00 5.2 C 78 % 1.69 C
2216 06-02-2019 16:35:00 5.1 C 78 % 1.59 C
2217 06-02-2019 16:40:00 5 C 78 % 1.49 C
2218 06-02-2019 16:45:00 4.9 C 78 % 1.39 C
2219 06-02-2019 16:50:00 4.8 C 79 % 1.47 C
2220 06-02-2019 16:55:00 4.7 C 79 % 1.38 C
2221 06-02-2019 17:00:00 4.6 C 80 % 1.46 C
2222 06-02-2019 17:05:00 4.4 C 80 % 1.26 C
2223 06-02-2019 17:10:00 4.3 C 81 % 1.34 C
2224 06-02-2019 17:15:00 4.1 C 81 % 1.14 C
2225 06-02-2019 17:20:00 4 C 82 % 1.21 C
Sensor: Nr:Datum:Temp:Feuchte:Taupunkt:
Aussen-T/F 2226 06-02-2019 17:25:00 3.8 C 82 % 1.02 C
2227 06-02-2019 17:30:00 3.7 C 83 % 1.09 C
2228 06-02-2019 17:35:00 3.6 C 82 % 0.82 C
2229 06-02-2019 17:40:00 3.4 C 82 % 0.63 C
2230 06-02-2019 17:45:00 3.3 C 83 % 0.7 C
2231 06-02-2019 17:50:00 3.2 C 83 % 0.6 C
2232 06-02-2019 17:55:00 3.1 C 84 % 0.67 C
2233 06-02-2019 18:00:00 3.1 C 84 % 0.67 C
2234 06-02-2019 18:05:00 2.9 C 85 % 0.63 C
2235 06-02-2019 18:10:00 2.8 C 85 % 0.54 C
2236 06-02-2019 18:15:00 2.8 C 86 % 0.7 C
2237 06-02-2019 18:20:00 2.7 C 86 % 0.6 C
2238 06-02-2019 18:25:00 2.7 C 86 % 0.6 C
2239 06-02-2019 18:30:00 2.6 C 86 % 0.5 C
2240 06-02-2019 18:35:00 2.5 C 86 % 0.4 C
2241 06-02-2019 18:40:00 2.5 C 87 % 0.56 C
2242 06-02-2019 18:45:00 2.4 C 87 % 0.46 C
2243 06-02-2019 18:50:00 2.4 C 87 % 0.46 C
2244 06-02-2019 18:55:00 2.3 C 87 % 0.36 C
2245 06-02-2019 19:00:00 2.3 C 88 % 0.52 C
2246 06-02-2019 19:05:00 2.2 C 88 % 0.42 C
2247 06-02-2019 19:10:00 2.1 C 89 % 0.48 C
2248 06-02-2019 19:15:00 2.1 C 89 % 0.48 C
2249 06-02-2019 19:20:00 2.1 C 89 % 0.48 C
2250 06-02-2019 19:25:00 2.1 C 90 % 0.64 C
Sensor: Nr:Datum:Temp:Feuchte:Taupunkt:
Aussen-T/F 2251 06-02-2019 19:30:00 2.1 C 90 % 0.64 C
2252 06-02-2019 19:35:00 2.1 C 90 % 0.64 C
2253 06-02-2019 19:40:00 2.2 C 90 % 0.73 C
2254 06-02-2019 19:45:00 2.2 C 90 % 0.73 C
2255 06-02-2019 19:50:00 2.1 C 89 % 0.48 C
2256 06-02-2019 19:55:00 2.1 C 89 % 0.48 C
2257 06-02-2019 20:00:00 2.1 C 89 % 0.48 C
2258 06-02-2019 20:05:00 2.1 C 89 % 0.48 C
2259 06-02-2019 20:10:00 2 C 89 % 0.38 C
2260 06-02-2019 20:15:00 2 C 89 % 0.38 C
2261 06-02-2019 20:20:00 1.9 C 89 % 0.28 C
2262 06-02-2019 20:25:00 1.9 C 89 % 0.28 C
2263 06-02-2019 20:30:00 1.9 C 90 % 0.44 C
2264 06-02-2019 20:35:00 1.9 C 90 % 0.44 C
2265 06-02-2019 20:40:00 1.9 C 90 % 0.44 C
2266 06-02-2019 20:45:00 1.8 C 90 % 0.34 C
2267 06-02-2019 20:50:00 1.8 C 90 % 0.34 C
2268 06-02-2019 20:55:00 1.7 C 91 % 0.39 C
2269 06-02-2019 21:00:00 1.7 C 91 % 0.39 C
2270 06-02-2019 21:05:00 1.7 C 91 % 0.39 C
2271 06-02-2019 21:10:00 1.7 C 91 % 0.39 C
2272 06-02-2019 21:15:00 1.7 C 91 % 0.39 C
2273 06-02-2019 21:20:00 1.6 C 91 % 0.29 C
2274 06-02-2019 21:25:00 1.6 C 91 % 0.29 C
2275 06-02-2019 21:30:00 1.5 C 91 % 0.19 C
Sensor: Nr:Datum:Temp:Feuchte:Taupunkt:
Aussen-T/F 2276 06-02-2019 21:35:00 1.4 C 91 % 0.1 C
2277 06-02-2019 21:40:00 1.4 C 91 % 0.1 C
2278 06-02-2019 21:45:00 1.3 C 91 % 0 C
2279 06-02-2019 21:50:00 1.4 C 91 % 0.1 C
2280 06-02-2019 21:55:00 1.4 C 92 % 0.25 C
2281 06-02-2019 22:00:00 1.3 C 91 % 0 C
2282 06-02-2019 22:05:00 1.3 C 91 % 0 C
2283 06-02-2019 22:10:00 1.2 C 91 % -0.1 C
2284 06-02-2019 22:15:00 1.2 C 92 % 0.05 C
2285 06-02-2019 22:20:00 1.2 C 92 % 0.05 C
2286 06-02-2019 22:25:00 1.2 C 92 % 0.05 C
2287 06-02-2019 22:30:00 1.2 C 92 % 0.05 C
2288 06-02-2019 22:35:00 1.2 C 92 % 0.05 C
2289 06-02-2019 22:40:00 1.2 C 92 % 0.05 C
2290 06-02-2019 22:45:00 1.2 C 92 % 0.05 C
2291 06-02-2019 22:50:00 1.2 C 92 % 0.05 C
2292 06-02-2019 22:55:00 1.2 C 92 % 0.05 C
2293 06-02-2019 23:00:00 1.2 C 92 % 0.05 C
2294 06-02-2019 23:05:00 1.2 C 92 % 0.05 C
2295 06-02-2019 23:10:00 1.3 C 92 % 0.15 C
2296 06-02-2019 23:15:00 1.3 C 92 % 0.15 C
2297 06-02-2019 23:20:00 1.3 C 92 % 0.15 C
2298 06-02-2019 23:25:00 1.3 C 92 % 0.15 C
2299 06-02-2019 23:30:00 1.3 C 92 % 0.15 C
2300 06-02-2019 23:35:00 1.3 C 92 % 0.15 C
Sensor: Nr:Datum:Temp:Feuchte:Taupunkt:
Aussen-T/F 2301 06-02-2019 23:40:00 1.3 C 92 % 0.15 C
2302 06-02-2019 23:45:00 1.3 C 92 % 0.15 C
2303 06-02-2019 23:50:00 1.2 C 92 % 0.05 C
2304 06-02-2019 23:55:00 1.2 C 91 % -0.1 C
2305 07-02-2019 00:00:00 1.1 C 91 % -0.2 C
2306 07-02-2019 00:05:00 1 C 91 % -0.3 C
2307 07-02-2019 00:10:00 0.9 C 91 % -0.4 C
2308 07-02-2019 00:15:00 0.8 C 91 % -0.5 C
2309 07-02-2019 00:20:00 0.8 C 92 % -0.35 C
2310 07-02-2019 00:25:00 0.9 C 92 % -0.25 C
2311 07-02-2019 00:30:00 0.9 C 92 % -0.25 C
2312 07-02-2019 00:35:00 0.9 C 92 % -0.25 C
2313 07-02-2019 00:40:00 0.9 C 92 % -0.25 C
2314 07-02-2019 00:45:00 0.9 C 92 % -0.25 C
2315 07-02-2019 00:50:00 0.9 C 92 % -0.25 C
2316 07-02-2019 00:55:00 0.9 C 92 % -0.25 C
2317 07-02-2019 01:00:00 1 C 92 % -0.15 C
2318 07-02-2019 01:05:00 1.1 C 92 % -0.05 C
2319 07-02-2019 01:10:00 1.1 C 92 % -0.05 C
2320 07-02-2019 01:15:00 1.1 C 92 % -0.05 C
2321 07-02-2019 01:20:00 1.2 C 92 % 0.05 C
2322 07-02-2019 01:25:00 1.2 C 92 % 0.05 C
2323 07-02-2019 01:30:00 1.3 C 92 % 0.15 C
2324 07-02-2019 01:35:00 1.3 C 92 % 0.15 C
2325 07-02-2019 01:40:00 1.3 C 92 % 0.15 C
Sensor: Nr:Datum:Temp:Feuchte:Taupunkt:
Aussen-T/F 2326 07-02-2019 01:45:00 1.3 C 92 % 0.15 C
2327 07-02-2019 01:50:00 1.3 C 92 % 0.15 C
2328 07-02-2019 01:55:00 1.3 C 92 % 0.15 C
2329 07-02-2019 02:00:00 1.3 C 92 % 0.15 C
2330 07-02-2019 02:05:00 1.3 C 92 % 0.15 C
2331 07-02-2019 02:10:00 1.4 C 92 % 0.25 C
2332 07-02-2019 02:15:00 1.4 C 92 % 0.25 C
2333 07-02-2019 02:20:00 1.4 C 91 % 0.1 C
2334 07-02-2019 02:25:00 1.5 C 91 % 0.19 C
2335 07-02-2019 02:30:00 1.5 C 91 % 0.19 C
2336 07-02-2019 02:35:00 1.5 C 91 % 0.19 C
2337 07-02-2019 02:40:00 1.5 C 91 % 0.19 C
2338 07-02-2019 02:45:00 1.5 C 91 % 0.19 C
2339 07-02-2019 02:50:00 1.5 C 91 % 0.19 C
2340 07-02-2019 02:55:00 1.5 C 92 % 0.35 C
2341 07-02-2019 03:00:00 1.6 C 92 % 0.44 C
2342 07-02-2019 03:05:00 1.6 C 92 % 0.44 C
2343 07-02-2019 03:10:00 1.6 C 92 % 0.44 C
2344 07-02-2019 03:15:00 1.7 C 92 % 0.54 C
2345 07-02-2019 03:20:00 1.7 C 92 % 0.54 C
2346 07-02-2019 03:25:00 1.7 C 92 % 0.54 C
2347 07-02-2019 03:30:00 1.7 C 92 % 0.54 C
2348 07-02-2019 03:35:00 1.8 C 92 % 0.64 C
2349 07-02-2019 03:40:00 1.8 C 91 % 0.49 C
2350 07-02-2019 03:45:00 1.8 C 91 % 0.49 C
Sensor: Nr:Datum:Temp:Feuchte:Taupunkt:
Aussen-T/F 2351 07-02-2019 03:50:00 1.9 C 91 % 0.59 C
2352 07-02-2019 03:55:00 1.9 C 91 % 0.59 C
2353 07-02-2019 04:00:00 2 C 91 % 0.69 C
2354 07-02-2019 04:05:00 2.1 C 91 % 0.79 C
2355 07-02-2019 04:10:00 2.2 C 90 % 0.73 C
2356 07-02-2019 04:15:00 2.2 C 90 % 0.73 C
2357 07-02-2019 04:20:00 2.3 C 90 % 0.83 C
2358 07-02-2019 04:25:00 2.3 C 90 % 0.83 C
2359 07-02-2019 04:30:00 2.4 C 90 % 0.93 C
2360 07-02-2019 04:35:00 2.4 C 90 % 0.93 C
2361 07-02-2019 04:40:00 2.4 C 90 % 0.93 C
2362 07-02-2019 04:45:00 2.5 C 91 % 1.18 C
2363 07-02-2019 04:50:00 2.6 C 91 % 1.28 C
2364 07-02-2019 04:55:00 2.6 C 91 % 1.28 C
2365 07-02-2019 05:00:00 2.6 C 92 % 1.43 C
2366 07-02-2019 05:05:00 2.6 C 92 % 1.43 C
2367 07-02-2019 05:10:00 2.6 C 92 % 1.43 C
2368 07-02-2019 05:15:00 2.6 C 92 % 1.43 C
2369 07-02-2019 05:20:00 2.6 C 92 % 1.43 C
2370 07-02-2019 05:25:00 2.6 C 91 % 1.28 C
2371 07-02-2019 05:30:00 2.6 C 91 % 1.28 C
2372 07-02-2019 05:35:00 2.7 C 90 % 1.23 C
2373 07-02-2019 05:40:00 2.7 C 90 % 1.23 C
2374 07-02-2019 05:45:00 2.7 C 90 % 1.23 C
2375 07-02-2019 05:50:00 2.8 C 90 % 1.33 C
Sensor: Nr:Datum:Temp:Feuchte:Taupunkt:
Aussen-T/F 2376 07-02-2019 05:55:00 2.8 C 90 % 1.33 C
2377 07-02-2019 06:00:00 2.8 C 90 % 1.33 C
2378 07-02-2019 06:05:00 2.9 C 90 % 1.43 C
2379 07-02-2019 06:10:00 2.9 C 89 % 1.27 C
2380 07-02-2019 06:15:00 2.9 C 89 % 1.27 C
2381 07-02-2019 06:20:00 3 C 88 % 1.21 C
2382 07-02-2019 06:25:00 3 C 88 % 1.21 C
2383 07-02-2019 06:30:00 3 C 88 % 1.21 C
2384 07-02-2019 06:35:00 3.1 C 88 % 1.31 C
2385 07-02-2019 06:40:00 3.1 C 88 % 1.31 C
2386 07-02-2019 06:45:00 3.1 C 88 % 1.31 C
2387 07-02-2019 06:50:00 3.1 C 88 % 1.31 C
2388 07-02-2019 06:55:00 3.2 C 88 % 1.41 C
2389 07-02-2019 07:00:00 3.2 C 89 % 1.57 C
2390 07-02-2019 07:05:00 3.3 C 89 % 1.67 C
2391 07-02-2019 07:10:00 3.3 C 89 % 1.67 C
2392 07-02-2019 07:15:00 3.4 C 89 % 1.76 C
2393 07-02-2019 07:20:00 3.4 C 90 % 1.92 C
2394 07-02-2019 07:25:00 3.4 C 89 % 1.76 C
2395 07-02-2019 07:30:00 3.5 C 90 % 2.02 C
2396 07-02-2019 07:35:00 3.6 C 90 % 2.12 C
2397 07-02-2019 07:40:00 3.7 C 89 % 2.06 C
2398 07-02-2019 07:45:00 3.7 C 89 % 2.06 C
2399 07-02-2019 07:50:00 3.7 C 90 % 2.22 C
2400 07-02-2019 07:55:00 3.8 C 90 % 2.31 C
Sensor: Nr:Datum:Temp:Feuchte:Taupunkt:
Aussen-T/F 2401 07-02-2019 08:00:00 3.8 C 90 % 2.31 C
2402 07-02-2019 08:05:00 3.9 C 91 % 2.57 C
2403 07-02-2019 08:10:00 3.9 C 91 % 2.57 C
2404 07-02-2019 08:15:00 3.9 C 92 % 2.72 C
2405 07-02-2019 08:20:00 3.9 C 92 % 2.72 C
2406 07-02-2019 08:25:00 4 C 93 % 2.97 C
2407 07-02-2019 08:30:00 4 C 93 % 2.97 C
2408 07-02-2019 08:35:00 4.1 C 93 % 3.07 C
2409 07-02-2019 08:40:00 4.1 C 93 % 3.07 C
2410 07-02-2019 08:45:00 4.1 C 93 % 3.07 C
2411 07-02-2019 08:50:00 4.1 C 94 % 3.22 C
2412 07-02-2019 08:55:00 4.1 C 94 % 3.22 C
2413 07-02-2019 09:00:00 4.2 C 94 % 3.32 C
2414 07-02-2019 09:05:00 4.2 C 94 % 3.32 C
2415 07-02-2019 09:10:00 4.3 C 94 % 3.42 C
2416 07-02-2019 09:15:00 4.3 C 94 % 3.42 C
2417 07-02-2019 09:20:00 4.4 C 95 % 3.67 C
2418 07-02-2019 09:25:00 4.5 C 95 % 3.77 C
2419 07-02-2019 09:30:00 4.6 C 95 % 3.87 C
2420 07-02-2019 09:35:00 4.6 C 95 % 3.87 C
2421 07-02-2019 09:40:00 4.7 C 95 % 3.97 C
2422 07-02-2019 09:45:00 4.8 C 95 % 4.07 C
2423 07-02-2019 09:50:00 4.9 C 95 % 4.17 C
2424 07-02-2019 09:55:00 4.9 C 95 % 4.17 C
2425 07-02-2019 10:00:00 4.9 C 95 % 4.17 C
Sensor: Nr:Datum:Temp:Feuchte:Taupunkt:
Aussen-T/F 2426 07-02-2019 10:05:00 5 C 95 % 4.27 C
2427 07-02-2019 10:10:00 5 C 95 % 4.27 C
2428 07-02-2019 10:15:00 5.1 C 95 % 4.37 C
2429 07-02-2019 10:20:00 5.1 C 95 % 4.37 C
2430 07-02-2019 10:25:00 5.2 C 95 % 4.47 C
2431 07-02-2019 10:30:00 5.2 C 95 % 4.47 C
2432 07-02-2019 10:35:00 5.2 C 95 % 4.47 C
2433 07-02-2019 10:40:00 5.3 C 95 % 4.57 C
2434 07-02-2019 10:45:00 5.3 C 95 % 4.57 C
2435 07-02-2019 10:50:00 5.4 C 96 % 4.81 C
2436 07-02-2019 10:55:00 5.4 C 95 % 4.66 C
2437 07-02-2019 11:00:00 5.5 C 96 % 4.91 C
2438 07-02-2019 11:05:00 5.4 C 95 % 4.66 C
2439 07-02-2019 11:10:00 5.5 C 96 % 4.91 C
2440 07-02-2019 11:15:00 5.6 C 95 % 4.86 C
2441 07-02-2019 11:20:00 5.7 C 96 % 5.11 C
2442 07-02-2019 11:25:00 5.7 C 96 % 5.11 C
2443 07-02-2019 11:30:00 5.7 C 96 % 5.11 C
2444 07-02-2019 11:35:00 5.7 C 96 % 5.11 C
2445 07-02-2019 11:40:00 5.7 C 95 % 4.96 C
2446 07-02-2019 11:45:00 5.7 C 95 % 4.96 C
2447 07-02-2019 11:50:00 5.8 C 96 % 5.21 C
2448 07-02-2019 11:55:00 6.1 C 96 % 5.51 C
2449 07-02-2019 12:00:00 6.3 C 96 % 5.71 C
2450 07-02-2019 12:05:00 6.4 C 96 % 5.81 C
Sensor: Nr:Datum:Temp:Feuchte:Taupunkt:
Aussen-T/F 2451 07-02-2019 12:10:00 6.6 C 96 % 6.01 C
2452 07-02-2019 12:15:00 6.7 C 96 % 6.11 C
2453 07-02-2019 12:20:00 6.7 C 95 % 5.96 C
2454 07-02-2019 12:25:00 6.7 C 95 % 5.96 C
2455 07-02-2019 12:30:00 6.8 C 95 % 6.06 C
2456 07-02-2019 12:35:00 6.9 C 95 % 6.16 C
2457 07-02-2019 12:40:00 6.9 C 95 % 6.16 C
2458 07-02-2019 12:45:00 7 C 94 % 6.1 C
2459 07-02-2019 12:50:00 7.1 C 94 % 6.2 C
2460 07-02-2019 12:55:00 7.2 C 94 % 6.3 C
2461 07-02-2019 13:00:00 7.3 C 93 % 6.25 C
2462 07-02-2019 13:05:00 7.3 C 93 % 6.25 C
2463 07-02-2019 13:10:00 7.4 C 93 % 6.34 C
2464 07-02-2019 13:15:00 7.5 C 92 % 6.29 C
2465 07-02-2019 13:20:00 7.6 C 91 % 6.23 C
2466 07-02-2019 13:25:00 7.6 C 91 % 6.23 C
2467 07-02-2019 13:30:00 7.6 C 90 % 6.07 C
2468 07-02-2019 13:35:00 7.6 C 90 % 6.07 C
2469 07-02-2019 13:40:00 7.6 C 90 % 6.07 C
2470 07-02-2019 13:45:00 7.6 C 90 % 6.07 C
2471 07-02-2019 13:50:00 7.7 C 89 % 6 C
2472 07-02-2019 13:55:00 7.7 C 89 % 6 C
2473 07-02-2019 14:00:00 7.8 C 89 % 6.1 C
2474 07-02-2019 14:05:00 7.8 C 88 % 5.94 C
2475 07-02-2019 14:10:00 7.8 C 87 % 5.78 C
Sensor: Nr:Datum:Temp:Feuchte:Taupunkt:
Aussen-T/F 2476 07-02-2019 14:15:00 7.9 C 87 % 5.87 C
2477 07-02-2019 14:20:00 8 C 86 % 5.81 C
2478 07-02-2019 14:25:00 8.1 C 85 % 5.73 C
2479 07-02-2019 14:30:00 8.1 C 84 % 5.56 C
2480 07-02-2019 14:35:00 8.2 C 84 % 5.66 C
2481 07-02-2019 14:40:00 8.3 C 84 % 5.76 C
2482 07-02-2019 14:45:00 8.3 C 84 % 5.76 C
2483 07-02-2019 14:50:00 8.4 C 82 % 5.51 C
2484 07-02-2019 14:55:00 8.4 C 82 % 5.51 C
2485 07-02-2019 15:00:00 8.4 C 82 % 5.51 C
2486 07-02-2019 15:05:00 8.5 C 82 % 5.61 C
2487 07-02-2019 15:10:00 8.5 C 81 % 5.43 C
2488 07-02-2019 15:15:00 8.5 C 81 % 5.43 C
2489 07-02-2019 15:20:00 8.5 C 81 % 5.43 C
2490 07-02-2019 15:25:00 8.4 C 81 % 5.33 C
2491 07-02-2019 15:30:00 8.5 C 81 % 5.43 C
2492 07-02-2019 15:35:00 8.5 C 81 % 5.43 C
2493 07-02-2019 15:40:00 8.6 C 81 % 5.53 C
2494 07-02-2019 15:45:00 8.7 C 80 % 5.45 C
2495 07-02-2019 15:50:00 8.7 C 80 % 5.45 C
2496 07-02-2019 15:55:00 8.6 C 79 % 5.17 C
2497 07-02-2019 16:00:00 8.6 C 80 % 5.35 C
2498 07-02-2019 16:05:00 8.6 C 80 % 5.35 C
2499 07-02-2019 16:10:00 8.6 C 80 % 5.35 C
2500 07-02-2019 16:15:00 8.6 C 80 % 5.35 C
Sensor: Nr:Datum:Temp:Feuchte:Taupunkt:
Aussen-T/F 2501 07-02-2019 16:20:00 8.7 C 79 % 5.27 C
2502 07-02-2019 16:25:00 8.7 C 78 % 5.08 C
2503 07-02-2019 16:30:00 8.7 C 79 % 5.27 C
2504 07-02-2019 16:35:00 8.7 C 79 % 5.27 C
2505 07-02-2019 16:40:00 8.7 C 79 % 5.27 C
2506 07-02-2019 16:45:00 8.5 C 79 % 5.07 C
2507 07-02-2019 16:50:00 8.4 C 79 % 4.98 C
2508 07-02-2019 16:55:00 8.3 C 79 % 4.88 C
2509 07-02-2019 17:00:00 8.1 C 79 % 4.68 C
2510 07-02-2019 17:05:00 8.1 C 80 % 4.86 C
2511 07-02-2019 17:10:00 7.9 C 80 % 4.67 C
2512 07-02-2019 17:15:00 7.8 C 80 % 4.57 C
2513 07-02-2019 17:20:00 7.5 C 81 % 4.46 C
2514 07-02-2019 17:25:00 7.4 C 82 % 4.53 C
2515 07-02-2019 17:30:00 7.3 C 83 % 4.61 C
2516 07-02-2019 17:35:00 7.3 C 83 % 4.61 C
2517 07-02-2019 17:40:00 7.2 C 84 % 4.68 C
2518 07-02-2019 17:45:00 7.2 C 84 % 4.68 C
2519 07-02-2019 17:50:00 7.2 C 84 % 4.68 C
2520 07-02-2019 17:55:00 7.2 C 85 % 4.85 C
2521 07-02-2019 18:00:00 7.1 C 84 % 4.58 C
2522 07-02-2019 18:05:00 7.1 C 84 % 4.58 C
2523 07-02-2019 18:10:00 7 C 84 % 4.49 C
2524 07-02-2019 18:15:00 6.9 C 84 % 4.39 C
2525 07-02-2019 18:20:00 6.7 C 83 % 4.02 C
Sensor: Nr:Datum:Temp:Feuchte:Taupunkt:
Aussen-T/F 2526 07-02-2019 18:25:00 6.6 C 84 % 4.1 C
2527 07-02-2019 18:30:00 6.5 C 84 % 4 C
2528 07-02-2019 18:35:00 6.4 C 84 % 3.9 C
2529 07-02-2019 18:40:00 6.3 C 84 % 3.8 C
2530 07-02-2019 18:45:00 6.2 C 84 % 3.7 C
2531 07-02-2019 18:50:00 6.2 C 84 % 3.7 C
2532 07-02-2019 18:55:00 6.2 C 83 % 3.53 C
2533 07-02-2019 19:00:00 6.4 C 82 % 3.56 C
2534 07-02-2019 19:05:00 6.7 C 81 % 3.68 C
2535 07-02-2019 19:10:00 6.8 C 81 % 3.77 C
2536 07-02-2019 19:15:00 6.8 C 81 % 3.77 C
2537 07-02-2019 19:20:00 6.7 C 80 % 3.5 C
2538 07-02-2019 19:25:00 6.7 C 81 % 3.68 C
2539 07-02-2019 19:30:00 6.6 C 81 % 3.58 C
2540 07-02-2019 19:35:00 6.6 C 81 % 3.58 C
2541 07-02-2019 19:40:00 6.7 C 81 % 3.68 C
2542 07-02-2019 19:45:00 6.7 C 81 % 3.68 C
2543 07-02-2019 19:50:00 6.6 C 81 % 3.58 C
2544 07-02-2019 19:55:00 6.5 C 82 % 3.66 C
2545 07-02-2019 20:00:00 6.4 C 83 % 3.73 C
2546 07-02-2019 20:05:00 6.4 C 83 % 3.73 C
2547 07-02-2019 20:10:00 6.4 C 83 % 3.73 C
2548 07-02-2019 20:15:00 6.4 C 83 % 3.73 C
2549 07-02-2019 20:20:00 6.3 C 82 % 3.46 C
2550 07-02-2019 20:25:00 6.3 C 83 % 3.63 C
Sensor: Nr:Datum:Temp:Feuchte:Taupunkt:
Aussen-T/F 2551 07-02-2019 20:30:00 6.2 C 83 % 3.53 C
2552 07-02-2019 20:35:00 6.2 C 83 % 3.53 C
2553 07-02-2019 20:40:00 6.2 C 83 % 3.53 C
2554 07-02-2019 20:45:00 6.2 C 83 % 3.53 C
2555 07-02-2019 20:50:00 6.2 C 84 % 3.7 C
2556 07-02-2019 20:55:00 6.2 C 84 % 3.7 C
2557 07-02-2019 21:00:00 6.2 C 84 % 3.7 C
2558 07-02-2019 21:05:00 6.3 C 84 % 3.8 C
2559 07-02-2019 21:10:00 6.5 C 84 % 4 C
2560 07-02-2019 21:15:00 6.7 C 83 % 4.02 C
2561 07-02-2019 21:20:00 6.9 C 83 % 4.22 C
2562 07-02-2019 21:25:00 7.2 C 82 % 4.34 C
2563 07-02-2019 21:30:00 7.3 C 81 % 4.26 C
2564 07-02-2019 21:35:00 7.3 C 81 % 4.26 C
2565 07-02-2019 21:40:00 7.2 C 81 % 4.16 C
2566 07-02-2019 21:45:00 7.1 C 81 % 4.07 C
2567 07-02-2019 21:50:00 7.1 C 81 % 4.07 C
2568 07-02-2019 21:55:00 7 C 81 % 3.97 C
2569 07-02-2019 22:00:00 6.9 C 81 % 3.87 C
2570 07-02-2019 22:05:00 6.8 C 81 % 3.77 C
2571 07-02-2019 22:10:00 6.7 C 81 % 3.68 C
2572 07-02-2019 22:15:00 6.6 C 81 % 3.58 C
2573 07-02-2019 22:20:00 6.5 C 81 % 3.48 C
2574 07-02-2019 22:25:00 6.4 C 81 % 3.38 C
2575 07-02-2019 22:30:00 6.3 C 82 % 3.46 C
Sensor: Nr:Datum:Temp:Feuchte:Taupunkt:
Aussen-T/F 2576 07-02-2019 22:35:00 6.3 C 83 % 3.63 C
2577 07-02-2019 22:40:00 6.2 C 83 % 3.53 C
2578 07-02-2019 22:45:00 6.2 C 84 % 3.7 C
2579 07-02-2019 22:50:00 6.2 C 84 % 3.7 C
2580 07-02-2019 22:55:00 6.2 C 84 % 3.7 C
2581 07-02-2019 23:00:00 6.2 C 84 % 3.7 C
2582 07-02-2019 23:05:00 6.3 C 84 % 3.8 C
2583 07-02-2019 23:10:00 6.4 C 84 % 3.9 C
2584 07-02-2019 23:15:00 6.3 C 84 % 3.8 C
2585 07-02-2019 23:20:00 6.3 C 84 % 3.8 C
2586 07-02-2019 23:25:00 6.3 C 84 % 3.8 C
2587 07-02-2019 23:30:00 6.3 C 85 % 3.97 C
2588 07-02-2019 23:35:00 6.2 C 84 % 3.7 C
2589 07-02-2019 23:40:00 6.1 C 85 % 3.77 C
2590 07-02-2019 23:45:00 6.1 C 85 % 3.77 C
2591 07-02-2019 23:50:00 6 C 85 % 3.67 C
2592 07-02-2019 23:55:00 5.9 C 85 % 3.58 C
2593 08-02-2019 00:00:00 5.8 C 85 % 3.48 C
2594 08-02-2019 00:05:00 5.7 C 86 % 3.55 C
2595 08-02-2019 00:10:00 5.6 C 86 % 3.45 C
2596 08-02-2019 00:15:00 5.4 C 86 % 3.25 C
2597 08-02-2019 00:20:00 5.3 C 87 % 3.32 C
2598 08-02-2019 00:25:00 5.3 C 88 % 3.48 C
2599 08-02-2019 00:30:00 5.4 C 89 % 3.74 C
2600 08-02-2019 00:35:00 5.4 C 89 % 3.74 C
Sensor: Nr:Datum:Temp:Feuchte:Taupunkt:
Aussen-T/F 2601 08-02-2019 00:40:00 5.5 C 88 % 3.67 C
2602 08-02-2019 00:45:00 5.6 C 88 % 3.77 C
2603 08-02-2019 00:50:00 5.6 C 88 % 3.77 C
2604 08-02-2019 00:55:00 5.7 C 88 % 3.87 C
2605 08-02-2019 01:00:00 5.9 C 88 % 4.07 C
2606 08-02-2019 01:05:00 6 C 87 % 4 C
2607 08-02-2019 01:10:00 6.1 C 86 % 3.94 C
2608 08-02-2019 01:15:00 6.2 C 86 % 4.04 C
2609 08-02-2019 01:20:00 6.1 C 85 % 3.77 C
2610 08-02-2019 01:25:00 5.9 C 85 % 3.58 C
2611 08-02-2019 01:30:00 5.8 C 86 % 3.64 C
2612 08-02-2019 01:35:00 5.7 C 86 % 3.55 C
2613 08-02-2019 01:40:00 5.7 C 87 % 3.71 C
2614 08-02-2019 01:45:00 5.8 C 87 % 3.81 C
2615 08-02-2019 01:50:00 5.8 C 87 % 3.81 C
2616 08-02-2019 01:55:00 5.7 C 87 % 3.71 C
2617 08-02-2019 02:00:00 5.7 C 87 % 3.71 C
2618 08-02-2019 02:05:00 5.7 C 87 % 3.71 C
2619 08-02-2019 02:10:00 5.7 C 87 % 3.71 C
2620 08-02-2019 02:15:00 5.8 C 87 % 3.81 C
2621 08-02-2019 02:20:00 5.8 C 87 % 3.81 C
2622 08-02-2019 02:25:00 5.9 C 87 % 3.91 C
2623 08-02-2019 02:30:00 5.9 C 87 % 3.91 C
2624 08-02-2019 02:35:00 5.9 C 87 % 3.91 C
2625 08-02-2019 02:40:00 5.9 C 87 % 3.91 C
Sensor: Nr:Datum:Temp:Feuchte:Taupunkt:
Aussen-T/F 2626 08-02-2019 02:45:00 5.8 C 86 % 3.64 C
2627 08-02-2019 02:50:00 5.8 C 86 % 3.64 C
2628 08-02-2019 02:55:00 5.7 C 87 % 3.71 C
2629 08-02-2019 03:00:00 5.6 C 87 % 3.61 C
2630 08-02-2019 03:05:00 5.6 C 88 % 3.77 C
2631 08-02-2019 03:10:00 5.7 C 88 % 3.87 C
2632 08-02-2019 03:15:00 5.7 C 88 % 3.87 C
2633 08-02-2019 03:20:00 5.8 C 88 % 3.97 C
2634 08-02-2019 03:25:00 5.8 C 88 % 3.97 C
2635 08-02-2019 03:30:00 5.8 C 87 % 3.81 C
2636 08-02-2019 03:35:00 5.8 C 87 % 3.81 C
2637 08-02-2019 03:40:00 5.8 C 87 % 3.81 C
2638 08-02-2019 03:45:00 5.8 C 87 % 3.81 C
2639 08-02-2019 03:50:00 5.8 C 88 % 3.97 C
2640 08-02-2019 03:55:00 5.8 C 88 % 3.97 C
2641 08-02-2019 04:00:00 5.9 C 88 % 4.07 C
2642 08-02-2019 04:05:00 6.1 C 87 % 4.1 C
2643 08-02-2019 04:10:00 6.2 C 87 % 4.2 C
2644 08-02-2019 04:15:00 6.3 C 86 % 4.14 C
2645 08-02-2019 04:20:00 6.3 C 86 % 4.14 C
2646 08-02-2019 04:25:00 6.3 C 86 % 4.14 C
2647 08-02-2019 04:30:00 6.3 C 86 % 4.14 C
2648 08-02-2019 04:35:00 6.4 C 86 % 4.23 C
2649 08-02-2019 04:40:00 6.4 C 86 % 4.23 C
2650 08-02-2019 04:45:00 6.4 C 86 % 4.23 C
Sensor: Nr:Datum:Temp:Feuchte:Taupunkt:
Aussen-T/F 2651 08-02-2019 04:50:00 6.4 C 86 % 4.23 C
2652 08-02-2019 04:55:00 6.4 C 86 % 4.23 C
2653 08-02-2019 05:00:00 6.3 C 86 % 4.14 C
2654 08-02-2019 05:05:00 6.3 C 86 % 4.14 C
2655 08-02-2019 05:10:00 6.3 C 86 % 4.14 C
2656 08-02-2019 05:15:00 6.3 C 86 % 4.14 C
2657 08-02-2019 05:20:00 6.3 C 86 % 4.14 C
2658 08-02-2019 05:25:00 6.4 C 87 % 4.4 C
2659 08-02-2019 05:30:00 6.4 C 86 % 4.23 C
2660 08-02-2019 05:35:00 6.4 C 86 % 4.23 C
2661 08-02-2019 05:40:00 6.5 C 86 % 4.33 C
2662 08-02-2019 05:45:00 6.5 C 86 % 4.33 C
2663 08-02-2019 05:50:00 6.5 C 86 % 4.33 C
2664 08-02-2019 05:55:00 6.6 C 86 % 4.43 C
2665 08-02-2019 06:00:00 6.5 C 86 % 4.33 C
2666 08-02-2019 06:05:00 6.4 C 86 % 4.23 C
2667 08-02-2019 06:10:00 6.3 C 86 % 4.14 C
2668 08-02-2019 06:15:00 6.3 C 86 % 4.14 C
2669 08-02-2019 06:20:00 6.3 C 87 % 4.3 C
2670 08-02-2019 06:25:00 6.3 C 87 % 4.3 C
2671 08-02-2019 06:30:00 6.3 C 87 % 4.3 C
2672 08-02-2019 06:35:00 6.3 C 87 % 4.3 C
2673 08-02-2019 06:40:00 6.3 C 87 % 4.3 C
2674 08-02-2019 06:45:00 6.3 C 87 % 4.3 C
2675 08-02-2019 06:50:00 6.3 C 87 % 4.3 C
Sensor: Nr:Datum:Temp:Feuchte:Taupunkt:
Aussen-T/F 2676 08-02-2019 06:55:00 6.3 C 87 % 4.3 C
2677 08-02-2019 07:00:00 6.3 C 87 % 4.3 C
2678 08-02-2019 07:05:00 6.3 C 87 % 4.3 C
2679 08-02-2019 07:10:00 6.3 C 87 % 4.3 C
2680 08-02-2019 07:15:00 6.3 C 87 % 4.3 C
2681 08-02-2019 07:20:00 6.3 C 87 % 4.3 C
2682 08-02-2019 07:25:00 6.3 C 87 % 4.3 C
2683 08-02-2019 07:30:00 6.3 C 87 % 4.3 C
2684 08-02-2019 07:35:00 6.4 C 87 % 4.4 C
2685 08-02-2019 07:40:00 6.4 C 87 % 4.4 C
2686 08-02-2019 07:45:00 6.5 C 86 % 4.33 C
2687 08-02-2019 07:50:00 6.6 C 86 % 4.43 C
2688 08-02-2019 07:55:00 6.6 C 86 % 4.43 C
2689 08-02-2019 08:00:00 6.6 C 86 % 4.43 C
2690 08-02-2019 08:05:00 6.6 C 86 % 4.43 C
2691 08-02-2019 08:10:00 6.6 C 86 % 4.43 C
2692 08-02-2019 08:15:00 6.6 C 86 % 4.43 C
2693 08-02-2019 08:20:00 6.6 C 86 % 4.43 C
2694 08-02-2019 08:25:00 6.7 C 86 % 4.53 C
2695 08-02-2019 08:30:00 6.7 C 86 % 4.53 C
2696 08-02-2019 08:35:00 6.7 C 86 % 4.53 C
2697 08-02-2019 08:40:00 6.7 C 86 % 4.53 C
2698 08-02-2019 08:45:00 6.7 C 86 % 4.53 C
2699 08-02-2019 08:50:00 6.8 C 86 % 4.63 C
2700 08-02-2019 08:55:00 6.8 C 86 % 4.63 C
Sensor: Nr:Datum:Temp:Feuchte:Taupunkt:
Aussen-T/F 2701 08-02-2019 09:00:00 6.8 C 86 % 4.63 C
2702 08-02-2019 09:05:00 6.9 C 86 % 4.72 C
2703 08-02-2019 09:10:00 6.9 C 86 % 4.72 C
2704 08-02-2019 09:15:00 6.9 C 86 % 4.72 C
2705 08-02-2019 09:20:00 7 C 86 % 4.82 C
2706 08-02-2019 09:25:00 7.1 C 86 % 4.92 C
2707 08-02-2019 09:30:00 7.1 C 86 % 4.92 C
2708 08-02-2019 09:35:00 7.1 C 85 % 4.75 C
2709 08-02-2019 09:40:00 7.2 C 85 % 4.85 C
2710 08-02-2019 09:45:00 7.2 C 85 % 4.85 C
2711 08-02-2019 09:50:00 7.2 C 85 % 4.85 C
2712 08-02-2019 09:55:00 7.2 C 85 % 4.85 C
2713 08-02-2019 10:00:00 7.2 C 85 % 4.85 C
2714 08-02-2019 10:05:00 7.3 C 85 % 4.95 C
2715 08-02-2019 10:10:00 7.3 C 85 % 4.95 C
2716 08-02-2019 10:15:00 7.3 C 85 % 4.95 C
2717 08-02-2019 10:20:00 7.3 C 85 % 4.95 C
2718 08-02-2019 10:25:00 7.3 C 85 % 4.95 C
2719 08-02-2019 10:30:00 7.4 C 86 % 5.22 C
2720 08-02-2019 10:35:00 7.4 C 85 % 5.05 C
2721 08-02-2019 10:40:00 7.5 C 85 % 5.15 C
2722 08-02-2019 10:45:00 7.6 C 85 % 5.24 C
2723 08-02-2019 10:50:00 7.7 C 85 % 5.34 C
2724 08-02-2019 10:55:00 7.8 C 85 % 5.44 C
2725 08-02-2019 11:00:00 7.9 C 84 % 5.37 C
Sensor: Nr:Datum:Temp:Feuchte:Taupunkt:
Aussen-T/F 2726 08-02-2019 11:05:00 8 C 84 % 5.47 C
2727 08-02-2019 11:10:00 8.1 C 84 % 5.56 C
2728 08-02-2019 11:15:00 8.3 C 83 % 5.59 C
2729 08-02-2019 11:20:00 8.3 C 83 % 5.59 C
2730 08-02-2019 11:25:00 8.5 C 83 % 5.78 C
2731 08-02-2019 11:30:00 8.6 C 82 % 5.71 C
2732 08-02-2019 11:35:00 8.7 C 82 % 5.8 C
2733 08-02-2019 11:40:00 8.7 C 81 % 5.63 C
2734 08-02-2019 11:45:00 8.7 C 81 % 5.63 C
2735 08-02-2019 11:50:00 8.8 C 81 % 5.72 C
2736 08-02-2019 11:55:00 8.8 C 81 % 5.72 C
2737 08-02-2019 12:00:00 8.9 C 82 % 6 C
2738 08-02-2019 12:05:00 9.1 C 80 % 5.84 C
2739 08-02-2019 12:10:00 9.2 C 80 % 5.94 C
2740 08-02-2019 12:15:00 9.3 C 80 % 6.03 C
2741 08-02-2019 12:20:00 9.4 C 80 % 6.13 C
2742 08-02-2019 12:25:00 9.4 C 79 % 5.95 C
2743 08-02-2019 12:30:00 9.6 C 79 % 6.14 C
2744 08-02-2019 12:35:00 9.6 C 79 % 6.14 C
2745 08-02-2019 12:40:00 9.7 C 79 % 6.24 C
2746 08-02-2019 12:45:00 9.7 C 79 % 6.24 C
2747 08-02-2019 12:50:00 9.7 C 78 % 6.06 C
2748 08-02-2019 12:55:00 9.7 C 79 % 6.24 C
2749 08-02-2019 13:00:00 9.7 C 78 % 6.06 C
2750 08-02-2019 13:05:00 9.7 C 79 % 6.24 C
Sensor: Nr:Datum:Temp:Feuchte:Taupunkt:
Aussen-T/F 2751 08-02-2019 13:10:00 9.6 C 79 % 6.14 C
2752 08-02-2019 13:15:00 9.5 C 78 % 5.86 C
2753 08-02-2019 13:20:00 9.4 C 79 % 5.95 C
2754 08-02-2019 13:25:00 9.3 C 79 % 5.85 C
2755 08-02-2019 13:30:00 9.2 C 80 % 5.94 C
2756 08-02-2019 13:35:00 9.1 C 80 % 5.84 C
2757 08-02-2019 13:40:00 8.9 C 80 % 5.64 C
2758 08-02-2019 13:45:00 8.8 C 81 % 5.72 C
2759 08-02-2019 13:50:00 8.7 C 81 % 5.63 C
2760 08-02-2019 13:55:00 8.7 C 81 % 5.63 C
2761 08-02-2019 14:00:00 8.6 C 81 % 5.53 C
2762 08-02-2019 14:05:00 8.5 C 81 % 5.43 C
2763 08-02-2019 14:10:00 8.4 C 81 % 5.33 C
2764 08-02-2019 14:15:00 8.4 C 82 % 5.51 C
2765 08-02-2019 14:20:00 8.4 C 82 % 5.51 C
2766 08-02-2019 14:25:00 8.4 C 82 % 5.51 C
2767 08-02-2019 14:30:00 8.4 C 82 % 5.51 C
2768 08-02-2019 14:35:00 8.4 C 82 % 5.51 C
2769 08-02-2019 14:40:00 8.4 C 82 % 5.51 C
2770 08-02-2019 14:45:00 8.4 C 82 % 5.51 C
2771 08-02-2019 14:50:00 8.3 C 82 % 5.41 C
2772 08-02-2019 14:55:00 8.3 C 82 % 5.41 C
2773 08-02-2019 15:00:00 8.3 C 83 % 5.59 C
2774 08-02-2019 15:05:00 8.3 C 82 % 5.41 C
2775 08-02-2019 15:10:00 8.3 C 82 % 5.41 C
Sensor: Nr:Datum:Temp:Feuchte:Taupunkt:
Aussen-T/F 2776 08-02-2019 15:15:00 8.3 C 82 % 5.41 C
2777 08-02-2019 15:20:00 8.3 C 82 % 5.41 C
2778 08-02-2019 15:25:00 8.3 C 83 % 5.59 C
2779 08-02-2019 15:30:00 8.2 C 83 % 5.49 C
2780 08-02-2019 15:35:00 8.2 C 83 % 5.49 C
2781 08-02-2019 15:40:00 8.2 C 83 % 5.49 C
2782 08-02-2019 15:45:00 8.2 C 83 % 5.49 C
2783 08-02-2019 15:50:00 8.2 C 83 % 5.49 C
2784 08-02-2019 15:55:00 8.2 C 83 % 5.49 C
2785 08-02-2019 16:00:00 8.2 C 83 % 5.49 C
2786 08-02-2019 16:05:00 8.2 C 83 % 5.49 C
2787 08-02-2019 16:10:00 8.3 C 83 % 5.59 C
2788 08-02-2019 16:15:00 8.3 C 83 % 5.59 C
2789 08-02-2019 16:20:00 8.3 C 82 % 5.41 C
2790 08-02-2019 16:25:00 8.3 C 82 % 5.41 C
2791 08-02-2019 16:30:00 8.3 C 83 % 5.59 C
2792 08-02-2019 16:35:00 8.3 C 83 % 5.59 C
2793 08-02-2019 16:40:00 8.3 C 83 % 5.59 C
2794 08-02-2019 16:45:00 8.3 C 83 % 5.59 C
2795 08-02-2019 16:50:00 8.3 C 83 % 5.59 C
2796 08-02-2019 16:55:00 8.3 C 82 % 5.41 C
2797 08-02-2019 17:00:00 8.3 C 82 % 5.41 C
2798 08-02-2019 17:05:00 8.3 C 82 % 5.41 C
2799 08-02-2019 17:10:00 8.3 C 82 % 5.41 C
2800 08-02-2019 17:15:00 8.3 C 82 % 5.41 C
Sensor: Nr:Datum:Temp:Feuchte:Taupunkt:
Aussen-T/F 2801 08-02-2019 17:20:00 8.3 C 82 % 5.41 C
2802 08-02-2019 17:25:00 8.2 C 82 % 5.32 C
2803 08-02-2019 17:30:00 8.2 C 82 % 5.32 C
2804 08-02-2019 17:35:00 8.2 C 82 % 5.32 C
2805 08-02-2019 17:40:00 8.2 C 82 % 5.32 C
2806 08-02-2019 17:45:00 8.1 C 82 % 5.22 C
2807 08-02-2019 17:50:00 8.1 C 82 % 5.22 C
2808 08-02-2019 17:55:00 8.1 C 82 % 5.22 C
2809 08-02-2019 18:00:00 8 C 83 % 5.29 C
2810 08-02-2019 18:05:00 8 C 83 % 5.29 C
2811 08-02-2019 18:10:00 7.9 C 83 % 5.2 C
2812 08-02-2019 18:15:00 7.9 C 83 % 5.2 C
2813 08-02-2019 18:20:00 8 C 83 % 5.29 C
2814 08-02-2019 18:25:00 8 C 83 % 5.29 C
2815 08-02-2019 18:30:00 8.1 C 82 % 5.22 C
2816 08-02-2019 18:35:00 8.1 C 82 % 5.22 C
2817 08-02-2019 18:40:00 8.2 C 82 % 5.32 C
2818 08-02-2019 18:45:00 8.2 C 81 % 5.14 C
2819 08-02-2019 18:50:00 8.2 C 81 % 5.14 C
2820 08-02-2019 18:55:00 8.2 C 82 % 5.32 C
2821 08-02-2019 19:00:00 8.2 C 81 % 5.14 C
2822 08-02-2019 19:05:00 8.2 C 81 % 5.14 C
2823 08-02-2019 19:10:00 8.2 C 81 % 5.14 C
2824 08-02-2019 19:15:00 8.2 C 81 % 5.14 C
2825 08-02-2019 19:20:00 8.2 C 81 % 5.14 C
Sensor: Nr:Datum:Temp:Feuchte:Taupunkt:
Aussen-T/F 2826 08-02-2019 19:25:00 8.2 C 81 % 5.14 C
2827 08-02-2019 19:30:00 8.2 C 81 % 5.14 C
2828 08-02-2019 19:35:00 8.2 C 81 % 5.14 C
2829 08-02-2019 19:40:00 8.2 C 81 % 5.14 C
2830 08-02-2019 19:45:00 8.2 C 81 % 5.14 C
2831 08-02-2019 19:50:00 8.3 C 81 % 5.24 C
2832 08-02-2019 19:55:00 8.3 C 81 % 5.24 C
2833 08-02-2019 20:00:00 8.3 C 81 % 5.24 C
2834 08-02-2019 20:05:00 8.3 C 81 % 5.24 C
2835 08-02-2019 20:10:00 8.3 C 80 % 5.06 C
2836 08-02-2019 20:15:00 8.3 C 81 % 5.24 C
2837 08-02-2019 20:20:00 8.2 C 80 % 4.96 C
2838 08-02-2019 20:25:00 8.2 C 80 % 4.96 C
2839 08-02-2019 20:30:00 8.3 C 80 % 5.06 C
2840 08-02-2019 20:35:00 8.2 C 80 % 4.96 C
2841 08-02-2019 20:40:00 8.2 C 80 % 4.96 C
2842 08-02-2019 20:45:00 8.2 C 80 % 4.96 C
2843 08-02-2019 20:50:00 8.2 C 80 % 4.96 C
2844 08-02-2019 20:55:00 8.1 C 81 % 5.04 C
2845 08-02-2019 21:00:00 8.1 C 80 % 4.86 C
2846 08-02-2019 21:05:00 8.2 C 80 % 4.96 C
2847 08-02-2019 21:10:00 8.2 C 80 % 4.96 C
2848 08-02-2019 21:15:00 8.1 C 80 % 4.86 C
2849 08-02-2019 21:20:00 8.1 C 80 % 4.86 C
2850 08-02-2019 21:25:00 8.1 C 80 % 4.86 C
Sensor: Nr:Datum:Temp:Feuchte:Taupunkt:
Aussen-T/F 2851 08-02-2019 21:30:00 8.1 C 81 % 5.04 C
2852 08-02-2019 21:35:00 8.1 C 80 % 4.86 C
2853 08-02-2019 21:40:00 8.1 C 80 % 4.86 C
2854 08-02-2019 21:45:00 8 C 80 % 4.77 C
2855 08-02-2019 21:50:00 7.9 C 80 % 4.67 C
2856 08-02-2019 21:55:00 7.9 C 80 % 4.67 C
2857 08-02-2019 22:00:00 7.9 C 80 % 4.67 C
2858 08-02-2019 22:05:00 7.8 C 80 % 4.57 C
2859 08-02-2019 22:10:00 7.8 C 81 % 4.75 C
2860 08-02-2019 22:15:00 7.7 C 81 % 4.65 C
2861 08-02-2019 22:20:00 7.6 C 81 % 4.55 C
2862 08-02-2019 22:25:00 7.7 C 81 % 4.65 C
2863 08-02-2019 22:30:00 7.7 C 81 % 4.65 C
2864 08-02-2019 22:35:00 7.8 C 81 % 4.75 C
2865 08-02-2019 22:40:00 7.8 C 81 % 4.75 C
2866 08-02-2019 22:45:00 7.7 C 81 % 4.65 C
2867 08-02-2019 22:50:00 7.8 C 80 % 4.57 C
2868 08-02-2019 22:55:00 7.8 C 80 % 4.57 C
2869 08-02-2019 23:00:00 7.9 C 80 % 4.67 C
2870 08-02-2019 23:05:00 7.9 C 80 % 4.67 C
2871 08-02-2019 23:10:00 8.1 C 80 % 4.86 C
2872 08-02-2019 23:15:00 8.1 C 79 % 4.68 C
2873 08-02-2019 23:20:00 8.1 C 79 % 4.68 C
2874 08-02-2019 23:25:00 8.1 C 79 % 4.68 C
2875 08-02-2019 23:30:00 8.1 C 79 % 4.68 C
Sensor: Nr:Datum:Temp:Feuchte:Taupunkt:
Aussen-T/F 2876 08-02-2019 23:35:00 8.1 C 80 % 4.86 C
2877 08-02-2019 23:40:00 8.1 C 79 % 4.68 C
2878 08-02-2019 23:45:00 8.2 C 79 % 4.78 C
2879 08-02-2019 23:50:00 8.2 C 79 % 4.78 C
2880 08-02-2019 23:55:00 8.3 C 78 % 4.7 C
2881 09-02-2019 00:00:00 8.3 C 79 % 4.88 C
2882 09-02-2019 00:05:00 8.2 C 78 % 4.6 C
2883 09-02-2019 00:10:00 8.2 C 79 % 4.78 C
2884 09-02-2019 00:15:00 8.2 C 79 % 4.78 C
2885 09-02-2019 00:20:00 8.2 C 78 % 4.6 C
2886 09-02-2019 00:25:00 8.3 C 78 % 4.7 C
2887 09-02-2019 00:30:00 8.3 C 78 % 4.7 C
2888 09-02-2019 00:35:00 8.4 C 78 % 4.79 C
2889 09-02-2019 00:40:00 8.4 C 77 % 4.61 C
2890 09-02-2019 00:45:00 8.4 C 77 % 4.61 C
2891 09-02-2019 00:50:00 8.3 C 77 % 4.51 C
2892 09-02-2019 00:55:00 8.3 C 77 % 4.51 C
2893 09-02-2019 01:00:00 8.3 C 78 % 4.7 C
2894 09-02-2019 01:05:00 8.3 C 78 % 4.7 C
2895 09-02-2019 01:10:00 8.2 C 79 % 4.78 C
2896 09-02-2019 01:15:00 8.1 C 82 % 5.22 C
2897 09-02-2019 01:20:00 7.9 C 81 % 4.85 C
2898 09-02-2019 01:25:00 7.8 C 81 % 4.75 C
2899 09-02-2019 01:30:00 7.7 C 82 % 4.83 C
2900 09-02-2019 01:35:00 7.6 C 82 % 4.73 C
Sensor: Nr:Datum:Temp:Feuchte:Taupunkt:
Aussen-T/F 2901 09-02-2019 01:40:00 7.5 C 83 % 4.81 C
2902 09-02-2019 01:45:00 7.4 C 83 % 4.71 C
2903 09-02-2019 01:50:00 7.4 C 84 % 4.88 C
2904 09-02-2019 01:55:00 7.3 C 84 % 4.78 C
2905 09-02-2019 02:00:00 7.3 C 85 % 4.95 C
2906 09-02-2019 02:05:00 7.3 C 85 % 4.95 C
2907 09-02-2019 02:10:00 7.3 C 86 % 5.12 C
2908 09-02-2019 02:15:00 7.3 C 86 % 5.12 C
2909 09-02-2019 02:20:00 7.4 C 86 % 5.22 C
2910 09-02-2019 02:25:00 7.4 C 86 % 5.22 C
2911 09-02-2019 02:30:00 7.5 C 86 % 5.31 C
2912 09-02-2019 02:35:00 7.6 C 86 % 5.41 C
2913 09-02-2019 02:40:00 7.6 C 85 % 5.24 C
2914 09-02-2019 02:45:00 7.6 C 85 % 5.24 C
2915 09-02-2019 02:50:00 7.7 C 85 % 5.34 C
2916 09-02-2019 02:55:00 7.7 C 85 % 5.34 C
2917 09-02-2019 03:00:00 7.7 C 85 % 5.34 C
2918 09-02-2019 03:05:00 7.8 C 85 % 5.44 C
2919 09-02-2019 03:10:00 7.8 C 85 % 5.44 C
2920 09-02-2019 03:15:00 7.9 C 85 % 5.54 C
2921 09-02-2019 03:20:00 8 C 84 % 5.47 C
2922 09-02-2019 03:25:00 8.1 C 84 % 5.56 C
2923 09-02-2019 03:30:00 8.1 C 84 % 5.56 C
2924 09-02-2019 03:35:00 8.2 C 84 % 5.66 C
2925 09-02-2019 03:40:00 8.3 C 84 % 5.76 C
Sensor: Nr:Datum:Temp:Feuchte:Taupunkt:
Aussen-T/F 2926 09-02-2019 03:45:00 8.3 C 84 % 5.76 C
2927 09-02-2019 03:50:00 8.3 C 84 % 5.76 C
2928 09-02-2019 03:55:00 8.4 C 83 % 5.69 C
2929 09-02-2019 04:00:00 8.6 C 83 % 5.88 C
2930 09-02-2019 04:05:00 8.7 C 82 % 5.8 C
2931 09-02-2019 04:10:00 8.8 C 81 % 5.72 C
2932 09-02-2019 04:15:00 8.9 C 81 % 5.82 C
2933 09-02-2019 04:20:00 8.9 C 81 % 5.82 C
2934 09-02-2019 04:25:00 9.1 C 81 % 6.02 C
2935 09-02-2019 04:30:00 9.1 C 82 % 6.19 C
2936 09-02-2019 04:35:00 9.1 C 82 % 6.19 C
2937 09-02-2019 04:40:00 9.1 C 83 % 6.37 C
2938 09-02-2019 04:45:00 8.9 C 83 % 6.17 C
2939 09-02-2019 04:50:00 8.9 C 83 % 6.17 C
2940 09-02-2019 04:55:00 8.8 C 83 % 6.08 C
2941 09-02-2019 05:00:00 8.7 C 83 % 5.98 C
2942 09-02-2019 05:05:00 8.6 C 83 % 5.88 C
2943 09-02-2019 05:10:00 8.5 C 84 % 5.96 C
2944 09-02-2019 05:15:00 8.4 C 84 % 5.86 C
2945 09-02-2019 05:20:00 8.3 C 84 % 5.76 C
2946 09-02-2019 05:25:00 8.3 C 84 % 5.76 C
2947 09-02-2019 05:30:00 8.2 C 84 % 5.66 C
2948 09-02-2019 05:35:00 8.1 C 84 % 5.56 C
2949 09-02-2019 05:40:00 8 C 84 % 5.47 C
2950 09-02-2019 05:45:00 7.9 C 84 % 5.37 C
Sensor: Nr:Datum:Temp:Feuchte:Taupunkt:
Aussen-T/F 2951 09-02-2019 05:50:00 8 C 83 % 5.29 C
2952 09-02-2019 05:55:00 8.1 C 83 % 5.39 C
2953 09-02-2019 06:00:00 8.1 C 83 % 5.39 C
2954 09-02-2019 06:05:00 8 C 83 % 5.29 C
2955 09-02-2019 06:10:00 7.9 C 83 % 5.2 C
2956 09-02-2019 06:15:00 7.8 C 83 % 5.1 C
2957 09-02-2019 06:20:00 7.8 C 83 % 5.1 C
2958 09-02-2019 06:25:00 7.7 C 83 % 5 C
2959 09-02-2019 06:30:00 7.7 C 83 % 5 C
2960 09-02-2019 06:35:00 7.7 C 82 % 4.83 C
2961 09-02-2019 06:40:00 7.7 C 82 % 4.83 C
2962 09-02-2019 06:45:00 7.7 C 83 % 5 C
2963 09-02-2019 06:50:00 7.7 C 83 % 5 C
2964 09-02-2019 06:55:00 7.8 C 83 % 5.1 C
2965 09-02-2019 07:00:00 7.8 C 83 % 5.1 C
2966 09-02-2019 07:05:00 7.8 C 84 % 5.27 C
2967 09-02-2019 07:10:00 7.8 C 84 % 5.27 C
2968 09-02-2019 07:15:00 7.7 C 85 % 5.34 C
2969 09-02-2019 07:20:00 7.7 C 85 % 5.34 C
2970 09-02-2019 07:25:00 7.5 C 86 % 5.31 C
2971 09-02-2019 07:30:00 7.4 C 86 % 5.22 C
2972 09-02-2019 07:35:00 7.3 C 86 % 5.12 C
2973 09-02-2019 07:40:00 7.3 C 87 % 5.28 C
2974 09-02-2019 07:45:00 7.2 C 87 % 5.19 C
2975 09-02-2019 07:50:00 7.2 C 87 % 5.19 C
Sensor: Nr:Datum:Temp:Feuchte:Taupunkt:
Aussen-T/F 2976 09-02-2019 07:55:00 7.2 C 87 % 5.19 C
2977 09-02-2019 08:00:00 7.3 C 87 % 5.28 C
2978 09-02-2019 08:05:00 7.4 C 86 % 5.22 C
2979 09-02-2019 08:10:00 7.4 C 86 % 5.22 C
2980 09-02-2019 08:15:00 7.4 C 86 % 5.22 C
2981 09-02-2019 08:20:00 7.3 C 86 % 5.12 C
2982 09-02-2019 08:25:00 7.3 C 87 % 5.28 C
2983 09-02-2019 08:30:00 7.2 C 87 % 5.19 C
2984 09-02-2019 08:35:00 7.1 C 87 % 5.09 C
2985 09-02-2019 08:40:00 7 C 87 % 4.99 C
2986 09-02-2019 08:45:00 7 C 87 % 4.99 C
2987 09-02-2019 08:50:00 7.1 C 86 % 4.92 C
2988 09-02-2019 08:55:00 7.2 C 85 % 4.85 C
2989 09-02-2019 09:00:00 7.3 C 84 % 4.78 C
2990 09-02-2019 09:05:00 7.3 C 84 % 4.78 C
2991 09-02-2019 09:10:00 7.3 C 84 % 4.78 C
2992 09-02-2019 09:15:00 7.3 C 83 % 4.61 C
2993 09-02-2019 09:20:00 7.6 C 83 % 4.9 C
2994 09-02-2019 09:25:00 7.6 C 83 % 4.9 C
2995 09-02-2019 09:30:00 7.8 C 82 % 4.92 C
2996 09-02-2019 09:35:00 7.9 C 81 % 4.85 C
2997 09-02-2019 09:40:00 8.1 C 81 % 5.04 C
2998 09-02-2019 09:45:00 8.1 C 81 % 5.04 C
2999 09-02-2019 09:50:00 8.2 C 81 % 5.14 C
3000 09-02-2019 09:55:00 8.3 C 81 % 5.24 C
Sensor: Nr:Datum:Temp:Feuchte:Taupunkt:
Aussen-T/F 3001 09-02-2019 10:00:00 8.4 C 81 % 5.33 C
3002 09-02-2019 10:05:00 8.6 C 80 % 5.35 C
3003 09-02-2019 10:10:00 8.7 C 80 % 5.45 C
3004 09-02-2019 10:15:00 8.8 C 79 % 5.36 C
3005 09-02-2019 10:20:00 8.9 C 79 % 5.46 C
3006 09-02-2019 10:25:00 8.9 C 79 % 5.46 C
3007 09-02-2019 10:30:00 8.9 C 79 % 5.46 C
3008 09-02-2019 10:35:00 9 C 79 % 5.56 C
3009 09-02-2019 10:40:00 9 C 79 % 5.56 C
3010 09-02-2019 10:45:00 9 C 79 % 5.56 C
3011 09-02-2019 10:50:00 9 C 79 % 5.56 C
3012 09-02-2019 10:55:00 9 C 79 % 5.56 C
3013 09-02-2019 11:00:00 9.1 C 79 % 5.66 C
3014 09-02-2019 11:05:00 9.1 C 79 % 5.66 C
3015 09-02-2019 11:10:00 9.1 C 79 % 5.66 C
3016 09-02-2019 11:15:00 9.2 C 79 % 5.75 C
3017 09-02-2019 11:20:00 9.2 C 78 % 5.57 C
3018 09-02-2019 11:25:00 9.2 C 78 % 5.57 C
3019 09-02-2019 11:30:00 9.2 C 77 % 5.38 C
3020 09-02-2019 11:35:00 9.3 C 77 % 5.48 C
3021 09-02-2019 11:40:00 9.4 C 77 % 5.58 C
3022 09-02-2019 11:45:00 9.6 C 77 % 5.77 C
3023 09-02-2019 11:50:00 9.6 C 76 % 5.58 C
3024 09-02-2019 11:55:00 9.7 C 76 % 5.68 C
3025 09-02-2019 12:00:00 9.7 C 76 % 5.68 C
Sensor: Nr:Datum:Temp:Feuchte:Taupunkt:
Aussen-T/F 3026 09-02-2019 12:05:00 9.7 C 76 % 5.68 C
3027 09-02-2019 12:10:00 9.8 C 75 % 5.59 C
3028 09-02-2019 12:15:00 9.8 C 75 % 5.59 C
3029 09-02-2019 12:20:00 9.8 C 74 % 5.39 C
3030 09-02-2019 12:25:00 9.9 C 74 % 5.49 C
3031 09-02-2019 12:30:00 9.9 C 74 % 5.49 C
3032 09-02-2019 12:35:00 10 C 74 % 5.59 C
3033 09-02-2019 12:40:00 10.1 C 73 % 5.49 C
3034 09-02-2019 12:45:00 10.2 C 73 % 5.58 C
3035 09-02-2019 12:50:00 10.3 C 72 % 5.48 C
3036 09-02-2019 12:55:00 10.5 C 71 % 5.47 C
3037 09-02-2019 13:00:00 10.6 C 71 % 5.57 C
3038 09-02-2019 13:05:00 10.6 C 70 % 5.36 C
3039 09-02-2019 13:10:00 10.6 C 71 % 5.57 C
3040 09-02-2019 13:15:00 10.6 C 72 % 5.77 C
3041 09-02-2019 13:20:00 10.6 C 71 % 5.57 C
3042 09-02-2019 13:25:00 10.7 C 72 % 5.87 C
3043 09-02-2019 13:30:00 10.7 C 70 % 5.46 C
3044 09-02-2019 13:35:00 10.8 C 69 % 5.35 C
3045 09-02-2019 13:40:00 10.9 C 68 % 5.23 C
3046 09-02-2019 13:45:00 10.9 C 69 % 5.44 C
3047 09-02-2019 13:50:00 10.9 C 69 % 5.44 C
3048 09-02-2019 13:55:00 10.9 C 69 % 5.44 C
3049 09-02-2019 14:00:00 11 C 68 % 5.33 C
3050 09-02-2019 14:05:00 11.1 C 68 % 5.43 C
Sensor: Nr:Datum:Temp:Feuchte:Taupunkt:
Aussen-T/F 3051 09-02-2019 14:10:00 11.2 C 68 % 5.52 C
3052 09-02-2019 14:15:00 11.2 C 67 % 5.31 C
3053 09-02-2019 14:20:00 11.2 C 68 % 5.52 C
3054 09-02-2019 14:25:00 11.2 C 68 % 5.52 C
3055 09-02-2019 14:30:00 11.1 C 68 % 5.43 C
3056 09-02-2019 14:35:00 11.1 C 67 % 5.21 C
3057 09-02-2019 14:40:00 11.1 C 68 % 5.43 C
3058 09-02-2019 14:45:00 11.1 C 68 % 5.43 C
3059 09-02-2019 14:50:00 11.1 C 67 % 5.21 C
3060 09-02-2019 14:55:00 11.1 C 67 % 5.21 C
3061 09-02-2019 15:00:00 10.9 C 67 % 5.02 C
3062 09-02-2019 15:05:00 10.9 C 67 % 5.02 C
3063 09-02-2019 15:10:00 10.8 C 67 % 4.93 C
3064 09-02-2019 15:15:00 10.7 C 67 % 4.83 C
3065 09-02-2019 15:20:00 10.7 C 68 % 5.04 C
3066 09-02-2019 15:25:00 10.6 C 69 % 5.16 C
3067 09-02-2019 15:30:00 10.5 C 69 % 5.06 C
3068 09-02-2019 15:35:00 10.5 C 69 % 5.06 C
3069 09-02-2019 15:40:00 10.5 C 69 % 5.06 C
3070 09-02-2019 15:45:00 10.4 C 69 % 4.97 C
3071 09-02-2019 15:50:00 10.4 C 70 % 5.17 C
3072 09-02-2019 15:55:00 10.4 C 70 % 5.17 C
3073 09-02-2019 16:00:00 10.4 C 69 % 4.97 C
3074 09-02-2019 16:05:00 10.4 C 70 % 5.17 C
3075 09-02-2019 16:10:00 10.3 C 71 % 5.28 C
Sensor: Nr:Datum:Temp:Feuchte:Taupunkt:
Aussen-T/F 3076 09-02-2019 16:15:00 10.2 C 72 % 5.39 C
3077 09-02-2019 16:20:00 10.1 C 72 % 5.29 C
3078 09-02-2019 16:25:00 10.1 C 72 % 5.29 C
3079 09-02-2019 16:30:00 10 C 73 % 5.39 C
3080 09-02-2019 16:35:00 9.9 C 73 % 5.29 C
3081 09-02-2019 16:40:00 9.9 C 72 % 5.1 C
3082 09-02-2019 16:45:00 9.9 C 73 % 5.29 C
3083 09-02-2019 16:50:00 9.8 C 73 % 5.2 C
3084 09-02-2019 16:55:00 9.8 C 73 % 5.2 C
3085 09-02-2019 17:00:00 9.8 C 72 % 5 C
3086 09-02-2019 17:05:00 9.7 C 72 % 4.9 C
3087 09-02-2019 17:10:00 9.7 C 73 % 5.1 C
3088 09-02-2019 17:15:00 9.6 C 74 % 5.2 C
3089 09-02-2019 17:20:00 9.5 C 74 % 5.1 C
3090 09-02-2019 17:25:00 9.4 C 74 % 5.01 C
3091 09-02-2019 17:30:00 9.3 C 74 % 4.91 C
3092 09-02-2019 17:35:00 9.3 C 74 % 4.91 C
3093 09-02-2019 17:40:00 9.2 C 75 % 5.01 C
3094 09-02-2019 17:45:00 9.1 C 75 % 4.91 C
3095 09-02-2019 17:50:00 9 C 75 % 4.81 C
3096 09-02-2019 17:55:00 8.9 C 76 % 4.91 C
3097 09-02-2019 18:00:00 8.8 C 76 % 4.81 C
3098 09-02-2019 18:05:00 8.8 C 77 % 5 C
3099 09-02-2019 18:10:00 8.7 C 77 % 4.9 C
3100 09-02-2019 18:15:00 8.6 C 78 % 4.99 C
Sensor: Nr:Datum:Temp:Feuchte:Taupunkt:
Aussen-T/F 3101 09-02-2019 18:20:00 8.6 C 78 % 4.99 C
3102 09-02-2019 18:25:00 8.5 C 78 % 4.89 C
3103 09-02-2019 18:30:00 8.4 C 79 % 4.98 C
3104 09-02-2019 18:35:00 8.4 C 79 % 4.98 C
3105 09-02-2019 18:40:00 8.4 C 78 % 4.79 C
3106 09-02-2019 18:45:00 8.4 C 79 % 4.98 C
3107 09-02-2019 18:50:00 8.4 C 79 % 4.98 C
3108 09-02-2019 18:55:00 8.5 C 80 % 5.25 C
3109 09-02-2019 19:00:00 8.6 C 81 % 5.53 C
3110 09-02-2019 19:05:00 8.4 C 84 % 5.86 C
3111 09-02-2019 19:10:00 8.2 C 85 % 5.83 C
3112 09-02-2019 19:15:00 8 C 86 % 5.81 C
3113 09-02-2019 19:20:00 7.8 C 86 % 5.61 C
3114 09-02-2019 19:25:00 7.7 C 86 % 5.51 C
3115 09-02-2019 19:30:00 7.7 C 86 % 5.51 C
3116 09-02-2019 19:35:00 7.6 C 86 % 5.41 C
3117 09-02-2019 19:40:00 7.6 C 85 % 5.24 C
3118 09-02-2019 19:45:00 7.6 C 84 % 5.07 C
3119 09-02-2019 19:50:00 7.6 C 84 % 5.07 C
3120 09-02-2019 19:55:00 7.6 C 84 % 5.07 C
3121 09-02-2019 20:00:00 7.5 C 84 % 4.98 C
3122 09-02-2019 20:05:00 7.4 C 84 % 4.88 C
3123 09-02-2019 20:10:00 7.3 C 84 % 4.78 C
3124 09-02-2019 20:15:00 7.2 C 85 % 4.85 C
3125 09-02-2019 20:20:00 7.2 C 85 % 4.85 C
Sensor: Nr:Datum:Temp:Feuchte:Taupunkt:
Aussen-T/F 3126 09-02-2019 20:25:00 7.1 C 86 % 4.92 C
3127 09-02-2019 20:30:00 7.1 C 86 % 4.92 C
3128 09-02-2019 20:35:00 7.2 C 87 % 5.19 C
3129 09-02-2019 20:40:00 7.2 C 87 % 5.19 C
3130 09-02-2019 20:45:00 7.2 C 87 % 5.19 C
3131 09-02-2019 20:50:00 7.3 C 87 % 5.28 C
3132 09-02-2019 20:55:00 7.3 C 87 % 5.28 C
3133 09-02-2019 21:00:00 7.4 C 87 % 5.38 C
3134 09-02-2019 21:05:00 7.5 C 86 % 5.31 C
3135 09-02-2019 21:10:00 7.5 C 86 % 5.31 C
3136 09-02-2019 21:15:00 7.5 C 86 % 5.31 C
3137 09-02-2019 21:20:00 7.6 C 86 % 5.41 C
3138 09-02-2019 21:25:00 7.6 C 86 % 5.41 C
3139 09-02-2019 21:30:00 7.6 C 86 % 5.41 C
3140 09-02-2019 21:35:00 7.6 C 86 % 5.41 C
3141 09-02-2019 21:40:00 7.7 C 86 % 5.51 C
3142 09-02-2019 21:45:00 7.7 C 86 % 5.51 C
3143 09-02-2019 21:50:00 7.8 C 85 % 5.44 C
3144 09-02-2019 21:55:00 7.8 C 85 % 5.44 C
3145 09-02-2019 22:00:00 7.9 C 85 % 5.54 C
3146 09-02-2019 22:05:00 7.9 C 85 % 5.54 C
3147 09-02-2019 22:10:00 7.9 C 85 % 5.54 C
3148 09-02-2019 22:15:00 8.1 C 84 % 5.56 C
3149 09-02-2019 22:20:00 8.1 C 84 % 5.56 C
3150 09-02-2019 22:25:00 8.1 C 84 % 5.56 C
Sensor: Nr:Datum:Temp:Feuchte:Taupunkt:
Aussen-T/F 3151 09-02-2019 22:30:00 8.2 C 84 % 5.66 C
3152 09-02-2019 22:35:00 8.3 C 83 % 5.59 C
3153 09-02-2019 22:40:00 8.3 C 83 % 5.59 C
3154 09-02-2019 22:45:00 8.3 C 83 % 5.59 C
3155 09-02-2019 22:50:00 8.4 C 83 % 5.69 C
3156 09-02-2019 22:55:00 8.4 C 82 % 5.51 C
3157 09-02-2019 23:00:00 8.6 C 82 % 5.71 C
3158 09-02-2019 23:05:00 8.6 C 82 % 5.71 C
3159 09-02-2019 23:10:00 8.6 C 82 % 5.71 C
3160 09-02-2019 23:15:00 8.6 C 82 % 5.71 C
3161 09-02-2019 23:20:00 8.6 C 82 % 5.71 C
3162 09-02-2019 23:25:00 8.6 C 82 % 5.71 C
3163 09-02-2019 23:30:00 8.6 C 82 % 5.71 C
3164 09-02-2019 23:35:00 8.6 C 82 % 5.71 C
3165 09-02-2019 23:40:00 8.6 C 82 % 5.71 C
3166 09-02-2019 23:45:00 8.7 C 82 % 5.8 C
3167 09-02-2019 23:50:00 8.7 C 82 % 5.8 C
3168 09-02-2019 23:55:00 8.7 C 82 % 5.8 C
3169 10-02-2019 00:00:00 8.7 C 82 % 5.8 C
3170 10-02-2019 00:05:00 8.7 C 82 % 5.8 C
3171 10-02-2019 00:10:00 8.7 C 82 % 5.8 C
3172 10-02-2019 00:15:00 8.7 C 82 % 5.8 C
3173 10-02-2019 00:20:00 8.7 C 82 % 5.8 C
3174 10-02-2019 00:25:00 8.7 C 82 % 5.8 C
3175 10-02-2019 00:30:00 8.7 C 82 % 5.8 C
Sensor: Nr:Datum:Temp:Feuchte:Taupunkt:
Aussen-T/F 3176 10-02-2019 00:35:00 8.6 C 82 % 5.71 C
3177 10-02-2019 00:40:00 8.6 C 82 % 5.71 C
3178 10-02-2019 00:45:00 8.5 C 82 % 5.61 C
3179 10-02-2019 00:50:00 8.4 C 82 % 5.51 C
3180 10-02-2019 00:55:00 8.4 C 82 % 5.51 C
3181 10-02-2019 01:00:00 8.3 C 83 % 5.59 C
3182 10-02-2019 01:05:00 8.2 C 83 % 5.49 C
3183 10-02-2019 01:10:00 8.1 C 83 % 5.39 C
3184 10-02-2019 01:15:00 8.1 C 83 % 5.39 C
3185 10-02-2019 01:20:00 7.9 C 83 % 5.2 C
3186 10-02-2019 01:25:00 7.9 C 84 % 5.37 C
3187 10-02-2019 01:30:00 7.8 C 84 % 5.27 C
3188 10-02-2019 01:35:00 7.7 C 84 % 5.17 C
3189 10-02-2019 01:40:00 7.6 C 85 % 5.24 C
3190 10-02-2019 01:45:00 7.5 C 85 % 5.15 C
3191 10-02-2019 01:50:00 7.6 C 85 % 5.24 C
3192 10-02-2019 01:55:00 7.5 C 85 % 5.15 C
3193 10-02-2019 02:00:00 7.4 C 85 % 5.05 C
3194 10-02-2019 02:05:00 7.4 C 85 % 5.05 C
3195 10-02-2019 02:10:00 7.4 C 85 % 5.05 C
3196 10-02-2019 02:15:00 7.3 C 85 % 4.95 C
3197 10-02-2019 02:20:00 7.3 C 85 % 4.95 C
3198 10-02-2019 02:25:00 7.3 C 85 % 4.95 C
3199 10-02-2019 02:30:00 7.4 C 85 % 5.05 C
3200 10-02-2019 02:35:00 7.4 C 85 % 5.05 C
Sensor: Nr:Datum:Temp:Feuchte:Taupunkt:
Aussen-T/F 3201 10-02-2019 02:40:00 7.5 C 84 % 4.98 C
3202 10-02-2019 02:45:00 7.6 C 84 % 5.07 C
3203 10-02-2019 02:50:00 7.5 C 84 % 4.98 C
3204 10-02-2019 02:55:00 7.5 C 84 % 4.98 C
3205 10-02-2019 03:00:00 7.5 C 84 % 4.98 C
3206 10-02-2019 03:05:00 7.4 C 84 % 4.88 C
3207 10-02-2019 03:10:00 7.6 C 84 % 5.07 C
3208 10-02-2019 03:15:00 7.7 C 83 % 5 C
3209 10-02-2019 03:20:00 7.7 C 83 % 5 C
3210 10-02-2019 03:25:00 7.7 C 83 % 5 C
3211 10-02-2019 03:30:00 7.6 C 83 % 4.9 C
3212 10-02-2019 03:35:00 7.6 C 84 % 5.07 C
3213 10-02-2019 03:40:00 7.7 C 84 % 5.17 C
3214 10-02-2019 03:45:00 7.7 C 85 % 5.34 C
3215 10-02-2019 03:50:00 7.6 C 86 % 5.41 C
3216 10-02-2019 03:55:00 7.5 C 87 % 5.48 C
3217 10-02-2019 04:00:00 7.4 C 88 % 5.55 C
3218 10-02-2019 04:05:00 7.3 C 89 % 5.61 C
3219 10-02-2019 04:10:00 7.2 C 90 % 5.67 C
3220 10-02-2019 04:15:00 7.1 C 90 % 5.57 C
3221 10-02-2019 04:20:00 6.9 C 90 % 5.38 C
3222 10-02-2019 04:25:00 6.9 C 90 % 5.38 C
3223 10-02-2019 04:30:00 6.9 C 90 % 5.38 C
3224 10-02-2019 04:35:00 6.9 C 91 % 5.54 C
3225 10-02-2019 04:40:00 6.8 C 91 % 5.44 C
Sensor: Nr:Datum:Temp:Feuchte:Taupunkt:
Aussen-T/F 3226 10-02-2019 04:45:00 6.8 C 92 % 5.59 C
3227 10-02-2019 04:50:00 6.8 C 92 % 5.59 C
3228 10-02-2019 04:55:00 6.8 C 92 % 5.59 C
3229 10-02-2019 05:00:00 6.8 C 93 % 5.75 C
3230 10-02-2019 05:05:00 6.8 C 93 % 5.75 C
3231 10-02-2019 05:10:00 6.8 C 93 % 5.75 C
3232 10-02-2019 05:15:00 6.8 C 93 % 5.75 C
3233 10-02-2019 05:20:00 6.8 C 94 % 5.9 C
3234 10-02-2019 05:25:00 6.9 C 94 % 6 C
3235 10-02-2019 05:30:00 6.9 C 94 % 6 C
3236 10-02-2019 05:35:00 7 C 94 % 6.1 C
3237 10-02-2019 05:40:00 7.1 C 94 % 6.2 C
3238 10-02-2019 05:45:00 7.1 C 94 % 6.2 C
3239 10-02-2019 05:50:00 7.2 C 94 % 6.3 C
3240 10-02-2019 05:55:00 7.3 C 94 % 6.4 C
3241 10-02-2019 06:00:00 7.3 C 94 % 6.4 C
3242 10-02-2019 06:05:00 7.3 C 94 % 6.4 C
3243 10-02-2019 06:10:00 7.3 C 94 % 6.4 C
3244 10-02-2019 06:15:00 7.4 C 94 % 6.5 C
3245 10-02-2019 06:20:00 7.5 C 94 % 6.6 C
3246 10-02-2019 06:25:00 7.6 C 94 % 6.7 C
3247 10-02-2019 06:30:00 7.7 C 94 % 6.8 C
3248 10-02-2019 06:35:00 7.7 C 94 % 6.8 C
3249 10-02-2019 06:40:00 7.8 C 94 % 6.9 C
3250 10-02-2019 06:45:00 7.9 C 94 % 7 C
Sensor: Nr:Datum:Temp:Feuchte:Taupunkt:
Aussen-T/F 3251 10-02-2019 06:50:00 7.9 C 94 % 7 C
3252 10-02-2019 06:55:00 8.1 C 94 % 7.19 C
3253 10-02-2019 07:00:00 8.1 C 94 % 7.19 C
3254 10-02-2019 07:05:00 8.1 C 94 % 7.19 C
3255 10-02-2019 07:10:00 8.2 C 94 % 7.29 C
3256 10-02-2019 07:15:00 8.2 C 94 % 7.29 C
3257 10-02-2019 07:20:00 8.3 C 93 % 7.24 C
3258 10-02-2019 07:25:00 8.4 C 93 % 7.34 C
3259 10-02-2019 07:30:00 8.4 C 93 % 7.34 C
3260 10-02-2019 07:35:00 8.5 C 93 % 7.43 C
3261 10-02-2019 07:40:00 8.5 C 93 % 7.43 C
3262 10-02-2019 07:45:00 8.6 C 93 % 7.53 C
3263 10-02-2019 07:50:00 8.6 C 93 % 7.53 C
3264 10-02-2019 07:55:00 8.7 C 93 % 7.63 C
3265 10-02-2019 08:00:00 8.7 C 92 % 7.47 C
3266 10-02-2019 08:05:00 8.7 C 92 % 7.47 C
3267 10-02-2019 08:10:00 8.7 C 92 % 7.47 C
3268 10-02-2019 08:15:00 8.8 C 92 % 7.57 C
3269 10-02-2019 08:20:00 8.8 C 92 % 7.57 C
3270 10-02-2019 08:25:00 8.8 C 92 % 7.57 C
3271 10-02-2019 08:30:00 8.8 C 92 % 7.57 C
3272 10-02-2019 08:35:00 8.8 C 92 % 7.57 C
3273 10-02-2019 08:40:00 8.8 C 92 % 7.57 C
3274 10-02-2019 08:45:00 8.8 C 91 % 7.41 C
3275 10-02-2019 08:50:00 8.9 C 91 % 7.51 C
Sensor: Nr:Datum:Temp:Feuchte:Taupunkt:
Aussen-T/F 3276 10-02-2019 08:55:00 8.9 C 91 % 7.51 C
3277 10-02-2019 09:00:00 9 C 91 % 7.61 C
3278 10-02-2019 09:05:00 9.1 C 90 % 7.55 C
3279 10-02-2019 09:10:00 9.2 C 90 % 7.65 C
3280 10-02-2019 09:15:00 9.3 C 90 % 7.75 C
3281 10-02-2019 09:20:00 9.3 C 89 % 7.58 C
3282 10-02-2019 09:25:00 9.4 C 89 % 7.68 C
3283 10-02-2019 09:30:00 9.6 C 89 % 7.88 C
3284 10-02-2019 09:35:00 9.7 C 89 % 7.98 C
3285 10-02-2019 09:40:00 9.7 C 88 % 7.81 C
3286 10-02-2019 09:45:00 9.8 C 88 % 7.91 C
3287 10-02-2019 09:50:00 9.9 C 88 % 8.01 C
3288 10-02-2019 09:55:00 9.9 C 88 % 8.01 C
3289 10-02-2019 10:00:00 10 C 88 % 8.11 C
3290 10-02-2019 10:05:00 10.1 C 88 % 8.21 C
3291 10-02-2019 10:10:00 10.1 C 88 % 8.21 C
3292 10-02-2019 10:15:00 10.1 C 88 % 8.21 C
3293 10-02-2019 10:20:00 10.2 C 88 % 8.3 C
3294 10-02-2019 10:25:00 10.2 C 88 % 8.3 C
3295 10-02-2019 10:30:00 10.2 C 88 % 8.3 C
3296 10-02-2019 10:35:00 10.2 C 89 % 8.47 C
3297 10-02-2019 10:40:00 10 C 89 % 8.27 C
3298 10-02-2019 10:45:00 9.9 C 90 % 8.34 C
3299 10-02-2019 10:50:00 9.9 C 90 % 8.34 C
3300 10-02-2019 10:55:00 9.8 C 90 % 8.24 C
Sensor: Nr:Datum:Temp:Feuchte:Taupunkt:
Aussen-T/F 3301 10-02-2019 11:00:00 9.8 C 90 % 8.24 C
3302 10-02-2019 11:05:00 9.8 C 90 % 8.24 C
3303 10-02-2019 11:10:00 9.8 C 90 % 8.24 C
3304 10-02-2019 11:15:00 9.7 C 90 % 8.14 C
3305 10-02-2019 11:20:00 9.7 C 91 % 8.3 C
3306 10-02-2019 11:25:00 9.7 C 91 % 8.3 C
3307 10-02-2019 11:30:00 9.7 C 91 % 8.3 C
3308 10-02-2019 11:35:00 9.7 C 91 % 8.3 C
3309 10-02-2019 11:40:00 9.7 C 91 % 8.3 C
3310 10-02-2019 11:45:00 9.7 C 91 % 8.3 C
3311 10-02-2019 11:50:00 9.7 C 91 % 8.3 C
3312 10-02-2019 11:55:00 9.7 C 92 % 8.46 C
3313 10-02-2019 12:00:00 9.7 C 92 % 8.46 C
3314 10-02-2019 12:05:00 9.7 C 91 % 8.3 C
3315 10-02-2019 12:10:00 9.7 C 91 % 8.3 C
3316 10-02-2019 12:15:00 9.7 C 92 % 8.46 C
3317 10-02-2019 12:20:00 9.7 C 92 % 8.46 C
3318 10-02-2019 12:25:00 9.7 C 92 % 8.46 C
3319 10-02-2019 12:30:00 9.7 C 92 % 8.46 C
3320 10-02-2019 12:35:00 9.6 C 92 % 8.37 C
3321 10-02-2019 12:40:00 9.6 C 92 % 8.37 C
3322 10-02-2019 12:45:00 9.6 C 92 % 8.37 C
3323 10-02-2019 12:50:00 9.6 C 91 % 8.21 C
3324 10-02-2019 12:55:00 9.6 C 91 % 8.21 C
3325 10-02-2019 13:00:00 9.6 C 91 % 8.21 C
Sensor: Nr:Datum:Temp:Feuchte:Taupunkt:
Aussen-T/F 3326 10-02-2019 13:05:00 9.6 C 92 % 8.37 C
3327 10-02-2019 13:10:00 9.6 C 92 % 8.37 C
3328 10-02-2019 13:15:00 9.6 C 92 % 8.37 C
3329 10-02-2019 13:20:00 9.6 C 92 % 8.37 C
3330 10-02-2019 13:25:00 9.7 C 93 % 8.62 C
3331 10-02-2019 13:30:00 9.8 C 92 % 8.56 C
3332 10-02-2019 13:35:00 9.9 C 92 % 8.66 C
3333 10-02-2019 13:40:00 9.9 C 92 % 8.66 C
3334 10-02-2019 13:45:00 10 C 91 % 8.6 C
3335 10-02-2019 13:50:00 10 C 91 % 8.6 C
3336 10-02-2019 13:55:00 10 C 91 % 8.6 C
3337 10-02-2019 14:00:00 9.9 C 91 % 8.5 C
3338 10-02-2019 14:05:00 9.9 C 91 % 8.5 C
3339 10-02-2019 14:10:00 9.8 C 92 % 8.56 C
3340 10-02-2019 14:15:00 9.8 C 92 % 8.56 C
3341 10-02-2019 14:20:00 9.7 C 92 % 8.46 C
3342 10-02-2019 14:25:00 9.6 C 91 % 8.21 C
3343 10-02-2019 14:30:00 9.4 C 91 % 8.01 C
3344 10-02-2019 14:35:00 9.3 C 91 % 7.91 C
3345 10-02-2019 14:40:00 9.2 C 90 % 7.65 C
3346 10-02-2019 14:45:00 9.1 C 89 % 7.39 C
3347 10-02-2019 14:50:00 8.9 C 88 % 7.02 C
3348 10-02-2019 14:55:00 8.9 C 88 % 7.02 C
3349 10-02-2019 15:00:00 9 C 88 % 7.12 C
3350 10-02-2019 15:05:00 8.9 C 87 % 6.86 C
Sensor: Nr:Datum:Temp:Feuchte:Taupunkt:
Aussen-T/F 3351 10-02-2019 15:10:00 8.8 C 86 % 6.59 C
3352 10-02-2019 15:15:00 8.8 C 86 % 6.59 C
3353 10-02-2019 15:20:00 8.8 C 87 % 6.76 C
3354 10-02-2019 15:25:00 8.7 C 87 % 6.66 C
3355 10-02-2019 15:30:00 8.7 C 86 % 6.49 C
3356 10-02-2019 15:35:00 8.7 C 86 % 6.49 C
3357 10-02-2019 15:40:00 8.7 C 86 % 6.49 C
3358 10-02-2019 15:45:00 8.7 C 87 % 6.66 C
3359 10-02-2019 15:50:00 8.8 C 87 % 6.76 C
3360 10-02-2019 15:55:00 8.8 C 86 % 6.59 C
3361 10-02-2019 16:00:00 8.7 C 86 % 6.49 C
3362 10-02-2019 16:05:00 8.7 C 86 % 6.49 C
3363 10-02-2019 16:10:00 8.7 C 87 % 6.66 C
3364 10-02-2019 16:15:00 8.6 C 88 % 6.73 C
3365 10-02-2019 16:20:00 8.4 C 87 % 6.37 C
3366 10-02-2019 16:25:00 8.4 C 87 % 6.37 C
3367 10-02-2019 16:30:00 8.4 C 87 % 6.37 C
3368 10-02-2019 16:35:00 8.4 C 87 % 6.37 C
3369 10-02-2019 16:40:00 8.4 C 87 % 6.37 C
3370 10-02-2019 16:45:00 8.4 C 87 % 6.37 C
3371 10-02-2019 16:50:00 8.4 C 87 % 6.37 C
3372 10-02-2019 16:55:00 8.3 C 86 % 6.1 C
3373 10-02-2019 17:00:00 8.3 C 87 % 6.27 C
3374 10-02-2019 17:05:00 8.2 C 87 % 6.17 C
3375 10-02-2019 17:10:00 8.2 C 87 % 6.17 C
Sensor: Nr:Datum:Temp:Feuchte:Taupunkt:
Aussen-T/F 3376 10-02-2019 17:15:00 8.1 C 86 % 5.9 C
3377 10-02-2019 17:20:00 8.1 C 86 % 5.9 C
3378 10-02-2019 17:25:00 8.1 C 87 % 6.07 C
3379 10-02-2019 17:30:00 8 C 86 % 5.81 C
3380 10-02-2019 17:35:00 7.9 C 86 % 5.71 C
3381 10-02-2019 17:40:00 7.9 C 85 % 5.54 C
3382 10-02-2019 17:45:00 7.8 C 86 % 5.61 C
3383 10-02-2019 17:50:00 7.5 C 86 % 5.31 C
3384 10-02-2019 17:55:00 7.3 C 87 % 5.28 C
3385 10-02-2019 18:00:00 7 C 89 % 5.31 C
3386 10-02-2019 18:05:00 6.8 C 89 % 5.12 C
3387 10-02-2019 18:10:00 6.7 C 90 % 5.18 C
3388 10-02-2019 18:15:00 6.6 C 90 % 5.08 C
3389 10-02-2019 18:20:00 6.4 C 90 % 4.88 C
3390 10-02-2019 18:25:00 6.4 C 91 % 5.04 C
3391 10-02-2019 18:30:00 6.3 C 91 % 4.94 C
3392 10-02-2019 18:35:00 6.3 C 91 % 4.94 C
3393 10-02-2019 18:40:00 6.3 C 90 % 4.78 C
3394 10-02-2019 18:45:00 6.3 C 90 % 4.78 C
3395 10-02-2019 18:50:00 6.3 C 90 % 4.78 C
3396 10-02-2019 18:55:00 6.3 C 90 % 4.78 C
3397 10-02-2019 19:00:00 6.3 C 90 % 4.78 C
3398 10-02-2019 19:05:00 6.3 C 89 % 4.62 C
3399 10-02-2019 19:10:00 6.3 C 89 % 4.62 C
3400 10-02-2019 19:15:00 6.4 C 88 % 4.56 C
Sensor: Nr:Datum:Temp:Feuchte:Taupunkt:
Aussen-T/F 3401 10-02-2019 19:20:00 6.4 C 88 % 4.56 C
3402 10-02-2019 19:25:00 6.4 C 88 % 4.56 C
3403 10-02-2019 19:30:00 6.4 C 88 % 4.56 C
3404 10-02-2019 19:35:00 6.4 C 88 % 4.56 C
3405 10-02-2019 19:40:00 6.4 C 88 % 4.56 C
3406 10-02-2019 19:45:00 6.5 C 88 % 4.66 C
3407 10-02-2019 19:50:00 6.6 C 88 % 4.76 C
3408 10-02-2019 19:55:00 6.6 C 87 % 4.6 C
3409 10-02-2019 20:00:00 6.6 C 87 % 4.6 C
3410 10-02-2019 20:05:00 6.7 C 87 % 4.69 C
3411 10-02-2019 20:10:00 6.7 C 87 % 4.69 C
3412 10-02-2019 20:15:00 6.7 C 87 % 4.69 C
3413 10-02-2019 20:20:00 6.8 C 87 % 4.79 C
3414 10-02-2019 20:25:00 6.8 C 87 % 4.79 C
3415 10-02-2019 20:30:00 6.8 C 87 % 4.79 C
3416 10-02-2019 20:35:00 6.8 C 87 % 4.79 C
3417 10-02-2019 20:40:00 6.8 C 88 % 4.96 C
3418 10-02-2019 20:45:00 6.7 C 89 % 5.02 C
3419 10-02-2019 20:50:00 6.5 C 89 % 4.82 C
3420 10-02-2019 20:55:00 6.3 C 90 % 4.78 C
3421 10-02-2019 21:00:00 6.2 C 91 % 4.84 C
3422 10-02-2019 21:05:00 6.1 C 91 % 4.74 C
3423 10-02-2019 21:10:00 6.1 C 90 % 4.59 C
3424 10-02-2019 21:15:00 6.1 C 90 % 4.59 C
3425 10-02-2019 21:20:00 6.1 C 89 % 4.43 C
Sensor: Nr:Datum:Temp:Feuchte:Taupunkt:
Aussen-T/F 3426 10-02-2019 21:25:00 6.1 C 90 % 4.59 C
3427 10-02-2019 21:30:00 6.1 C 89 % 4.43 C
3428 10-02-2019 21:35:00 6.1 C 88 % 4.27 C
3429 10-02-2019 21:40:00 6.2 C 87 % 4.2 C
3430 10-02-2019 21:45:00 6.2 C 86 % 4.04 C
3431 10-02-2019 21:50:00 6.2 C 86 % 4.04 C
3432 10-02-2019 21:55:00 6.2 C 86 % 4.04 C
3433 10-02-2019 22:00:00 6.2 C 85 % 3.87 C
3434 10-02-2019 22:05:00 6.2 C 84 % 3.7 C
3435 10-02-2019 22:10:00 6.3 C 84 % 3.8 C
3436 10-02-2019 22:15:00 6.3 C 83 % 3.63 C
3437 10-02-2019 22:20:00 6.2 C 83 % 3.53 C
3438 10-02-2019 22:25:00 6.2 C 84 % 3.7 C
3439 10-02-2019 22:30:00 6.2 C 84 % 3.7 C
3440 10-02-2019 22:35:00 6.1 C 84 % 3.61 C
3441 10-02-2019 22:40:00 6.1 C 84 % 3.61 C
3442 10-02-2019 22:45:00 6 C 84 % 3.51 C
3443 10-02-2019 22:50:00 6 C 84 % 3.51 C
3444 10-02-2019 22:55:00 5.9 C 83 % 3.24 C
3445 10-02-2019 23:00:00 5.9 C 84 % 3.41 C
3446 10-02-2019 23:05:00 5.8 C 84 % 3.31 C
3447 10-02-2019 23:10:00 5.8 C 85 % 3.48 C
3448 10-02-2019 23:15:00 5.7 C 85 % 3.38 C
3449 10-02-2019 23:20:00 5.7 C 85 % 3.38 C
3450 10-02-2019 23:25:00 5.6 C 85 % 3.28 C
Sensor: Nr:Datum:Temp:Feuchte:Taupunkt:
Aussen-T/F 3451 10-02-2019 23:30:00 5.6 C 85 % 3.28 C
3452 10-02-2019 23:35:00 5.5 C 86 % 3.35 C
3453 10-02-2019 23:40:00 5.4 C 86 % 3.25 C
3454 10-02-2019 23:45:00 5.4 C 86 % 3.25 C
3455 10-02-2019 23:50:00 5.3 C 87 % 3.32 C
3456 10-02-2019 23:55:00 5.3 C 87 % 3.32 C
3457 11-02-2019 00:00:00 5.3 C 87 % 3.32 C
3458 11-02-2019 00:05:00 5.2 C 88 % 3.38 C
3459 11-02-2019 00:10:00 5.1 C 88 % 3.28 C
3460 11-02-2019 00:15:00 5.1 C 88 % 3.28 C
3461 11-02-2019 00:20:00 5.1 C 89 % 3.44 C
3462 11-02-2019 00:25:00 5 C 89 % 3.34 C
3463 11-02-2019 00:30:00 4.9 C 89 % 3.24 C
3464 11-02-2019 00:35:00 4.9 C 89 % 3.24 C
3465 11-02-2019 00:40:00 4.9 C 90 % 3.4 C
3466 11-02-2019 00:45:00 4.8 C 90 % 3.3 C
3467 11-02-2019 00:50:00 4.7 C 90 % 3.2 C
3468 11-02-2019 00:55:00 4.6 C 91 % 3.26 C
3469 11-02-2019 01:00:00 4.6 C 91 % 3.26 C
3470 11-02-2019 01:05:00 4.4 C 91 % 3.06 C
3471 11-02-2019 01:10:00 4.4 C 92 % 3.22 C
3472 11-02-2019 01:15:00 4.3 C 92 % 3.12 C
3473 11-02-2019 01:20:00 4.3 C 92 % 3.12 C
3474 11-02-2019 01:25:00 4.3 C 93 % 3.27 C
3475 11-02-2019 01:30:00 4.3 C 93 % 3.27 C
Sensor: Nr:Datum:Temp:Feuchte:Taupunkt:
Aussen-T/F 3476 11-02-2019 01:35:00 4.2 C 93 % 3.17 C
3477 11-02-2019 01:40:00 4.2 C 93 % 3.17 C
3478 11-02-2019 01:45:00 4.2 C 93 % 3.17 C
3479 11-02-2019 01:50:00 4.2 C 93 % 3.17 C
3480 11-02-2019 01:55:00 4.2 C 93 % 3.17 C
3481 11-02-2019 02:00:00 4.2 C 93 % 3.17 C
3482 11-02-2019 02:05:00 4.2 C 93 % 3.17 C
3483 11-02-2019 02:10:00 4.1 C 93 % 3.07 C
3484 11-02-2019 02:15:00 4 C 93 % 2.97 C
3485 11-02-2019 02:20:00 3.9 C 93 % 2.87 C
3486 11-02-2019 02:25:00 3.9 C 93 % 2.87 C
3487 11-02-2019 02:30:00 3.9 C 93 % 2.87 C
3488 11-02-2019 02:35:00 3.8 C 93 % 2.77 C
3489 11-02-2019 02:40:00 3.8 C 93 % 2.77 C
3490 11-02-2019 02:45:00 3.8 C 94 % 2.93 C
3491 11-02-2019 02:50:00 3.8 C 94 % 2.93 C
3492 11-02-2019 02:55:00 3.8 C 94 % 2.93 C
3493 11-02-2019 03:00:00 3.9 C 94 % 3.02 C
3494 11-02-2019 03:05:00 3.9 C 94 % 3.02 C
3495 11-02-2019 03:10:00 3.9 C 94 % 3.02 C
3496 11-02-2019 03:15:00 4 C 94 % 3.12 C
3497 11-02-2019 03:20:00 4.1 C 94 % 3.22 C
3498 11-02-2019 03:25:00 4 C 93 % 2.97 C
3499 11-02-2019 03:30:00 3.9 C 93 % 2.87 C
3500 11-02-2019 03:35:00 3.7 C 92 % 2.52 C
Sensor: Nr:Datum:Temp:Feuchte:Taupunkt:
Aussen-T/F 3501 11-02-2019 03:40:00 3.6 C 93 % 2.58 C
3502 11-02-2019 03:45:00 3.6 C 93 % 2.58 C
3503 11-02-2019 03:50:00 3.5 C 93 % 2.48 C
3504 11-02-2019 03:55:00 3.5 C 93 % 2.48 C
3505 11-02-2019 04:00:00 3.5 C 93 % 2.48 C
3506 11-02-2019 04:05:00 3.5 C 93 % 2.48 C
3507 11-02-2019 04:10:00 3.6 C 93 % 2.58 C
3508 11-02-2019 04:15:00 3.6 C 94 % 2.73 C
3509 11-02-2019 04:20:00 3.6 C 94 % 2.73 C
3510 11-02-2019 04:25:00 3.6 C 94 % 2.73 C
3511 11-02-2019 04:30:00 3.6 C 94 % 2.73 C
3512 11-02-2019 04:35:00 3.6 C 94 % 2.73 C
3513 11-02-2019 04:40:00 3.6 C 94 % 2.73 C
3514 11-02-2019 04:45:00 3.7 C 94 % 2.83 C
3515 11-02-2019 04:50:00 3.7 C 94 % 2.83 C
3516 11-02-2019 04:55:00 3.7 C 94 % 2.83 C
3517 11-02-2019 05:00:00 3.8 C 94 % 2.93 C
3518 11-02-2019 05:05:00 3.8 C 94 % 2.93 C
3519 11-02-2019 05:10:00 3.8 C 94 % 2.93 C
3520 11-02-2019 05:15:00 3.9 C 94 % 3.02 C
3521 11-02-2019 05:20:00 3.9 C 94 % 3.02 C
3522 11-02-2019 05:25:00 3.9 C 94 % 3.02 C
3523 11-02-2019 05:30:00 3.9 C 94 % 3.02 C
3524 11-02-2019 05:35:00 3.9 C 94 % 3.02 C
3525 11-02-2019 05:40:00 3.9 C 94 % 3.02 C
Sensor: Nr:Datum:Temp:Feuchte:Taupunkt:
Aussen-T/F 3526 11-02-2019 05:45:00 3.8 C 94 % 2.93 C
3527 11-02-2019 05:50:00 3.8 C 94 % 2.93 C
3528 11-02-2019 05:55:00 3.8 C 94 % 2.93 C
3529 11-02-2019 06:00:00 3.8 C 94 % 2.93 C
3530 11-02-2019 06:05:00 3.8 C 94 % 2.93 C
3531 11-02-2019 06:10:00 3.8 C 94 % 2.93 C
3532 11-02-2019 06:15:00 3.8 C 94 % 2.93 C
3533 11-02-2019 06:20:00 3.8 C 94 % 2.93 C
3534 11-02-2019 06:25:00 3.8 C 94 % 2.93 C
3535 11-02-2019 06:30:00 3.8 C 94 % 2.93 C
3536 11-02-2019 06:35:00 3.8 C 94 % 2.93 C
3537 11-02-2019 06:40:00 3.8 C 94 % 2.93 C
3538 11-02-2019 06:45:00 3.9 C 94 % 3.02 C
3539 11-02-2019 06:50:00 3.9 C 94 % 3.02 C
3540 11-02-2019 06:55:00 3.9 C 94 % 3.02 C
3541 11-02-2019 07:00:00 3.9 C 94 % 3.02 C
3542 11-02-2019 07:05:00 3.9 C 94 % 3.02 C
3543 11-02-2019 07:10:00 4 C 94 % 3.12 C
3544 11-02-2019 07:15:00 4 C 93 % 2.97 C
3545 11-02-2019 07:20:00 4.1 C 93 % 3.07 C
3546 11-02-2019 07:25:00 4.1 C 93 % 3.07 C
3547 11-02-2019 07:30:00 4.1 C 93 % 3.07 C
3548 11-02-2019 07:35:00 4.1 C 92 % 2.92 C
3549 11-02-2019 07:40:00 4.1 C 92 % 2.92 C
3550 11-02-2019 07:45:00 4.1 C 92 % 2.92 C
Sensor: Nr:Datum:Temp:Feuchte:Taupunkt:
Aussen-T/F 3551 11-02-2019 07:50:00 4.2 C 92 % 3.02 C
3552 11-02-2019 07:55:00 4.2 C 91 % 2.87 C
3553 11-02-2019 08:00:00 4.2 C 91 % 2.87 C
3554 11-02-2019 08:05:00 4.2 C 91 % 2.87 C
3555 11-02-2019 08:10:00 4.2 C 91 % 2.87 C
3556 11-02-2019 08:15:00 4.1 C 91 % 2.77 C
3557 11-02-2019 08:20:00 4.1 C 91 % 2.77 C
3558 11-02-2019 08:25:00 4 C 91 % 2.67 C
3559 11-02-2019 08:30:00 4 C 91 % 2.67 C
3560 11-02-2019 08:35:00 4 C 91 % 2.67 C
3561 11-02-2019 08:40:00 4 C 91 % 2.67 C
3562 11-02-2019 08:45:00 4.1 C 91 % 2.77 C
3563 11-02-2019 08:50:00 4.1 C 91 % 2.77 C
3564 11-02-2019 08:55:00 4.1 C 91 % 2.77 C
3565 11-02-2019 09:00:00 4.1 C 91 % 2.77 C
3566 11-02-2019 09:05:00 4.1 C 91 % 2.77 C
3567 11-02-2019 09:10:00 4.1 C 91 % 2.77 C
3568 11-02-2019 09:15:00 4.1 C 90 % 2.61 C
3569 11-02-2019 09:20:00 4.1 C 90 % 2.61 C
3570 11-02-2019 09:25:00 4.2 C 90 % 2.71 C
3571 11-02-2019 09:30:00 4.2 C 90 % 2.71 C
3572 11-02-2019 09:35:00 4.2 C 90 % 2.71 C
3573 11-02-2019 09:40:00 4.3 C 90 % 2.81 C
3574 11-02-2019 09:45:00 4.3 C 89 % 2.65 C
3575 11-02-2019 09:50:00 4.4 C 89 % 2.75 C
Sensor: Nr:Datum:Temp:Feuchte:Taupunkt:
Aussen-T/F 3576 11-02-2019 09:55:00 4.4 C 88 % 2.59 C
3577 11-02-2019 10:00:00 4.5 C 88 % 2.69 C
3578 11-02-2019 10:05:00 4.6 C 88 % 2.79 C
3579 11-02-2019 10:10:00 4.7 C 88 % 2.89 C
3580 11-02-2019 10:15:00 4.8 C 88 % 2.99 C
3581 11-02-2019 10:20:00 4.9 C 88 % 3.08 C
3582 11-02-2019 10:25:00 5 C 87 % 3.02 C
3583 11-02-2019 10:30:00 5.1 C 86 % 2.96 C
3584 11-02-2019 10:35:00 5.2 C 85 % 2.89 C
3585 11-02-2019 10:40:00 5.2 C 84 % 2.72 C
3586 11-02-2019 10:45:00 5.2 C 84 % 2.72 C
3587 11-02-2019 10:50:00 5.3 C 85 % 2.99 C
3588 11-02-2019 10:55:00 5.3 C 85 % 2.99 C
3589 11-02-2019 11:00:00 5.5 C 85 % 3.18 C
3590 11-02-2019 11:05:00 5.7 C 84 % 3.21 C
3591 11-02-2019 11:10:00 5.7 C 83 % 3.04 C
3592 11-02-2019 11:15:00 5.8 C 83 % 3.14 C
3593 11-02-2019 11:20:00 5.9 C 82 % 3.07 C
3594 11-02-2019 11:25:00 5.9 C 82 % 3.07 C
3595 11-02-2019 11:30:00 5.9 C 81 % 2.9 C
3596 11-02-2019 11:35:00 6.1 C 81 % 3.09 C
3597 11-02-2019 11:40:00 6.1 C 82 % 3.26 C
3598 11-02-2019 11:45:00 6.2 C 80 % 3.01 C
3599 11-02-2019 11:50:00 6.2 C 81 % 3.19 C
3600 11-02-2019 11:55:00 6.3 C 81 % 3.29 C
Sensor: Nr:Datum:Temp:Feuchte:Taupunkt:
Aussen-T/F 3601 11-02-2019 12:00:00 6.3 C 80 % 3.11 C
3602 11-02-2019 12:05:00 6.4 C 78 % 2.85 C
3603 11-02-2019 12:10:00 6.5 C 79 % 3.13 C
3604 11-02-2019 12:15:00 6.6 C 78 % 3.05 C
3605 11-02-2019 12:20:00 6.6 C 78 % 3.05 C
3606 11-02-2019 12:25:00 6.6 C 78 % 3.05 C
3607 11-02-2019 12:30:00 6.6 C 78 % 3.05 C
3608 11-02-2019 12:35:00 6.7 C 78 % 3.14 C
3609 11-02-2019 12:40:00 6.7 C 79 % 3.32 C
3610 11-02-2019 12:45:00 6.8 C 78 % 3.24 C
3611 11-02-2019 12:50:00 6.8 C 79 % 3.42 C
3612 11-02-2019 12:55:00 6.8 C 78 % 3.24 C
3613 11-02-2019 13:00:00 6.9 C 78 % 3.34 C
3614 11-02-2019 13:05:00 7.1 C 76 % 3.16 C
3615 11-02-2019 13:10:00 7.2 C 76 % 3.26 C
3616 11-02-2019 13:15:00 7.2 C 75 % 3.07 C
3617 11-02-2019 13:20:00 7.2 C 75 % 3.07 C
3618 11-02-2019 13:25:00 7.3 C 75 % 3.17 C
3619 11-02-2019 13:30:00 7.3 C 75 % 3.17 C
3620 11-02-2019 13:35:00 7.4 C 74 % 3.08 C
3621 11-02-2019 13:40:00 7.5 C 73 % 2.98 C
3622 11-02-2019 13:45:00 7.6 C 72 % 2.88 C
3623 11-02-2019 13:50:00 7.4 C 71 % 2.5 C
3624 11-02-2019 13:55:00 7.4 C 73 % 2.89 C
3625 11-02-2019 14:00:00 7.3 C 73 % 2.79 C
Sensor: Nr:Datum:Temp:Feuchte:Taupunkt:
Aussen-T/F 3626 11-02-2019 14:05:00 7.3 C 73 % 2.79 C
3627 11-02-2019 14:10:00 7.3 C 73 % 2.79 C
3628 11-02-2019 14:15:00 7.3 C 73 % 2.79 C
3629 11-02-2019 14:20:00 7.3 C 74 % 2.98 C
3630 11-02-2019 14:25:00 7.3 C 72 % 2.6 C
3631 11-02-2019 14:30:00 7.3 C 73 % 2.79 C
3632 11-02-2019 14:35:00 7.4 C 73 % 2.89 C
3633 11-02-2019 14:40:00 7.4 C 74 % 3.08 C
3634 11-02-2019 14:45:00 7.5 C 72 % 2.79 C
3635 11-02-2019 14:50:00 7.5 C 73 % 2.98 C
3636 11-02-2019 14:55:00 7.4 C 72 % 2.69 C
3637 11-02-2019 15:00:00 7.4 C 73 % 2.89 C
3638 11-02-2019 15:05:00 7.4 C 74 % 3.08 C
3639 11-02-2019 15:10:00 7.3 C 73 % 2.79 C
3640 11-02-2019 15:15:00 7.3 C 74 % 2.98 C
3641 11-02-2019 15:20:00 7.3 C 74 % 2.98 C
3642 11-02-2019 15:25:00 7.3 C 74 % 2.98 C
3643 11-02-2019 15:30:00 7.3 C 74 % 2.98 C
3644 11-02-2019 15:35:00 7.4 C 73 % 2.89 C
3645 11-02-2019 15:40:00 7.4 C 74 % 3.08 C
3646 11-02-2019 15:45:00 7.4 C 74 % 3.08 C
3647 11-02-2019 15:50:00 7.4 C 74 % 3.08 C
3648 11-02-2019 15:55:00 7.4 C 74 % 3.08 C
3649 11-02-2019 16:00:00 7.3 C 75 % 3.17 C
3650 11-02-2019 16:05:00 7.3 C 76 % 3.36 C
Sensor: Nr:Datum:Temp:Feuchte:Taupunkt:
Aussen-T/F 3651 11-02-2019 16:10:00 7.1 C 78 % 3.53 C
3652 11-02-2019 16:15:00 7 C 78 % 3.43 C
3653 11-02-2019 16:20:00 6.9 C 79 % 3.52 C
3654 11-02-2019 16:25:00 6.8 C 79 % 3.42 C
3655 11-02-2019 16:30:00 6.8 C 79 % 3.42 C
3656 11-02-2019 16:35:00 6.8 C 79 % 3.42 C
3657 11-02-2019 16:40:00 6.8 C 79 % 3.42 C
3658 11-02-2019 16:45:00 6.8 C 81 % 3.77 C
3659 11-02-2019 16:50:00 6.7 C 82 % 3.85 C
3660 11-02-2019 16:55:00 6.6 C 83 % 3.92 C
3661 11-02-2019 17:00:00 6.4 C 84 % 3.9 C
3662 11-02-2019 17:05:00 6.4 C 84 % 3.9 C
3663 11-02-2019 17:10:00 6.3 C 84 % 3.8 C
3664 11-02-2019 17:15:00 6.2 C 85 % 3.87 C
3665 11-02-2019 17:20:00 6.1 C 85 % 3.77 C
3666 11-02-2019 17:25:00 6.1 C 86 % 3.94 C
3667 11-02-2019 17:30:00 6.1 C 84 % 3.61 C
3668 11-02-2019 17:35:00 6.1 C 83 % 3.44 C
3669 11-02-2019 17:40:00 6.2 C 83 % 3.53 C
3670 11-02-2019 17:45:00 6.2 C 83 % 3.53 C
3671 11-02-2019 17:50:00 6.2 C 83 % 3.53 C
3672 11-02-2019 17:55:00 6.1 C 81 % 3.09 C
3673 11-02-2019 18:00:00 6.1 C 79 % 2.74 C
3674 11-02-2019 18:05:00 6.1 C 79 % 2.74 C
3675 11-02-2019 18:10:00 6 C 78 % 2.46 C
Sensor: Nr:Datum:Temp:Feuchte:Taupunkt:
Aussen-T/F 3676 11-02-2019 18:15:00 5.9 C 79 % 2.54 C
3677 11-02-2019 18:20:00 5.8 C 79 % 2.45 C
3678 11-02-2019 18:25:00 5.8 C 79 % 2.45 C
3679 11-02-2019 18:30:00 5.7 C 79 % 2.35 C
3680 11-02-2019 18:35:00 5.7 C 79 % 2.35 C
3681 11-02-2019 18:40:00 5.6 C 80 % 2.43 C
3682 11-02-2019 18:45:00 5.4 C 80 % 2.23 C
3683 11-02-2019 18:50:00 5.4 C 80 % 2.23 C
3684 11-02-2019 18:55:00 5.3 C 81 % 2.31 C
3685 11-02-2019 19:00:00 5.3 C 81 % 2.31 C
3686 11-02-2019 19:05:00 5.2 C 81 % 2.21 C
3687 11-02-2019 19:10:00 5 C 82 % 2.19 C
3688 11-02-2019 19:15:00 4.9 C 83 % 2.26 C
3689 11-02-2019 19:20:00 4.7 C 84 % 2.23 C
3690 11-02-2019 19:25:00 4.6 C 84 % 2.14 C
3691 11-02-2019 19:30:00 4.5 C 86 % 2.37 C
3692 11-02-2019 19:35:00 4.6 C 87 % 2.63 C
3693 11-02-2019 19:40:00 4.8 C 87 % 2.82 C
3694 11-02-2019 19:45:00 4.8 C 87 % 2.82 C
3695 11-02-2019 19:50:00 4.8 C 87 % 2.82 C
3696 11-02-2019 19:55:00 4.8 C 87 % 2.82 C
3697 11-02-2019 20:00:00 4.8 C 87 % 2.82 C
3698 11-02-2019 20:05:00 4.7 C 86 % 2.56 C
3699 11-02-2019 20:10:00 4.4 C 86 % 2.27 C
3700 11-02-2019 20:15:00 4.3 C 87 % 2.33 C
Sensor: Nr:Datum:Temp:Feuchte:Taupunkt:
Aussen-T/F 3701 11-02-2019 20:20:00 4.2 C 87 % 2.23 C
3702 11-02-2019 20:25:00 4.1 C 88 % 2.3 C
3703 11-02-2019 20:30:00 3.9 C 88 % 2.1 C
3704 11-02-2019 20:35:00 3.9 C 88 % 2.1 C
3705 11-02-2019 20:40:00 3.9 C 89 % 2.26 C
3706 11-02-2019 20:45:00 3.9 C 88 % 2.1 C
3707 11-02-2019 20:50:00 3.9 C 88 % 2.1 C
3708 11-02-2019 20:55:00 3.9 C 88 % 2.1 C
3709 11-02-2019 21:00:00 3.8 C 88 % 2 C
3710 11-02-2019 21:05:00 3.7 C 88 % 1.9 C
3711 11-02-2019 21:10:00 3.7 C 88 % 1.9 C
3712 11-02-2019 21:15:00 3.5 C 89 % 1.86 C
3713 11-02-2019 21:20:00 3.4 C 89 % 1.76 C
3714 11-02-2019 21:25:00 3.4 C 89 % 1.76 C
3715 11-02-2019 21:30:00 3.4 C 89 % 1.76 C
3716 11-02-2019 21:35:00 3.4 C 89 % 1.76 C
3717 11-02-2019 21:40:00 3.4 C 89 % 1.76 C
3718 11-02-2019 21:45:00 3.3 C 88 % 1.51 C
3719 11-02-2019 21:50:00 3.2 C 89 % 1.57 C
3720 11-02-2019 21:55:00 3.2 C 89 % 1.57 C
3721 11-02-2019 22:00:00 3.1 C 89 % 1.47 C
3722 11-02-2019 22:05:00 3 C 89 % 1.37 C
3723 11-02-2019 22:10:00 2.9 C 89 % 1.27 C
3724 11-02-2019 22:15:00 2.8 C 89 % 1.17 C
3725 11-02-2019 22:20:00 2.8 C 90 % 1.33 C
Sensor: Nr:Datum:Temp:Feuchte:Taupunkt:
Aussen-T/F 3726 11-02-2019 22:25:00 2.7 C 90 % 1.23 C
3727 11-02-2019 22:30:00 2.7 C 90 % 1.23 C
3728 11-02-2019 22:35:00 2.7 C 90 % 1.23 C
3729 11-02-2019 22:40:00 2.7 C 91 % 1.38 C
3730 11-02-2019 22:45:00 2.6 C 91 % 1.28 C
3731 11-02-2019 22:50:00 2.6 C 91 % 1.28 C
3732 11-02-2019 22:55:00 2.6 C 91 % 1.28 C
3733 11-02-2019 23:00:00 2.5 C 91 % 1.18 C
3734 11-02-2019 23:05:00 2.5 C 91 % 1.18 C
3735 11-02-2019 23:10:00 2.4 C 91 % 1.08 C
3736 11-02-2019 23:15:00 2.4 C 91 % 1.08 C
3737 11-02-2019 23:20:00 2.4 C 92 % 1.24 C
3738 11-02-2019 23:25:00 2.5 C 92 % 1.34 C
3739 11-02-2019 23:30:00 2.5 C 92 % 1.34 C
3740 11-02-2019 23:35:00 2.6 C 92 % 1.43 C
3741 11-02-2019 23:40:00 2.6 C 92 % 1.43 C
3742 11-02-2019 23:45:00 2.7 C 92 % 1.53 C
3743 11-02-2019 23:50:00 2.8 C 92 % 1.63 C
3744 11-02-2019 23:55:00 2.9 C 91 % 1.58 C
3745 12-02-2019 00:00:00 2.9 C 91 % 1.58 C
3746 12-02-2019 00:05:00 3 C 91 % 1.68 C
3747 12-02-2019 00:10:00 3 C 90 % 1.52 C
3748 12-02-2019 00:15:00 3.1 C 90 % 1.62 C
3749 12-02-2019 00:20:00 3.1 C 90 % 1.62 C
3750 12-02-2019 00:25:00 3.1 C 90 % 1.62 C
Sensor: Nr:Datum:Temp:Feuchte:Taupunkt:
Aussen-T/F 3751 12-02-2019 00:30:00 3.1 C 90 % 1.62 C
3752 12-02-2019 00:35:00 3.2 C 90 % 1.72 C
3753 12-02-2019 00:40:00 3.3 C 90 % 1.82 C
3754 12-02-2019 00:45:00 3.3 C 89 % 1.67 C
3755 12-02-2019 00:50:00 3.2 C 89 % 1.57 C
3756 12-02-2019 00:55:00 3.2 C 89 % 1.57 C
3757 12-02-2019 01:00:00 3.2 C 89 % 1.57 C
3758 12-02-2019 01:05:00 3.2 C 89 % 1.57 C
3759 12-02-2019 01:10:00 3.2 C 90 % 1.72 C
3760 12-02-2019 01:15:00 3.1 C 90 % 1.62 C
3761 12-02-2019 01:20:00 3.1 C 90 % 1.62 C
3762 12-02-2019 01:25:00 3.1 C 90 % 1.62 C
3763 12-02-2019 01:30:00 3.1 C 90 % 1.62 C
3764 12-02-2019 01:35:00 3.1 C 90 % 1.62 C
3765 12-02-2019 01:40:00 3 C 90 % 1.52 C
3766 12-02-2019 01:45:00 2.9 C 90 % 1.43 C
3767 12-02-2019 01:50:00 2.9 C 90 % 1.43 C
3768 12-02-2019 01:55:00 2.8 C 90 % 1.33 C
3769 12-02-2019 02:00:00 2.8 C 90 % 1.33 C
3770 12-02-2019 02:05:00 2.7 C 90 % 1.23 C
3771 12-02-2019 02:10:00 2.7 C 91 % 1.38 C
3772 12-02-2019 02:15:00 2.8 C 91 % 1.48 C
3773 12-02-2019 02:20:00 2.8 C 91 % 1.48 C
3774 12-02-2019 02:25:00 2.8 C 91 % 1.48 C
3775 12-02-2019 02:30:00 2.8 C 91 % 1.48 C
Sensor: Nr:Datum:Temp:Feuchte:Taupunkt:
Aussen-T/F 3776 12-02-2019 02:35:00 2.8 C 91 % 1.48 C
3777 12-02-2019 02:40:00 2.9 C 91 % 1.58 C
3778 12-02-2019 02:45:00 2.9 C 91 % 1.58 C
3779 12-02-2019 02:50:00 2.8 C 91 % 1.48 C
3780 12-02-2019 02:55:00 2.8 C 91 % 1.48 C
3781 12-02-2019 03:00:00 2.8 C 91 % 1.48 C
3782 12-02-2019 03:05:00 2.8 C 91 % 1.48 C
3783 12-02-2019 03:10:00 2.8 C 91 % 1.48 C
3784 12-02-2019 03:15:00 2.8 C 91 % 1.48 C
3785 12-02-2019 03:20:00 2.8 C 91 % 1.48 C
3786 12-02-2019 03:25:00 2.7 C 91 % 1.38 C
3787 12-02-2019 03:30:00 2.7 C 90 % 1.23 C
3788 12-02-2019 03:35:00 2.6 C 90 % 1.13 C
3789 12-02-2019 03:40:00 2.5 C 90 % 1.03 C
3790 12-02-2019 03:45:00 2.4 C 91 % 1.08 C
3791 12-02-2019 03:50:00 2.4 C 91 % 1.08 C
3792 12-02-2019 03:55:00 2.3 C 91 % 0.99 C
3793 12-02-2019 04:00:00 2.3 C 91 % 0.99 C
3794 12-02-2019 04:05:00 2.3 C 91 % 0.99 C
3795 12-02-2019 04:10:00 2.3 C 91 % 0.99 C
3796 12-02-2019 04:15:00 2.3 C 92 % 1.14 C
3797 12-02-2019 04:20:00 2.4 C 92 % 1.24 C
3798 12-02-2019 04:25:00 2.4 C 92 % 1.24 C
3799 12-02-2019 04:30:00 2.5 C 92 % 1.34 C
3800 12-02-2019 04:35:00 2.6 C 91 % 1.28 C
Sensor: Nr:Datum:Temp:Feuchte:Taupunkt:
Aussen-T/F 3801 12-02-2019 04:40:00 2.6 C 91 % 1.28 C
3802 12-02-2019 04:45:00 2.7 C 91 % 1.38 C
3803 12-02-2019 04:50:00 2.7 C 91 % 1.38 C
3804 12-02-2019 04:55:00 2.7 C 91 % 1.38 C
3805 12-02-2019 05:00:00 2.7 C 91 % 1.38 C
3806 12-02-2019 05:05:00 2.7 C 91 % 1.38 C
3807 12-02-2019 05:10:00 2.7 C 90 % 1.23 C
3808 12-02-2019 05:15:00 2.7 C 90 % 1.23 C
3809 12-02-2019 05:20:00 2.6 C 90 % 1.13 C
3810 12-02-2019 05:25:00 2.6 C 90 % 1.13 C
3811 12-02-2019 05:30:00 2.6 C 90 % 1.13 C
3812 12-02-2019 05:35:00 2.6 C 91 % 1.28 C
3813 12-02-2019 05:40:00 2.6 C 91 % 1.28 C
3814 12-02-2019 05:45:00 2.6 C 91 % 1.28 C
3815 12-02-2019 05:50:00 2.6 C 91 % 1.28 C
3816 12-02-2019 05:55:00 2.6 C 90 % 1.13 C
3817 12-02-2019 06:00:00 2.6 C 90 % 1.13 C
3818 12-02-2019 06:05:00 2.5 C 90 % 1.03 C
3819 12-02-2019 06:10:00 2.5 C 90 % 1.03 C
3820 12-02-2019 06:15:00 2.5 C 90 % 1.03 C
3821 12-02-2019 06:20:00 2.5 C 90 % 1.03 C
3822 12-02-2019 06:25:00 2.4 C 90 % 0.93 C
3823 12-02-2019 06:30:00 2.3 C 90 % 0.83 C
3824 12-02-2019 06:35:00 2.3 C 90 % 0.83 C
3825 12-02-2019 06:40:00 2.3 C 90 % 0.83 C
Sensor: Nr:Datum:Temp:Feuchte:Taupunkt:
Aussen-T/F 3826 12-02-2019 06:45:00 2.3 C 90 % 0.83 C
3827 12-02-2019 06:50:00 2.3 C 90 % 0.83 C
3828 12-02-2019 06:55:00 2.3 C 91 % 0.99 C
3829 12-02-2019 07:00:00 2.4 C 90 % 0.93 C
3830 12-02-2019 07:05:00 2.4 C 90 % 0.93 C
3831 12-02-2019 07:10:00 2.5 C 90 % 1.03 C
3832 12-02-2019 07:15:00 2.5 C 90 % 1.03 C
3833 12-02-2019 07:20:00 2.5 C 90 % 1.03 C
3834 12-02-2019 07:25:00 2.4 C 90 % 0.93 C
3835 12-02-2019 07:30:00 2.4 C 90 % 0.93 C
3836 12-02-2019 07:35:00 2.4 C 90 % 0.93 C
3837 12-02-2019 07:40:00 2.4 C 90 % 0.93 C
3838 12-02-2019 07:45:00 2.4 C 90 % 0.93 C
3839 12-02-2019 07:50:00 2.4 C 90 % 0.93 C
3840 12-02-2019 07:55:00 2.3 C 90 % 0.83 C
3841 12-02-2019 08:00:00 2.3 C 90 % 0.83 C
3842 12-02-2019 08:05:00 2.3 C 90 % 0.83 C
3843 12-02-2019 08:10:00 2.3 C 90 % 0.83 C
3844 12-02-2019 08:15:00 2.3 C 90 % 0.83 C
3845 12-02-2019 08:20:00 2.3 C 90 % 0.83 C
3846 12-02-2019 08:25:00 2.2 C 90 % 0.73 C
3847 12-02-2019 08:30:00 2.2 C 90 % 0.73 C
3848 12-02-2019 08:35:00 2.2 C 90 % 0.73 C
3849 12-02-2019 08:40:00 2.2 C 90 % 0.73 C
3850 12-02-2019 08:45:00 2.3 C 90 % 0.83 C
Sensor: Nr:Datum:Temp:Feuchte:Taupunkt:
Aussen-T/F 3851 12-02-2019 08:50:00 2.3 C 90 % 0.83 C
3852 12-02-2019 08:55:00 2.4 C 90 % 0.93 C
3853 12-02-2019 09:00:00 2.5 C 90 % 1.03 C
3854 12-02-2019 09:05:00 2.6 C 90 % 1.13 C
3855 12-02-2019 09:10:00 2.7 C 89 % 1.07 C
3856 12-02-2019 09:15:00 2.8 C 89 % 1.17 C
3857 12-02-2019 09:20:00 2.8 C 89 % 1.17 C
3858 12-02-2019 09:25:00 2.9 C 89 % 1.27 C
3859 12-02-2019 09:30:00 3 C 89 % 1.37 C
3860 12-02-2019 09:35:00 3.1 C 88 % 1.31 C
3861 12-02-2019 09:40:00 3.2 C 88 % 1.41 C
3862 12-02-2019 09:45:00 3.3 C 88 % 1.51 C
3863 12-02-2019 09:50:00 3.4 C 88 % 1.61 C
3864 12-02-2019 09:55:00 3.5 C 88 % 1.7 C
3865 12-02-2019 10:00:00 3.6 C 88 % 1.8 C
3866 12-02-2019 10:05:00 3.7 C 87 % 1.74 C
3867 12-02-2019 10:10:00 3.7 C 87 % 1.74 C
3868 12-02-2019 10:15:00 3.8 C 87 % 1.84 C
3869 12-02-2019 10:20:00 3.8 C 87 % 1.84 C
3870 12-02-2019 10:25:00 3.9 C 86 % 1.78 C
3871 12-02-2019 10:30:00 4 C 86 % 1.88 C
3872 12-02-2019 10:35:00 4.1 C 86 % 1.97 C
3873 12-02-2019 10:40:00 4.2 C 86 % 2.07 C
3874 12-02-2019 10:45:00 4.2 C 85 % 1.91 C
3875 12-02-2019 10:50:00 4.2 C 85 % 1.91 C
Sensor: Nr:Datum:Temp:Feuchte:Taupunkt:
Aussen-T/F 3876 12-02-2019 10:55:00 4.3 C 86 % 2.17 C
3877 12-02-2019 11:00:00 4.3 C 85 % 2.01 C
3878 12-02-2019 11:05:00 4.4 C 85 % 2.11 C
3879 12-02-2019 11:10:00 4.4 C 85 % 2.11 C
3880 12-02-2019 11:15:00 4.5 C 84 % 2.04 C
3881 12-02-2019 11:20:00 4.6 C 84 % 2.14 C
3882 12-02-2019 11:25:00 4.6 C 84 % 2.14 C
3883 12-02-2019 11:30:00 4.7 C 84 % 2.23 C
3884 12-02-2019 11:35:00 4.7 C 84 % 2.23 C
3885 12-02-2019 11:40:00 4.8 C 84 % 2.33 C
3886 12-02-2019 11:45:00 4.9 C 84 % 2.43 C
3887 12-02-2019 11:50:00 5 C 83 % 2.36 C
3888 12-02-2019 11:55:00 5 C 83 % 2.36 C
3889 12-02-2019 12:00:00 5.1 C 83 % 2.46 C
3890 12-02-2019 12:05:00 5.1 C 83 % 2.46 C
3891 12-02-2019 12:10:00 5.2 C 83 % 2.56 C
3892 12-02-2019 12:15:00 5.3 C 83 % 2.65 C
3893 12-02-2019 12:20:00 5.3 C 82 % 2.48 C
3894 12-02-2019 12:25:00 5.4 C 82 % 2.58 C
3895 12-02-2019 12:30:00 5.4 C 82 % 2.58 C
3896 12-02-2019 12:35:00 5.5 C 83 % 2.85 C
3897 12-02-2019 12:40:00 5.6 C 83 % 2.95 C
3898 12-02-2019 12:45:00 5.7 C 81 % 2.7 C
3899 12-02-2019 12:50:00 5.8 C 81 % 2.8 C
3900 12-02-2019 12:55:00 5.9 C 81 % 2.9 C
Sensor: Nr:Datum:Temp:Feuchte:Taupunkt:
Aussen-T/F 3901